<?xml version="1.0" encoding="UTF-8" standalone="no" ?>
<gpx xmlns="http://www.topografix.com/GPX/1/1" xmlns:xsi="http://www.w3.org/2001/XMLSchema-instance" xsi:schemaLocation="http://www.topografix.com/GPX/1/1 http://www.topografix.com/GPX/1/1/gpx.xsd" version="1.1" creator="VisuGPX - https://www.visugpx.com">
  <metadata>
    <name>77- Bern 2 dpt Croix de Souvray nov 18</name>
    <desc><![CDATA[Départ de la Croix de Souvray,abris de carriers en fin de randonnée.

Numérisation de la randonnée de Bernard en nov 18.]]></desc>
  </metadata>
  <trk>
    <name><![CDATA[Bern dpt car croix de Souvray]]></name>
    <trkseg>
      <trkpt lat="48.37267" lon="2.64291">
        <ele>124.1</ele>
        <time>2018-11-02T08:19:13Z</time>
      </trkpt>
      <trkpt lat="48.37267" lon="2.64291">
        <ele>124.1</ele>
        <time>2018-11-02T08:19:14Z</time>
      </trkpt>
      <trkpt lat="48.37268" lon="2.64291">
        <ele>119.41</ele>
        <time>2018-11-02T08:19:18Z</time>
      </trkpt>
      <trkpt lat="48.37268" lon="2.64291">
        <ele>119.41</ele>
        <time>2018-11-02T08:19:19Z</time>
      </trkpt>
      <trkpt lat="48.3726" lon="2.64294">
        <ele>114.93</ele>
        <time>2018-11-02T08:19:41Z</time>
      </trkpt>
      <trkpt lat="48.37259" lon="2.64295">
        <ele>120.8</ele>
        <time>2018-11-02T08:19:42Z</time>
      </trkpt>
      <trkpt lat="48.37259" lon="2.64296">
        <ele>120.8</ele>
        <time>2018-11-02T08:19:43Z</time>
      </trkpt>
      <trkpt lat="48.37254" lon="2.643">
        <ele>115.33</ele>
        <time>2018-11-02T08:19:48Z</time>
      </trkpt>
      <trkpt lat="48.37253" lon="2.64301">
        <ele>119.32</ele>
        <time>2018-11-02T08:19:49Z</time>
      </trkpt>
      <trkpt lat="48.37251" lon="2.64303">
        <ele>120.75</ele>
        <time>2018-11-02T08:19:51Z</time>
      </trkpt>
      <trkpt lat="48.37246" lon="2.64309">
        <ele>118.41</ele>
        <time>2018-11-02T08:19:56Z</time>
      </trkpt>
      <trkpt lat="48.37245" lon="2.64313">
        <ele>120.88</ele>
        <time>2018-11-02T08:19:59Z</time>
      </trkpt>
      <trkpt lat="48.37233" lon="2.64327">
        <ele>120.95</ele>
        <time>2018-11-02T08:20:16Z</time>
      </trkpt>
      <trkpt lat="48.37218" lon="2.64333">
        <ele>120.94</ele>
        <time>2018-11-02T08:20:32Z</time>
      </trkpt>
      <trkpt lat="48.37214" lon="2.64335">
        <ele>120.95</ele>
        <time>2018-11-02T08:20:35Z</time>
      </trkpt>
      <trkpt lat="48.37206" lon="2.64335">
        <ele>120.96</ele>
        <time>2018-11-02T08:20:43Z</time>
      </trkpt>
      <trkpt lat="48.37181" lon="2.6434">
        <ele>120.99</ele>
        <time>2018-11-02T08:21:03Z</time>
      </trkpt>
      <trkpt lat="48.37169" lon="2.64343">
        <ele>121.01</ele>
        <time>2018-11-02T08:21:16Z</time>
      </trkpt>
      <trkpt lat="48.37162" lon="2.64345">
        <ele>118.68</ele>
        <time>2018-11-02T08:21:21Z</time>
      </trkpt>
      <trkpt lat="48.37141" lon="2.64345">
        <ele>117.95</ele>
        <time>2018-11-02T08:21:35Z</time>
      </trkpt>
      <trkpt lat="48.37126" lon="2.64341">
        <ele>118.03</ele>
        <time>2018-11-02T08:21:44Z</time>
      </trkpt>
      <trkpt lat="48.37123" lon="2.64341">
        <ele>118.04</ele>
        <time>2018-11-02T08:21:46Z</time>
      </trkpt>
      <trkpt lat="48.37096" lon="2.64346">
        <ele>118.18</ele>
        <time>2018-11-02T08:22:10Z</time>
      </trkpt>
      <trkpt lat="48.37083" lon="2.64346">
        <ele>118.25</ele>
        <time>2018-11-02T08:22:18Z</time>
      </trkpt>
      <trkpt lat="48.37082" lon="2.64346">
        <ele>118.26</ele>
        <time>2018-11-02T08:22:19Z</time>
      </trkpt>
      <trkpt lat="48.37069" lon="2.64348">
        <ele>118.35</ele>
        <time>2018-11-02T08:22:31Z</time>
      </trkpt>
      <trkpt lat="48.37055" lon="2.64348">
        <ele>118.45</ele>
        <time>2018-11-02T08:22:42Z</time>
      </trkpt>
      <trkpt lat="48.37053" lon="2.64349">
        <ele>118.46</ele>
        <time>2018-11-02T08:22:43Z</time>
      </trkpt>
      <trkpt lat="48.37042" lon="2.64356">
        <ele>118.58</ele>
        <time>2018-11-02T08:22:55Z</time>
      </trkpt>
      <trkpt lat="48.37031" lon="2.64361">
        <ele>118.67</ele>
        <time>2018-11-02T08:23:06Z</time>
      </trkpt>
      <trkpt lat="48.37025" lon="2.6436">
        <ele>118.68</ele>
        <time>2018-11-02T08:23:10Z</time>
      </trkpt>
      <trkpt lat="48.37023" lon="2.6436">
        <ele>118.72</ele>
        <time>2018-11-02T08:23:12Z</time>
      </trkpt>
      <trkpt lat="48.3702" lon="2.64361">
        <ele>118.73</ele>
        <time>2018-11-02T08:23:14Z</time>
      </trkpt>
      <trkpt lat="48.37016" lon="2.6436">
        <ele>118.75</ele>
        <time>2018-11-02T08:23:17Z</time>
      </trkpt>
      <trkpt lat="48.37012" lon="2.64359">
        <ele>118.76</ele>
        <time>2018-11-02T08:23:20Z</time>
      </trkpt>
      <trkpt lat="48.3701" lon="2.64359">
        <ele>118.77</ele>
        <time>2018-11-02T08:23:21Z</time>
      </trkpt>
      <trkpt lat="48.37001" lon="2.64361">
        <ele>118.83</ele>
        <time>2018-11-02T08:23:29Z</time>
      </trkpt>
      <trkpt lat="48.37" lon="2.64361">
        <ele>118.83</ele>
        <time>2018-11-02T08:23:30Z</time>
      </trkpt>
      <trkpt lat="48.36997" lon="2.64362">
        <ele>118.86</ele>
        <time>2018-11-02T08:23:32Z</time>
      </trkpt>
      <trkpt lat="48.36996" lon="2.64362">
        <ele>118.85</ele>
        <time>2018-11-02T08:23:33Z</time>
      </trkpt>
      <trkpt lat="48.36994" lon="2.64362">
        <ele>118.88</ele>
        <time>2018-11-02T08:23:35Z</time>
      </trkpt>
      <trkpt lat="48.36988" lon="2.64362">
        <ele>118.89</ele>
        <time>2018-11-02T08:23:39Z</time>
      </trkpt>
      <trkpt lat="48.36982" lon="2.64362">
        <ele>118.96</ele>
        <time>2018-11-02T08:23:44Z</time>
      </trkpt>
      <trkpt lat="48.3698" lon="2.64362">
        <ele>118.95</ele>
        <time>2018-11-02T08:23:45Z</time>
      </trkpt>
      <trkpt lat="48.36979" lon="2.64362">
        <ele>118.95</ele>
        <time>2018-11-02T08:23:46Z</time>
      </trkpt>
      <trkpt lat="48.36963" lon="2.64363">
        <ele>118.33</ele>
        <time>2018-11-02T08:23:58Z</time>
      </trkpt>
      <trkpt lat="48.3696" lon="2.64364">
        <ele>118.35</ele>
        <time>2018-11-02T08:24:00Z</time>
      </trkpt>
      <trkpt lat="48.36959" lon="2.64364">
        <ele>118.35</ele>
        <time>2018-11-02T08:24:01Z</time>
      </trkpt>
      <trkpt lat="48.36957" lon="2.64364">
        <ele>118.36</ele>
        <time>2018-11-02T08:24:02Z</time>
      </trkpt>
      <trkpt lat="48.36956" lon="2.64364">
        <ele>118.37</ele>
        <time>2018-11-02T08:24:03Z</time>
      </trkpt>
      <trkpt lat="48.36955" lon="2.64364">
        <ele>118.38</ele>
        <time>2018-11-02T08:24:04Z</time>
      </trkpt>
      <trkpt lat="48.36953" lon="2.64365">
        <ele>118.4</ele>
        <time>2018-11-02T08:24:06Z</time>
      </trkpt>
      <trkpt lat="48.36952" lon="2.64366">
        <ele>118.41</ele>
        <time>2018-11-02T08:24:07Z</time>
      </trkpt>
      <trkpt lat="48.3695" lon="2.64366">
        <ele>118.42</ele>
        <time>2018-11-02T08:24:08Z</time>
      </trkpt>
      <trkpt lat="48.36949" lon="2.64365">
        <ele>118.42</ele>
        <time>2018-11-02T08:24:09Z</time>
      </trkpt>
      <trkpt lat="48.36938" lon="2.64369">
        <ele>118.52</ele>
        <time>2018-11-02T08:24:19Z</time>
      </trkpt>
      <trkpt lat="48.36933" lon="2.6437">
        <ele>118.54</ele>
        <time>2018-11-02T08:24:24Z</time>
      </trkpt>
      <trkpt lat="48.36932" lon="2.6437">
        <ele>118.56</ele>
        <time>2018-11-02T08:24:25Z</time>
      </trkpt>
      <trkpt lat="48.36927" lon="2.64371">
        <ele>118.57</ele>
        <time>2018-11-02T08:24:28Z</time>
      </trkpt>
      <trkpt lat="48.36924" lon="2.64372">
        <ele>118.59</ele>
        <time>2018-11-02T08:24:30Z</time>
      </trkpt>
      <trkpt lat="48.3692" lon="2.64373">
        <ele>118.64</ele>
        <time>2018-11-02T08:24:33Z</time>
      </trkpt>
      <trkpt lat="48.36919" lon="2.64374">
        <ele>118.63</ele>
        <time>2018-11-02T08:24:34Z</time>
      </trkpt>
      <trkpt lat="48.36918" lon="2.64374">
        <ele>118.65</ele>
        <time>2018-11-02T08:24:35Z</time>
      </trkpt>
      <trkpt lat="48.36917" lon="2.64374">
        <ele>118.67</ele>
        <time>2018-11-02T08:24:36Z</time>
      </trkpt>
      <trkpt lat="48.36913" lon="2.64374">
        <ele>118.64</ele>
        <time>2018-11-02T08:24:38Z</time>
      </trkpt>
      <trkpt lat="48.36912" lon="2.64374">
        <ele>118.65</ele>
        <time>2018-11-02T08:24:39Z</time>
      </trkpt>
      <trkpt lat="48.36903" lon="2.64377">
        <ele>118.69</ele>
        <time>2018-11-02T08:24:48Z</time>
      </trkpt>
      <trkpt lat="48.36881" lon="2.64371">
        <ele>118.78</ele>
        <time>2018-11-02T08:25:02Z</time>
      </trkpt>
      <trkpt lat="48.3685" lon="2.64372">
        <ele>118.83</ele>
        <time>2018-11-02T08:25:22Z</time>
      </trkpt>
      <trkpt lat="48.3683" lon="2.64374">
        <ele>118.85</ele>
        <time>2018-11-02T08:25:38Z</time>
      </trkpt>
      <trkpt lat="48.3682" lon="2.64376">
        <ele>118.83</ele>
        <time>2018-11-02T08:25:48Z</time>
      </trkpt>
      <trkpt lat="48.36818" lon="2.64376">
        <ele>118.83</ele>
        <time>2018-11-02T08:25:49Z</time>
      </trkpt>
      <trkpt lat="48.36804" lon="2.64376">
        <ele>117.98</ele>
        <time>2018-11-02T08:26:00Z</time>
      </trkpt>
      <trkpt lat="48.36791" lon="2.64374">
        <ele>117.15</ele>
        <time>2018-11-02T08:26:11Z</time>
      </trkpt>
      <trkpt lat="48.36784" lon="2.64376">
        <ele>117.15</ele>
        <time>2018-11-02T08:26:22Z</time>
      </trkpt>
      <trkpt lat="48.36781" lon="2.64378">
        <ele>117.26</ele>
        <time>2018-11-02T08:26:49Z</time>
      </trkpt>
      <trkpt lat="48.36769" lon="2.64379">
        <ele>117.31</ele>
        <time>2018-11-02T08:27:05Z</time>
      </trkpt>
      <trkpt lat="48.36755" lon="2.64379">
        <ele>116.52</ele>
        <time>2018-11-02T08:27:19Z</time>
      </trkpt>
      <trkpt lat="48.36736" lon="2.64377">
        <ele>116.65</ele>
        <time>2018-11-02T08:27:38Z</time>
      </trkpt>
      <trkpt lat="48.36727" lon="2.64379">
        <ele>116.73</ele>
        <time>2018-11-02T08:27:51Z</time>
      </trkpt>
      <trkpt lat="48.36722" lon="2.6438">
        <ele>116.74</ele>
        <time>2018-11-02T08:27:54Z</time>
      </trkpt>
      <trkpt lat="48.36721" lon="2.6438">
        <ele>116.75</ele>
        <time>2018-11-02T08:27:55Z</time>
      </trkpt>
      <trkpt lat="48.36715" lon="2.64384">
        <ele>116.78</ele>
        <time>2018-11-02T08:28:01Z</time>
      </trkpt>
      <trkpt lat="48.36708" lon="2.64398">
        <ele>116.86</ele>
        <time>2018-11-02T08:28:12Z</time>
      </trkpt>
      <trkpt lat="48.36705" lon="2.64406">
        <ele>116.99</ele>
        <time>2018-11-02T08:28:26Z</time>
      </trkpt>
      <trkpt lat="48.367" lon="2.64405">
        <ele>117.09</ele>
        <time>2018-11-02T08:28:39Z</time>
      </trkpt>
      <trkpt lat="48.36699" lon="2.64407">
        <ele>117.1</ele>
        <time>2018-11-02T08:28:40Z</time>
      </trkpt>
      <trkpt lat="48.36698" lon="2.64408">
        <ele>117.1</ele>
        <time>2018-11-02T08:28:41Z</time>
      </trkpt>
      <trkpt lat="48.36693" lon="2.64422">
        <ele>117.2</ele>
        <time>2018-11-02T08:28:53Z</time>
      </trkpt>
      <trkpt lat="48.36689" lon="2.64433">
        <ele>117.28</ele>
        <time>2018-11-02T08:29:01Z</time>
      </trkpt>
      <trkpt lat="48.36689" lon="2.64439">
        <ele>117.31</ele>
        <time>2018-11-02T08:29:04Z</time>
      </trkpt>
      <trkpt lat="48.36689" lon="2.64442">
        <ele>117.32</ele>
        <time>2018-11-02T08:29:05Z</time>
      </trkpt>
      <trkpt lat="48.36689" lon="2.64444">
        <ele>117.34</ele>
        <time>2018-11-02T08:29:06Z</time>
      </trkpt>
      <trkpt lat="48.36685" lon="2.64461">
        <ele>117.41</ele>
        <time>2018-11-02T08:29:15Z</time>
      </trkpt>
      <trkpt lat="48.36685" lon="2.64462">
        <ele>117.42</ele>
        <time>2018-11-02T08:29:16Z</time>
      </trkpt>
      <trkpt lat="48.36684" lon="2.64464">
        <ele>117.43</ele>
        <time>2018-11-02T08:29:17Z</time>
      </trkpt>
      <trkpt lat="48.3668" lon="2.64479">
        <ele>117.52</ele>
        <time>2018-11-02T08:29:27Z</time>
      </trkpt>
      <trkpt lat="48.36678" lon="2.64484">
        <ele>117.56</ele>
        <time>2018-11-02T08:29:31Z</time>
      </trkpt>
      <trkpt lat="48.36677" lon="2.64486">
        <ele>117.57</ele>
        <time>2018-11-02T08:29:32Z</time>
      </trkpt>
      <trkpt lat="48.36676" lon="2.6449">
        <ele>117.58</ele>
        <time>2018-11-02T08:29:35Z</time>
      </trkpt>
      <trkpt lat="48.36675" lon="2.64491">
        <ele>117.6</ele>
        <time>2018-11-02T08:29:36Z</time>
      </trkpt>
      <trkpt lat="48.36674" lon="2.64492">
        <ele>117.6</ele>
        <time>2018-11-02T08:29:37Z</time>
      </trkpt>
      <trkpt lat="48.3667" lon="2.64513">
        <ele>117.7</ele>
        <time>2018-11-02T08:29:50Z</time>
      </trkpt>
      <trkpt lat="48.36665" lon="2.64537">
        <ele>117.77</ele>
        <time>2018-11-02T08:30:05Z</time>
      </trkpt>
      <trkpt lat="48.36661" lon="2.64553">
        <ele>117.86</ele>
        <time>2018-11-02T08:30:19Z</time>
      </trkpt>
      <trkpt lat="48.36656" lon="2.64574">
        <ele>117.95</ele>
        <time>2018-11-02T08:30:35Z</time>
      </trkpt>
      <trkpt lat="48.36647" lon="2.64606">
        <ele>118.1</ele>
        <time>2018-11-02T08:30:54Z</time>
      </trkpt>
      <trkpt lat="48.36641" lon="2.64626">
        <ele>118.13</ele>
        <time>2018-11-02T08:31:06Z</time>
      </trkpt>
      <trkpt lat="48.36641" lon="2.64629">
        <ele>118.14</ele>
        <time>2018-11-02T08:31:08Z</time>
      </trkpt>
      <trkpt lat="48.36639" lon="2.64643">
        <ele>118.23</ele>
        <time>2018-11-02T08:31:23Z</time>
      </trkpt>
      <trkpt lat="48.36635" lon="2.64663">
        <ele>118.32</ele>
        <time>2018-11-02T08:31:39Z</time>
      </trkpt>
      <trkpt lat="48.36634" lon="2.64667">
        <ele>118.34</ele>
        <time>2018-11-02T08:31:42Z</time>
      </trkpt>
      <trkpt lat="48.36634" lon="2.64669">
        <ele>118.34</ele>
        <time>2018-11-02T08:31:43Z</time>
      </trkpt>
      <trkpt lat="48.36633" lon="2.64671">
        <ele>118.35</ele>
        <time>2018-11-02T08:31:44Z</time>
      </trkpt>
      <trkpt lat="48.36629" lon="2.64687">
        <ele>118.4</ele>
        <time>2018-11-02T08:31:54Z</time>
      </trkpt>
      <trkpt lat="48.36627" lon="2.64696">
        <ele>118.47</ele>
        <time>2018-11-02T08:32:07Z</time>
      </trkpt>
      <trkpt lat="48.36623" lon="2.6471">
        <ele>118.49</ele>
        <time>2018-11-02T08:32:19Z</time>
      </trkpt>
      <trkpt lat="48.36623" lon="2.64714">
        <ele>118.5</ele>
        <time>2018-11-02T08:32:22Z</time>
      </trkpt>
      <trkpt lat="48.36618" lon="2.64732">
        <ele>118.56</ele>
        <time>2018-11-02T08:32:35Z</time>
      </trkpt>
      <trkpt lat="48.36612" lon="2.64751">
        <ele>118.6</ele>
        <time>2018-11-02T08:32:47Z</time>
      </trkpt>
      <trkpt lat="48.36612" lon="2.64753">
        <ele>118.59</ele>
        <time>2018-11-02T08:32:48Z</time>
      </trkpt>
      <trkpt lat="48.36612" lon="2.64755">
        <ele>118.57</ele>
        <time>2018-11-02T08:32:49Z</time>
      </trkpt>
      <trkpt lat="48.36611" lon="2.64757">
        <ele>118.59</ele>
        <time>2018-11-02T08:32:50Z</time>
      </trkpt>
      <trkpt lat="48.36611" lon="2.64758">
        <ele>118.6</ele>
        <time>2018-11-02T08:32:51Z</time>
      </trkpt>
      <trkpt lat="48.3661" lon="2.6476">
        <ele>118.61</ele>
        <time>2018-11-02T08:32:52Z</time>
      </trkpt>
      <trkpt lat="48.3661" lon="2.64762">
        <ele>118.6</ele>
        <time>2018-11-02T08:32:53Z</time>
      </trkpt>
      <trkpt lat="48.3661" lon="2.64763">
        <ele>118.62</ele>
        <time>2018-11-02T08:32:54Z</time>
      </trkpt>
      <trkpt lat="48.36609" lon="2.64765">
        <ele>118.62</ele>
        <time>2018-11-02T08:32:55Z</time>
      </trkpt>
      <trkpt lat="48.36609" lon="2.64767">
        <ele>118.63</ele>
        <time>2018-11-02T08:32:56Z</time>
      </trkpt>
      <trkpt lat="48.36608" lon="2.64769">
        <ele>118.62</ele>
        <time>2018-11-02T08:32:57Z</time>
      </trkpt>
      <trkpt lat="48.36601" lon="2.6479">
        <ele>118.65</ele>
        <time>2018-11-02T08:33:12Z</time>
      </trkpt>
      <trkpt lat="48.36599" lon="2.64808">
        <ele>118.68</ele>
        <time>2018-11-02T08:33:23Z</time>
      </trkpt>
      <trkpt lat="48.36593" lon="2.64827">
        <ele>118.74</ele>
        <time>2018-11-02T08:33:36Z</time>
      </trkpt>
      <trkpt lat="48.36592" lon="2.6483">
        <ele>118.74</ele>
        <time>2018-11-02T08:33:37Z</time>
      </trkpt>
      <trkpt lat="48.36592" lon="2.64832">
        <ele>118.75</ele>
        <time>2018-11-02T08:33:38Z</time>
      </trkpt>
      <trkpt lat="48.36591" lon="2.64835">
        <ele>118.76</ele>
        <time>2018-11-02T08:33:39Z</time>
      </trkpt>
      <trkpt lat="48.36591" lon="2.64837">
        <ele>118.76</ele>
        <time>2018-11-02T08:33:40Z</time>
      </trkpt>
      <trkpt lat="48.3659" lon="2.64839">
        <ele>118.77</ele>
        <time>2018-11-02T08:33:41Z</time>
      </trkpt>
      <trkpt lat="48.3659" lon="2.6484">
        <ele>118.77</ele>
        <time>2018-11-02T08:33:42Z</time>
      </trkpt>
      <trkpt lat="48.3659" lon="2.64842">
        <ele>118.77</ele>
        <time>2018-11-02T08:33:43Z</time>
      </trkpt>
      <trkpt lat="48.36587" lon="2.64858">
        <ele>118.8</ele>
        <time>2018-11-02T08:33:52Z</time>
      </trkpt>
      <trkpt lat="48.36586" lon="2.64859">
        <ele>118.8</ele>
        <time>2018-11-02T08:33:53Z</time>
      </trkpt>
      <trkpt lat="48.36585" lon="2.64861">
        <ele>118.8</ele>
        <time>2018-11-02T08:33:54Z</time>
      </trkpt>
      <trkpt lat="48.3658" lon="2.64884">
        <ele>118.84</ele>
        <time>2018-11-02T08:34:09Z</time>
      </trkpt>
      <trkpt lat="48.36574" lon="2.64908">
        <ele>118.89</ele>
        <time>2018-11-02T08:34:25Z</time>
      </trkpt>
      <trkpt lat="48.36566" lon="2.64933">
        <ele>118.95</ele>
        <time>2018-11-02T08:34:41Z</time>
      </trkpt>
      <trkpt lat="48.36562" lon="2.64954">
        <ele>118.99</ele>
        <time>2018-11-02T08:34:55Z</time>
      </trkpt>
      <trkpt lat="48.36559" lon="2.6497">
        <ele>119.03</ele>
        <time>2018-11-02T08:35:05Z</time>
      </trkpt>
      <trkpt lat="48.36557" lon="2.64976">
        <ele>119.05</ele>
        <time>2018-11-02T08:35:09Z</time>
      </trkpt>
      <trkpt lat="48.36556" lon="2.64981">
        <ele>119.06</ele>
        <time>2018-11-02T08:35:12Z</time>
      </trkpt>
      <trkpt lat="48.36556" lon="2.64983">
        <ele>119.06</ele>
        <time>2018-11-02T08:35:13Z</time>
      </trkpt>
      <trkpt lat="48.36551" lon="2.64999">
        <ele>119.11</ele>
        <time>2018-11-02T08:35:24Z</time>
      </trkpt>
      <trkpt lat="48.36551" lon="2.65001">
        <ele>119.12</ele>
        <time>2018-11-02T08:35:25Z</time>
      </trkpt>
      <trkpt lat="48.36545" lon="2.65028">
        <ele>119.2</ele>
        <time>2018-11-02T08:35:41Z</time>
      </trkpt>
      <trkpt lat="48.36538" lon="2.65049">
        <ele>119.26</ele>
        <time>2018-11-02T08:35:55Z</time>
      </trkpt>
      <trkpt lat="48.36535" lon="2.65054">
        <ele>119.28</ele>
        <time>2018-11-02T08:35:59Z</time>
      </trkpt>
      <trkpt lat="48.36527" lon="2.65071">
        <ele>119.34</ele>
        <time>2018-11-02T08:36:12Z</time>
      </trkpt>
      <trkpt lat="48.36524" lon="2.65076">
        <ele>119.36</ele>
        <time>2018-11-02T08:36:16Z</time>
      </trkpt>
      <trkpt lat="48.36523" lon="2.65078">
        <ele>119.36</ele>
        <time>2018-11-02T08:36:17Z</time>
      </trkpt>
      <trkpt lat="48.36514" lon="2.65096">
        <ele>119.47</ele>
        <time>2018-11-02T08:36:32Z</time>
      </trkpt>
      <trkpt lat="48.36513" lon="2.65097">
        <ele>119.48</ele>
        <time>2018-11-02T08:36:33Z</time>
      </trkpt>
      <trkpt lat="48.36512" lon="2.65099">
        <ele>119.48</ele>
        <time>2018-11-02T08:36:34Z</time>
      </trkpt>
      <trkpt lat="48.36506" lon="2.65112">
        <ele>119.55</ele>
        <time>2018-11-02T08:36:45Z</time>
      </trkpt>
      <trkpt lat="48.36496" lon="2.65129">
        <ele>119.69</ele>
        <time>2018-11-02T08:37:04Z</time>
      </trkpt>
      <trkpt lat="48.36492" lon="2.65139">
        <ele>119.74</ele>
        <time>2018-11-02T08:37:10Z</time>
      </trkpt>
      <trkpt lat="48.36488" lon="2.65147">
        <ele>119.79</ele>
        <time>2018-11-02T08:37:16Z</time>
      </trkpt>
      <trkpt lat="48.36479" lon="2.6516">
        <ele>119.88</ele>
        <time>2018-11-02T08:37:29Z</time>
      </trkpt>
      <trkpt lat="48.36473" lon="2.65176">
        <ele>119.98</ele>
        <time>2018-11-02T08:37:43Z</time>
      </trkpt>
      <trkpt lat="48.36469" lon="2.65182">
        <ele>120.02</ele>
        <time>2018-11-02T08:37:48Z</time>
      </trkpt>
      <trkpt lat="48.36469" lon="2.65184">
        <ele>120.02</ele>
        <time>2018-11-02T08:37:49Z</time>
      </trkpt>
      <trkpt lat="48.36459" lon="2.652">
        <ele>120.12</ele>
        <time>2018-11-02T08:38:02Z</time>
      </trkpt>
      <trkpt lat="48.36447" lon="2.6522">
        <ele>120.26</ele>
        <time>2018-11-02T08:38:18Z</time>
      </trkpt>
      <trkpt lat="48.36446" lon="2.65223">
        <ele>120.27</ele>
        <time>2018-11-02T08:38:20Z</time>
      </trkpt>
      <trkpt lat="48.36446" lon="2.65225">
        <ele>120.28</ele>
        <time>2018-11-02T08:38:21Z</time>
      </trkpt>
      <trkpt lat="48.36437" lon="2.65245">
        <ele>119.62</ele>
        <time>2018-11-02T08:38:35Z</time>
      </trkpt>
      <trkpt lat="48.36434" lon="2.65249">
        <ele>119.66</ele>
        <time>2018-11-02T08:38:38Z</time>
      </trkpt>
      <trkpt lat="48.36434" lon="2.65252">
        <ele>119.68</ele>
        <time>2018-11-02T08:38:40Z</time>
      </trkpt>
      <trkpt lat="48.36434" lon="2.65254">
        <ele>119.7</ele>
        <time>2018-11-02T08:38:41Z</time>
      </trkpt>
      <trkpt lat="48.3643" lon="2.65262">
        <ele>118.99</ele>
        <time>2018-11-02T08:38:46Z</time>
      </trkpt>
      <trkpt lat="48.3643" lon="2.65264">
        <ele>119.01</ele>
        <time>2018-11-02T08:38:47Z</time>
      </trkpt>
      <trkpt lat="48.36419" lon="2.65281">
        <ele>119.16</ele>
        <time>2018-11-02T08:39:00Z</time>
      </trkpt>
      <trkpt lat="48.36413" lon="2.653">
        <ele>119.35</ele>
        <time>2018-11-02T08:39:14Z</time>
      </trkpt>
      <trkpt lat="48.36402" lon="2.65318">
        <ele>119.53</ele>
        <time>2018-11-02T08:39:28Z</time>
      </trkpt>
      <trkpt lat="48.36394" lon="2.65334">
        <ele>119.85</ele>
        <time>2018-11-02T08:40:04Z</time>
      </trkpt>
      <trkpt lat="48.36389" lon="2.65347">
        <ele>122.31</ele>
        <time>2018-11-02T08:40:16Z</time>
      </trkpt>
      <trkpt lat="48.36395" lon="2.65351">
        <ele>122.43</ele>
        <time>2018-11-02T08:40:35Z</time>
      </trkpt>
      <trkpt lat="48.36388" lon="2.65351">
        <ele>122.5</ele>
        <time>2018-11-02T08:40:50Z</time>
      </trkpt>
      <trkpt lat="48.36396" lon="2.65348">
        <ele>122.55</ele>
        <time>2018-11-02T08:41:03Z</time>
      </trkpt>
      <trkpt lat="48.364" lon="2.65348">
        <ele>122.59</ele>
        <time>2018-11-02T08:41:19Z</time>
      </trkpt>
      <trkpt lat="48.36401" lon="2.65341">
        <ele>122.68</ele>
        <time>2018-11-02T08:41:45Z</time>
      </trkpt>
      <trkpt lat="48.36411" lon="2.65351">
        <ele>122.74</ele>
        <time>2018-11-02T08:42:10Z</time>
      </trkpt>
      <trkpt lat="48.36413" lon="2.65352">
        <ele>122.74</ele>
        <time>2018-11-02T08:42:12Z</time>
      </trkpt>
      <trkpt lat="48.36414" lon="2.65353">
        <ele>122.74</ele>
        <time>2018-11-02T08:42:13Z</time>
      </trkpt>
      <trkpt lat="48.36415" lon="2.65354">
        <ele>122.74</ele>
        <time>2018-11-02T08:42:14Z</time>
      </trkpt>
      <trkpt lat="48.36416" lon="2.65354">
        <ele>122.74</ele>
        <time>2018-11-02T08:42:15Z</time>
      </trkpt>
      <trkpt lat="48.3643" lon="2.65362">
        <ele>122.77</ele>
        <time>2018-11-02T08:42:29Z</time>
      </trkpt>
      <trkpt lat="48.36441" lon="2.65365">
        <ele>120.51</ele>
        <time>2018-11-02T08:42:39Z</time>
      </trkpt>
      <trkpt lat="48.36456" lon="2.65375">
        <ele>120.46</ele>
        <time>2018-11-02T08:42:53Z</time>
      </trkpt>
      <trkpt lat="48.36475" lon="2.65386">
        <ele>119.6</ele>
        <time>2018-11-02T08:43:11Z</time>
      </trkpt>
      <trkpt lat="48.36484" lon="2.6539">
        <ele>119.57</ele>
        <time>2018-11-02T08:43:20Z</time>
      </trkpt>
      <trkpt lat="48.36486" lon="2.6539">
        <ele>119.57</ele>
        <time>2018-11-02T08:43:21Z</time>
      </trkpt>
      <trkpt lat="48.36498" lon="2.65397">
        <ele>119.54</ele>
        <time>2018-11-02T08:43:33Z</time>
      </trkpt>
      <trkpt lat="48.36514" lon="2.65404">
        <ele>119.53</ele>
        <time>2018-11-02T08:43:47Z</time>
      </trkpt>
      <trkpt lat="48.36519" lon="2.65407">
        <ele>119.55</ele>
        <time>2018-11-02T08:43:53Z</time>
      </trkpt>
      <trkpt lat="48.36521" lon="2.65408">
        <ele>119.55</ele>
        <time>2018-11-02T08:43:54Z</time>
      </trkpt>
      <trkpt lat="48.36522" lon="2.65409">
        <ele>119.55</ele>
        <time>2018-11-02T08:43:55Z</time>
      </trkpt>
      <trkpt lat="48.36538" lon="2.65418">
        <ele>119.6</ele>
        <time>2018-11-02T08:44:10Z</time>
      </trkpt>
      <trkpt lat="48.36548" lon="2.65424">
        <ele>119.64</ele>
        <time>2018-11-02T08:44:19Z</time>
      </trkpt>
      <trkpt lat="48.36568" lon="2.65433">
        <ele>119.74</ele>
        <time>2018-11-02T08:44:35Z</time>
      </trkpt>
      <trkpt lat="48.36582" lon="2.65441">
        <ele>119.82</ele>
        <time>2018-11-02T08:44:48Z</time>
      </trkpt>
      <trkpt lat="48.366" lon="2.6545">
        <ele>119.87</ele>
        <time>2018-11-02T08:45:02Z</time>
      </trkpt>
      <trkpt lat="48.3662" lon="2.65458">
        <ele>119.96</ele>
        <time>2018-11-02T08:45:18Z</time>
      </trkpt>
      <trkpt lat="48.36634" lon="2.65464">
        <ele>119.19</ele>
        <time>2018-11-02T08:45:30Z</time>
      </trkpt>
      <trkpt lat="48.36649" lon="2.6547">
        <ele>118.4</ele>
        <time>2018-11-02T08:45:44Z</time>
      </trkpt>
      <trkpt lat="48.36668" lon="2.65474">
        <ele>118.49</ele>
        <time>2018-11-02T08:45:57Z</time>
      </trkpt>
      <trkpt lat="48.36685" lon="2.65482">
        <ele>118.55</ele>
        <time>2018-11-02T08:46:12Z</time>
      </trkpt>
      <trkpt lat="48.36703" lon="2.6549">
        <ele>117.82</ele>
        <time>2018-11-02T08:46:28Z</time>
      </trkpt>
      <trkpt lat="48.36713" lon="2.65497">
        <ele>117.94</ele>
        <time>2018-11-02T08:46:41Z</time>
      </trkpt>
      <trkpt lat="48.36726" lon="2.65503">
        <ele>118.07</ele>
        <time>2018-11-02T08:46:55Z</time>
      </trkpt>
      <trkpt lat="48.36736" lon="2.65511">
        <ele>118.23</ele>
        <time>2018-11-02T08:47:11Z</time>
      </trkpt>
      <trkpt lat="48.36739" lon="2.65511">
        <ele>120.7</ele>
        <time>2018-11-02T08:47:15Z</time>
      </trkpt>
      <trkpt lat="48.36744" lon="2.65517">
        <ele>120.81</ele>
        <time>2018-11-02T08:47:33Z</time>
      </trkpt>
      <trkpt lat="48.3675" lon="2.65533">
        <ele>120.93</ele>
        <time>2018-11-02T08:47:51Z</time>
      </trkpt>
      <trkpt lat="48.36757" lon="2.65552">
        <ele>121.05</ele>
        <time>2018-11-02T08:48:05Z</time>
      </trkpt>
      <trkpt lat="48.36763" lon="2.65568">
        <ele>121.11</ele>
        <time>2018-11-02T08:48:17Z</time>
      </trkpt>
      <trkpt lat="48.36763" lon="2.6557">
        <ele>121.13</ele>
        <time>2018-11-02T08:48:18Z</time>
      </trkpt>
      <trkpt lat="48.36767" lon="2.65587">
        <ele>121.17</ele>
        <time>2018-11-02T08:48:29Z</time>
      </trkpt>
      <trkpt lat="48.36767" lon="2.65588">
        <ele>121.16</ele>
        <time>2018-11-02T08:48:30Z</time>
      </trkpt>
      <trkpt lat="48.36768" lon="2.65589">
        <ele>121.17</ele>
        <time>2018-11-02T08:48:31Z</time>
      </trkpt>
      <trkpt lat="48.36771" lon="2.65606">
        <ele>121.26</ele>
        <time>2018-11-02T08:48:43Z</time>
      </trkpt>
      <trkpt lat="48.36772" lon="2.65608">
        <ele>121.27</ele>
        <time>2018-11-02T08:48:44Z</time>
      </trkpt>
      <trkpt lat="48.36772" lon="2.65609">
        <ele>121.28</ele>
        <time>2018-11-02T08:48:45Z</time>
      </trkpt>
      <trkpt lat="48.36776" lon="2.65631">
        <ele>121.31</ele>
        <time>2018-11-02T08:49:00Z</time>
      </trkpt>
      <trkpt lat="48.3678" lon="2.65651">
        <ele>121.34</ele>
        <time>2018-11-02T08:49:15Z</time>
      </trkpt>
      <trkpt lat="48.3679" lon="2.65677">
        <ele>121.41</ele>
        <time>2018-11-02T08:49:34Z</time>
      </trkpt>
      <trkpt lat="48.36793" lon="2.6571">
        <ele>121.51</ele>
        <time>2018-11-02T08:49:51Z</time>
      </trkpt>
      <trkpt lat="48.36795" lon="2.65714">
        <ele>121.52</ele>
        <time>2018-11-02T08:49:53Z</time>
      </trkpt>
      <trkpt lat="48.36798" lon="2.65725">
        <ele>121.55</ele>
        <time>2018-11-02T08:50:00Z</time>
      </trkpt>
      <trkpt lat="48.36801" lon="2.65736">
        <ele>121.59</ele>
        <time>2018-11-02T08:50:06Z</time>
      </trkpt>
      <trkpt lat="48.36804" lon="2.65744">
        <ele>121.6</ele>
        <time>2018-11-02T08:50:10Z</time>
      </trkpt>
      <trkpt lat="48.36809" lon="2.65766">
        <ele>121.71</ele>
        <time>2018-11-02T08:50:25Z</time>
      </trkpt>
      <trkpt lat="48.3682" lon="2.65798">
        <ele>121.82</ele>
        <time>2018-11-02T08:50:43Z</time>
      </trkpt>
      <trkpt lat="48.36823" lon="2.65822">
        <ele>119.68</ele>
        <time>2018-11-02T08:51:00Z</time>
      </trkpt>
      <trkpt lat="48.36832" lon="2.65853">
        <ele>119.81</ele>
        <time>2018-11-02T08:51:16Z</time>
      </trkpt>
      <trkpt lat="48.36842" lon="2.65886">
        <ele>119.94</ele>
        <time>2018-11-02T08:51:29Z</time>
      </trkpt>
      <trkpt lat="48.36846" lon="2.65908">
        <ele>120.03</ele>
        <time>2018-11-02T08:51:39Z</time>
      </trkpt>
      <trkpt lat="48.36854" lon="2.65935">
        <ele>120.17</ele>
        <time>2018-11-02T08:51:55Z</time>
      </trkpt>
      <trkpt lat="48.36861" lon="2.65954">
        <ele>120.25</ele>
        <time>2018-11-02T08:52:06Z</time>
      </trkpt>
      <trkpt lat="48.36865" lon="2.65969">
        <ele>120.28</ele>
        <time>2018-11-02T08:52:23Z</time>
      </trkpt>
      <trkpt lat="48.3687" lon="2.65976">
        <ele>120.34</ele>
        <time>2018-11-02T08:52:40Z</time>
      </trkpt>
      <trkpt lat="48.36874" lon="2.65979">
        <ele>120.39</ele>
        <time>2018-11-02T08:53:06Z</time>
      </trkpt>
      <trkpt lat="48.36881" lon="2.65981">
        <ele>120.5</ele>
        <time>2018-11-02T08:53:37Z</time>
      </trkpt>
      <trkpt lat="48.36892" lon="2.6598">
        <ele>120.59</ele>
        <time>2018-11-02T08:53:57Z</time>
      </trkpt>
      <trkpt lat="48.36901" lon="2.65978">
        <ele>122.98</ele>
        <time>2018-11-02T08:54:13Z</time>
      </trkpt>
      <trkpt lat="48.36913" lon="2.65977">
        <ele>122.91</ele>
        <time>2018-11-02T08:54:27Z</time>
      </trkpt>
      <trkpt lat="48.36916" lon="2.65977">
        <ele>123</ele>
        <time>2018-11-02T08:54:30Z</time>
      </trkpt>
      <trkpt lat="48.36937" lon="2.65981">
        <ele>123.03</ele>
        <time>2018-11-02T08:54:46Z</time>
      </trkpt>
      <trkpt lat="48.36957" lon="2.65982">
        <ele>120.64</ele>
        <time>2018-11-02T08:55:05Z</time>
      </trkpt>
      <trkpt lat="48.36965" lon="2.6598">
        <ele>120.66</ele>
        <time>2018-11-02T08:55:11Z</time>
      </trkpt>
      <trkpt lat="48.36966" lon="2.65981">
        <ele>120.66</ele>
        <time>2018-11-02T08:55:12Z</time>
      </trkpt>
      <trkpt lat="48.36968" lon="2.6598">
        <ele>120.66</ele>
        <time>2018-11-02T08:55:13Z</time>
      </trkpt>
      <trkpt lat="48.36982" lon="2.65978">
        <ele>119.9</ele>
        <time>2018-11-02T08:55:26Z</time>
      </trkpt>
      <trkpt lat="48.37001" lon="2.65978">
        <ele>118.97</ele>
        <time>2018-11-02T08:55:40Z</time>
      </trkpt>
      <trkpt lat="48.37002" lon="2.65977">
        <ele>118.98</ele>
        <time>2018-11-02T08:55:41Z</time>
      </trkpt>
      <trkpt lat="48.37003" lon="2.65977">
        <ele>118.98</ele>
        <time>2018-11-02T08:55:42Z</time>
      </trkpt>
      <trkpt lat="48.37007" lon="2.65977">
        <ele>118.12</ele>
        <time>2018-11-02T08:55:45Z</time>
      </trkpt>
      <trkpt lat="48.37021" lon="2.65975">
        <ele>118.17</ele>
        <time>2018-11-02T08:55:57Z</time>
      </trkpt>
      <trkpt lat="48.37024" lon="2.65975">
        <ele>118.17</ele>
        <time>2018-11-02T08:55:59Z</time>
      </trkpt>
      <trkpt lat="48.37029" lon="2.65975">
        <ele>118.23</ele>
        <time>2018-11-02T08:56:03Z</time>
      </trkpt>
      <trkpt lat="48.3703" lon="2.65975">
        <ele>118.23</ele>
        <time>2018-11-02T08:56:04Z</time>
      </trkpt>
      <trkpt lat="48.37032" lon="2.65974">
        <ele>118.24</ele>
        <time>2018-11-02T08:56:05Z</time>
      </trkpt>
      <trkpt lat="48.37049" lon="2.65973">
        <ele>117.5</ele>
        <time>2018-11-02T08:56:19Z</time>
      </trkpt>
      <trkpt lat="48.37067" lon="2.65975">
        <ele>116.71</ele>
        <time>2018-11-02T08:56:35Z</time>
      </trkpt>
      <trkpt lat="48.37086" lon="2.65977">
        <ele>116.82</ele>
        <time>2018-11-02T08:56:50Z</time>
      </trkpt>
      <trkpt lat="48.37089" lon="2.65977">
        <ele>116.83</ele>
        <time>2018-11-02T08:56:52Z</time>
      </trkpt>
      <trkpt lat="48.37091" lon="2.65977">
        <ele>116.83</ele>
        <time>2018-11-02T08:56:53Z</time>
      </trkpt>
      <trkpt lat="48.37094" lon="2.65978">
        <ele>116.84</ele>
        <time>2018-11-02T08:56:55Z</time>
      </trkpt>
      <trkpt lat="48.37095" lon="2.65978">
        <ele>116.85</ele>
        <time>2018-11-02T08:56:56Z</time>
      </trkpt>
      <trkpt lat="48.37104" lon="2.65977">
        <ele>116.89</ele>
        <time>2018-11-02T08:57:03Z</time>
      </trkpt>
      <trkpt lat="48.37106" lon="2.65978">
        <ele>116.9</ele>
        <time>2018-11-02T08:57:04Z</time>
      </trkpt>
      <trkpt lat="48.37107" lon="2.65978">
        <ele>116.9</ele>
        <time>2018-11-02T08:57:05Z</time>
      </trkpt>
      <trkpt lat="48.37108" lon="2.65977">
        <ele>116.91</ele>
        <time>2018-11-02T08:57:06Z</time>
      </trkpt>
      <trkpt lat="48.37122" lon="2.65974">
        <ele>116.11</ele>
        <time>2018-11-02T08:57:20Z</time>
      </trkpt>
      <trkpt lat="48.37137" lon="2.65976">
        <ele>115.45</ele>
        <time>2018-11-02T08:57:35Z</time>
      </trkpt>
      <trkpt lat="48.37145" lon="2.65979">
        <ele>115.53</ele>
        <time>2018-11-02T08:57:42Z</time>
      </trkpt>
      <trkpt lat="48.37146" lon="2.65979">
        <ele>115.54</ele>
        <time>2018-11-02T08:57:43Z</time>
      </trkpt>
      <trkpt lat="48.37166" lon="2.65984">
        <ele>114.89</ele>
        <time>2018-11-02T08:57:58Z</time>
      </trkpt>
      <trkpt lat="48.37174" lon="2.65996">
        <ele>114.98</ele>
        <time>2018-11-02T08:58:12Z</time>
      </trkpt>
      <trkpt lat="48.37187" lon="2.6602">
        <ele>114.35</ele>
        <time>2018-11-02T08:58:30Z</time>
      </trkpt>
      <trkpt lat="48.37195" lon="2.66029">
        <ele>114.41</ele>
        <time>2018-11-02T08:58:36Z</time>
      </trkpt>
      <trkpt lat="48.37197" lon="2.6603">
        <ele>114.43</ele>
        <time>2018-11-02T08:58:38Z</time>
      </trkpt>
      <trkpt lat="48.37198" lon="2.66031">
        <ele>114.43</ele>
        <time>2018-11-02T08:58:39Z</time>
      </trkpt>
      <trkpt lat="48.37208" lon="2.6604">
        <ele>115.89</ele>
        <time>2018-11-02T08:58:48Z</time>
      </trkpt>
      <trkpt lat="48.37216" lon="2.66047">
        <ele>116.02</ele>
        <time>2018-11-02T08:58:57Z</time>
      </trkpt>
      <trkpt lat="48.37227" lon="2.66059">
        <ele>116.02</ele>
        <time>2018-11-02T08:59:13Z</time>
      </trkpt>
      <trkpt lat="48.37233" lon="2.66072">
        <ele>116.05</ele>
        <time>2018-11-02T08:59:25Z</time>
      </trkpt>
      <trkpt lat="48.37234" lon="2.66074">
        <ele>116.05</ele>
        <time>2018-11-02T08:59:26Z</time>
      </trkpt>
      <trkpt lat="48.37236" lon="2.66077">
        <ele>116.06</ele>
        <time>2018-11-02T08:59:29Z</time>
      </trkpt>
      <trkpt lat="48.37237" lon="2.66078">
        <ele>116.06</ele>
        <time>2018-11-02T08:59:30Z</time>
      </trkpt>
      <trkpt lat="48.37242" lon="2.66088">
        <ele>116.09</ele>
        <time>2018-11-02T08:59:43Z</time>
      </trkpt>
      <trkpt lat="48.37248" lon="2.66099">
        <ele>113.41</ele>
        <time>2018-11-02T08:59:57Z</time>
      </trkpt>
      <trkpt lat="48.37267" lon="2.66111">
        <ele>113.47</ele>
        <time>2018-11-02T09:00:14Z</time>
      </trkpt>
      <trkpt lat="48.37269" lon="2.66113">
        <ele>113.48</ele>
        <time>2018-11-02T09:00:16Z</time>
      </trkpt>
      <trkpt lat="48.37285" lon="2.6612">
        <ele>113.61</ele>
        <time>2018-11-02T09:00:32Z</time>
      </trkpt>
      <trkpt lat="48.37287" lon="2.6612">
        <ele>113.62</ele>
        <time>2018-11-02T09:00:33Z</time>
      </trkpt>
      <trkpt lat="48.37288" lon="2.6612">
        <ele>113.63</ele>
        <time>2018-11-02T09:00:34Z</time>
      </trkpt>
      <trkpt lat="48.3729" lon="2.6612">
        <ele>113.63</ele>
        <time>2018-11-02T09:00:35Z</time>
      </trkpt>
      <trkpt lat="48.37303" lon="2.66124">
        <ele>113.73</ele>
        <time>2018-11-02T09:00:46Z</time>
      </trkpt>
      <trkpt lat="48.37327" lon="2.66134">
        <ele>113.03</ele>
        <time>2018-11-02T09:01:05Z</time>
      </trkpt>
      <trkpt lat="48.37345" lon="2.66147">
        <ele>113.12</ele>
        <time>2018-11-02T09:01:20Z</time>
      </trkpt>
      <trkpt lat="48.37346" lon="2.6615">
        <ele>113.14</ele>
        <time>2018-11-02T09:01:22Z</time>
      </trkpt>
      <trkpt lat="48.3736" lon="2.66169">
        <ele>111.51</ele>
        <time>2018-11-02T09:01:40Z</time>
      </trkpt>
      <trkpt lat="48.37371" lon="2.66185">
        <ele>111.59</ele>
        <time>2018-11-02T09:01:55Z</time>
      </trkpt>
      <trkpt lat="48.37382" lon="2.66193">
        <ele>110.85</ele>
        <time>2018-11-02T09:02:03Z</time>
      </trkpt>
      <trkpt lat="48.37394" lon="2.662">
        <ele>110.23</ele>
        <time>2018-11-02T09:02:14Z</time>
      </trkpt>
      <trkpt lat="48.37395" lon="2.66201">
        <ele>110.23</ele>
        <time>2018-11-02T09:02:15Z</time>
      </trkpt>
      <trkpt lat="48.3741" lon="2.66206">
        <ele>109.56</ele>
        <time>2018-11-02T09:02:30Z</time>
      </trkpt>
      <trkpt lat="48.37422" lon="2.66213">
        <ele>108.97</ele>
        <time>2018-11-02T09:02:49Z</time>
      </trkpt>
      <trkpt lat="48.37431" lon="2.66221">
        <ele>109.12</ele>
        <time>2018-11-02T09:03:10Z</time>
      </trkpt>
      <trkpt lat="48.37439" lon="2.6623">
        <ele>109.25</ele>
        <time>2018-11-02T09:03:32Z</time>
      </trkpt>
      <trkpt lat="48.37443" lon="2.66247">
        <ele>109.34</ele>
        <time>2018-11-02T09:03:45Z</time>
      </trkpt>
      <trkpt lat="48.37444" lon="2.66262">
        <ele>109.41</ele>
        <time>2018-11-02T09:04:01Z</time>
      </trkpt>
      <trkpt lat="48.37448" lon="2.66278">
        <ele>109.47</ele>
        <time>2018-11-02T09:04:17Z</time>
      </trkpt>
      <trkpt lat="48.37449" lon="2.66282">
        <ele>109.48</ele>
        <time>2018-11-02T09:04:19Z</time>
      </trkpt>
      <trkpt lat="48.3745" lon="2.66283">
        <ele>109.48</ele>
        <time>2018-11-02T09:04:20Z</time>
      </trkpt>
      <trkpt lat="48.37451" lon="2.66285">
        <ele>109.49</ele>
        <time>2018-11-02T09:04:21Z</time>
      </trkpt>
      <trkpt lat="48.37453" lon="2.66298">
        <ele>109.52</ele>
        <time>2018-11-02T09:04:30Z</time>
      </trkpt>
      <trkpt lat="48.37459" lon="2.66317">
        <ele>109.53</ele>
        <time>2018-11-02T09:04:43Z</time>
      </trkpt>
      <trkpt lat="48.3746" lon="2.66322">
        <ele>109.55</ele>
        <time>2018-11-02T09:04:46Z</time>
      </trkpt>
      <trkpt lat="48.37462" lon="2.66328">
        <ele>109.55</ele>
        <time>2018-11-02T09:04:50Z</time>
      </trkpt>
      <trkpt lat="48.37462" lon="2.66329">
        <ele>109.56</ele>
        <time>2018-11-02T09:04:51Z</time>
      </trkpt>
      <trkpt lat="48.37463" lon="2.66331">
        <ele>109.56</ele>
        <time>2018-11-02T09:04:52Z</time>
      </trkpt>
      <trkpt lat="48.37465" lon="2.66344">
        <ele>109.55</ele>
        <time>2018-11-02T09:05:01Z</time>
      </trkpt>
      <trkpt lat="48.37466" lon="2.6635">
        <ele>111.89</ele>
        <time>2018-11-02T09:05:05Z</time>
      </trkpt>
      <trkpt lat="48.37468" lon="2.66359">
        <ele>112.83</ele>
        <time>2018-11-02T09:05:12Z</time>
      </trkpt>
      <trkpt lat="48.37473" lon="2.66379">
        <ele>115.5</ele>
        <time>2018-11-02T09:05:27Z</time>
      </trkpt>
      <trkpt lat="48.37476" lon="2.66395">
        <ele>117.05</ele>
        <time>2018-11-02T09:05:41Z</time>
      </trkpt>
      <trkpt lat="48.37482" lon="2.66423">
        <ele>120.21</ele>
        <time>2018-11-02T09:06:02Z</time>
      </trkpt>
      <trkpt lat="48.37485" lon="2.66445">
        <ele>121.65</ele>
        <time>2018-11-02T09:06:19Z</time>
      </trkpt>
      <trkpt lat="48.37488" lon="2.66471">
        <ele>124.04</ele>
        <time>2018-11-02T09:06:38Z</time>
      </trkpt>
      <trkpt lat="48.37489" lon="2.6648">
        <ele>124.79</ele>
        <time>2018-11-02T09:06:50Z</time>
      </trkpt>
      <trkpt lat="48.37492" lon="2.66482">
        <ele>124.64</ele>
        <time>2018-11-02T09:07:12Z</time>
      </trkpt>
      <trkpt lat="48.37493" lon="2.6648">
        <ele>124.57</ele>
        <time>2018-11-02T09:07:30Z</time>
      </trkpt>
      <trkpt lat="48.37492" lon="2.66492">
        <ele>124.45</ele>
        <time>2018-11-02T09:07:55Z</time>
      </trkpt>
      <trkpt lat="48.37492" lon="2.66494">
        <ele>124.46</ele>
        <time>2018-11-02T09:07:56Z</time>
      </trkpt>
      <trkpt lat="48.37492" lon="2.66518">
        <ele>125.12</ele>
        <time>2018-11-02T09:08:12Z</time>
      </trkpt>
      <trkpt lat="48.37495" lon="2.66537">
        <ele>125.16</ele>
        <time>2018-11-02T09:08:25Z</time>
      </trkpt>
      <trkpt lat="48.37494" lon="2.66541">
        <ele>125.15</ele>
        <time>2018-11-02T09:08:27Z</time>
      </trkpt>
      <trkpt lat="48.37494" lon="2.66543">
        <ele>125.15</ele>
        <time>2018-11-02T09:08:28Z</time>
      </trkpt>
      <trkpt lat="48.37494" lon="2.66544">
        <ele>125.15</ele>
        <time>2018-11-02T09:08:29Z</time>
      </trkpt>
      <trkpt lat="48.37494" lon="2.66564">
        <ele>125.1</ele>
        <time>2018-11-02T09:08:42Z</time>
      </trkpt>
      <trkpt lat="48.37495" lon="2.6658">
        <ele>125.07</ele>
        <time>2018-11-02T09:08:52Z</time>
      </trkpt>
      <trkpt lat="48.37496" lon="2.66604">
        <ele>125.03</ele>
        <time>2018-11-02T09:09:07Z</time>
      </trkpt>
      <trkpt lat="48.37496" lon="2.66614">
        <ele>125.02</ele>
        <time>2018-11-02T09:09:12Z</time>
      </trkpt>
      <trkpt lat="48.37499" lon="2.66635">
        <ele>125.01</ele>
        <time>2018-11-02T09:09:25Z</time>
      </trkpt>
      <trkpt lat="48.37498" lon="2.66657">
        <ele>125.02</ele>
        <time>2018-11-02T09:09:39Z</time>
      </trkpt>
      <trkpt lat="48.37499" lon="2.6666">
        <ele>125.03</ele>
        <time>2018-11-02T09:09:41Z</time>
      </trkpt>
      <trkpt lat="48.375" lon="2.66677">
        <ele>125.78</ele>
        <time>2018-11-02T09:09:51Z</time>
      </trkpt>
      <trkpt lat="48.375" lon="2.66679">
        <ele>125.78</ele>
        <time>2018-11-02T09:09:52Z</time>
      </trkpt>
      <trkpt lat="48.37498" lon="2.66699">
        <ele>125.74</ele>
        <time>2018-11-02T09:10:07Z</time>
      </trkpt>
      <trkpt lat="48.37501" lon="2.66706">
        <ele>126.56</ele>
        <time>2018-11-02T09:10:27Z</time>
      </trkpt>
      <trkpt lat="48.37504" lon="2.66713">
        <ele>127.77</ele>
        <time>2018-11-02T09:10:39Z</time>
      </trkpt>
      <trkpt lat="48.37506" lon="2.66725">
        <ele>125.23</ele>
        <time>2018-11-02T09:10:47Z</time>
      </trkpt>
      <trkpt lat="48.37506" lon="2.66725">
        <ele>125.23</ele>
        <time>2018-11-02T09:11:04Z</time>
      </trkpt>
      <trkpt lat="48.37497" lon="2.66715">
        <ele>125.23</ele>
        <time>2018-11-02T09:11:23Z</time>
      </trkpt>
      <trkpt lat="48.37501" lon="2.66723">
        <ele>125.23</ele>
        <time>2018-11-02T09:11:43Z</time>
      </trkpt>
      <trkpt lat="48.37503" lon="2.66731">
        <ele>125.23</ele>
        <time>2018-11-02T09:11:52Z</time>
      </trkpt>
      <trkpt lat="48.3751" lon="2.6675">
        <ele>125.25</ele>
        <time>2018-11-02T09:12:08Z</time>
      </trkpt>
      <trkpt lat="48.37516" lon="2.66768">
        <ele>125.26</ele>
        <time>2018-11-02T09:12:20Z</time>
      </trkpt>
      <trkpt lat="48.37523" lon="2.66786">
        <ele>125.27</ele>
        <time>2018-11-02T09:12:32Z</time>
      </trkpt>
      <trkpt lat="48.37528" lon="2.66804">
        <ele>125.32</ele>
        <time>2018-11-02T09:12:44Z</time>
      </trkpt>
      <trkpt lat="48.37529" lon="2.66805">
        <ele>125.32</ele>
        <time>2018-11-02T09:12:45Z</time>
      </trkpt>
      <trkpt lat="48.3753" lon="2.66807">
        <ele>125.32</ele>
        <time>2018-11-02T09:12:46Z</time>
      </trkpt>
      <trkpt lat="48.37534" lon="2.66822">
        <ele>125.3</ele>
        <time>2018-11-02T09:12:56Z</time>
      </trkpt>
      <trkpt lat="48.37534" lon="2.66839">
        <ele>125.31</ele>
        <time>2018-11-02T09:13:09Z</time>
      </trkpt>
      <trkpt lat="48.37533" lon="2.66864">
        <ele>128.2</ele>
        <time>2018-11-02T09:13:24Z</time>
      </trkpt>
      <trkpt lat="48.37529" lon="2.66891">
        <ele>128.2</ele>
        <time>2018-11-02T09:13:39Z</time>
      </trkpt>
      <trkpt lat="48.37525" lon="2.66907">
        <ele>128.2</ele>
        <time>2018-11-02T09:13:51Z</time>
      </trkpt>
      <trkpt lat="48.37523" lon="2.66917">
        <ele>128.19</ele>
        <time>2018-11-02T09:13:58Z</time>
      </trkpt>
      <trkpt lat="48.37523" lon="2.66919">
        <ele>128.2</ele>
        <time>2018-11-02T09:13:59Z</time>
      </trkpt>
      <trkpt lat="48.37522" lon="2.66921">
        <ele>128.19</ele>
        <time>2018-11-02T09:14:00Z</time>
      </trkpt>
      <trkpt lat="48.37522" lon="2.66923">
        <ele>128.2</ele>
        <time>2018-11-02T09:14:01Z</time>
      </trkpt>
      <trkpt lat="48.37522" lon="2.66924">
        <ele>128.2</ele>
        <time>2018-11-02T09:14:02Z</time>
      </trkpt>
      <trkpt lat="48.37517" lon="2.66946">
        <ele>128.18</ele>
        <time>2018-11-02T09:14:17Z</time>
      </trkpt>
      <trkpt lat="48.37506" lon="2.66989">
        <ele>128.15</ele>
        <time>2018-11-02T09:14:43Z</time>
      </trkpt>
      <trkpt lat="48.37501" lon="2.67007">
        <ele>128.12</ele>
        <time>2018-11-02T09:14:52Z</time>
      </trkpt>
      <trkpt lat="48.37501" lon="2.67009">
        <ele>128.12</ele>
        <time>2018-11-02T09:14:53Z</time>
      </trkpt>
      <trkpt lat="48.375" lon="2.67011">
        <ele>128.11</ele>
        <time>2018-11-02T09:14:54Z</time>
      </trkpt>
      <trkpt lat="48.37495" lon="2.67032">
        <ele>128.11</ele>
        <time>2018-11-02T09:15:07Z</time>
      </trkpt>
      <trkpt lat="48.3749" lon="2.6706">
        <ele>128.02</ele>
        <time>2018-11-02T09:15:29Z</time>
      </trkpt>
      <trkpt lat="48.37488" lon="2.6707">
        <ele>128.01</ele>
        <time>2018-11-02T09:15:43Z</time>
      </trkpt>
      <trkpt lat="48.37486" lon="2.6708">
        <ele>128</ele>
        <time>2018-11-02T09:15:50Z</time>
      </trkpt>
      <trkpt lat="48.37484" lon="2.67089">
        <ele>127.98</ele>
        <time>2018-11-02T09:15:56Z</time>
      </trkpt>
      <trkpt lat="48.37484" lon="2.67091">
        <ele>127.98</ele>
        <time>2018-11-02T09:15:57Z</time>
      </trkpt>
      <trkpt lat="48.37483" lon="2.67096">
        <ele>127.97</ele>
        <time>2018-11-02T09:16:00Z</time>
      </trkpt>
      <trkpt lat="48.37483" lon="2.67098">
        <ele>127.96</ele>
        <time>2018-11-02T09:16:01Z</time>
      </trkpt>
      <trkpt lat="48.37483" lon="2.671">
        <ele>127.97</ele>
        <time>2018-11-02T09:16:02Z</time>
      </trkpt>
      <trkpt lat="48.37478" lon="2.6712">
        <ele>125.68</ele>
        <time>2018-11-02T09:16:16Z</time>
      </trkpt>
      <trkpt lat="48.37477" lon="2.67122">
        <ele>125.67</ele>
        <time>2018-11-02T09:16:17Z</time>
      </trkpt>
      <trkpt lat="48.37469" lon="2.67159">
        <ele>125.66</ele>
        <time>2018-11-02T09:16:39Z</time>
      </trkpt>
      <trkpt lat="48.37462" lon="2.67196">
        <ele>125.65</ele>
        <time>2018-11-02T09:17:00Z</time>
      </trkpt>
      <trkpt lat="48.37457" lon="2.67224">
        <ele>124.87</ele>
        <time>2018-11-02T09:17:18Z</time>
      </trkpt>
      <trkpt lat="48.37447" lon="2.67262">
        <ele>124.85</ele>
        <time>2018-11-02T09:17:40Z</time>
      </trkpt>
      <trkpt lat="48.3744" lon="2.67297">
        <ele>124.04</ele>
        <time>2018-11-02T09:18:01Z</time>
      </trkpt>
      <trkpt lat="48.37438" lon="2.67307">
        <ele>123.27</ele>
        <time>2018-11-02T09:18:13Z</time>
      </trkpt>
      <trkpt lat="48.37438" lon="2.67311">
        <ele>123.27</ele>
        <time>2018-11-02T09:18:21Z</time>
      </trkpt>
      <trkpt lat="48.37433" lon="2.6733">
        <ele>122.26</ele>
        <time>2018-11-02T09:18:42Z</time>
      </trkpt>
      <trkpt lat="48.37432" lon="2.67348">
        <ele>121.13</ele>
        <time>2018-11-02T09:18:55Z</time>
      </trkpt>
      <trkpt lat="48.37434" lon="2.67348">
        <ele>121.14</ele>
        <time>2018-11-02T09:18:59Z</time>
      </trkpt>
      <trkpt lat="48.37446" lon="2.67341">
        <ele>121.16</ele>
        <time>2018-11-02T09:19:14Z</time>
      </trkpt>
      <trkpt lat="48.37454" lon="2.67333">
        <ele>121.18</ele>
        <time>2018-11-02T09:19:23Z</time>
      </trkpt>
      <trkpt lat="48.37455" lon="2.67332">
        <ele>121.18</ele>
        <time>2018-11-02T09:19:24Z</time>
      </trkpt>
      <trkpt lat="48.3746" lon="2.67325">
        <ele>123.47</ele>
        <time>2018-11-02T09:19:34Z</time>
      </trkpt>
      <trkpt lat="48.37467" lon="2.67318">
        <ele>123.46</ele>
        <time>2018-11-02T09:19:40Z</time>
      </trkpt>
      <trkpt lat="48.37468" lon="2.67317">
        <ele>123.46</ele>
        <time>2018-11-02T09:19:41Z</time>
      </trkpt>
      <trkpt lat="48.37479" lon="2.67306">
        <ele>123.47</ele>
        <time>2018-11-02T09:19:55Z</time>
      </trkpt>
      <trkpt lat="48.37496" lon="2.6729">
        <ele>124.24</ele>
        <time>2018-11-02T09:20:15Z</time>
      </trkpt>
      <trkpt lat="48.37513" lon="2.67276">
        <ele>124.26</ele>
        <time>2018-11-02T09:20:35Z</time>
      </trkpt>
      <trkpt lat="48.37529" lon="2.6726">
        <ele>124.29</ele>
        <time>2018-11-02T09:20:50Z</time>
      </trkpt>
      <trkpt lat="48.37549" lon="2.67238">
        <ele>124.32</ele>
        <time>2018-11-02T09:21:11Z</time>
      </trkpt>
      <trkpt lat="48.37567" lon="2.67219">
        <ele>124.39</ele>
        <time>2018-11-02T09:21:29Z</time>
      </trkpt>
      <trkpt lat="48.37581" lon="2.67206">
        <ele>125.3</ele>
        <time>2018-11-02T09:21:44Z</time>
      </trkpt>
      <trkpt lat="48.37596" lon="2.67195">
        <ele>125.33</ele>
        <time>2018-11-02T09:21:59Z</time>
      </trkpt>
      <trkpt lat="48.37612" lon="2.67181">
        <ele>125.42</ele>
        <time>2018-11-02T09:22:19Z</time>
      </trkpt>
      <trkpt lat="48.37628" lon="2.6716">
        <ele>125.45</ele>
        <time>2018-11-02T09:22:36Z</time>
      </trkpt>
      <trkpt lat="48.37635" lon="2.6715">
        <ele>126.93</ele>
        <time>2018-11-02T09:22:50Z</time>
      </trkpt>
      <trkpt lat="48.37639" lon="2.67144">
        <ele>127</ele>
        <time>2018-11-02T09:23:10Z</time>
      </trkpt>
      <trkpt lat="48.3764" lon="2.67143">
        <ele>126.99</ele>
        <time>2018-11-02T09:23:11Z</time>
      </trkpt>
      <trkpt lat="48.37641" lon="2.67141">
        <ele>127.02</ele>
        <time>2018-11-02T09:23:12Z</time>
      </trkpt>
      <trkpt lat="48.37646" lon="2.67135">
        <ele>126.99</ele>
        <time>2018-11-02T09:23:17Z</time>
      </trkpt>
      <trkpt lat="48.37648" lon="2.67135">
        <ele>127</ele>
        <time>2018-11-02T09:23:18Z</time>
      </trkpt>
      <trkpt lat="48.37649" lon="2.67134">
        <ele>126.99</ele>
        <time>2018-11-02T09:23:19Z</time>
      </trkpt>
      <trkpt lat="48.3765" lon="2.67132">
        <ele>126.99</ele>
        <time>2018-11-02T09:23:20Z</time>
      </trkpt>
      <trkpt lat="48.37651" lon="2.6713">
        <ele>127</ele>
        <time>2018-11-02T09:23:21Z</time>
      </trkpt>
      <trkpt lat="48.37661" lon="2.67117">
        <ele>126.98</ele>
        <time>2018-11-02T09:23:32Z</time>
      </trkpt>
      <trkpt lat="48.37674" lon="2.67099">
        <ele>126.99</ele>
        <time>2018-11-02T09:23:46Z</time>
      </trkpt>
      <trkpt lat="48.37676" lon="2.67096">
        <ele>127</ele>
        <time>2018-11-02T09:23:49Z</time>
      </trkpt>
      <trkpt lat="48.37677" lon="2.67095">
        <ele>127</ele>
        <time>2018-11-02T09:23:50Z</time>
      </trkpt>
      <trkpt lat="48.37679" lon="2.67094">
        <ele>126.99</ele>
        <time>2018-11-02T09:23:51Z</time>
      </trkpt>
      <trkpt lat="48.37681" lon="2.67091">
        <ele>124.61</ele>
        <time>2018-11-02T09:23:55Z</time>
      </trkpt>
      <trkpt lat="48.37688" lon="2.67079">
        <ele>124.64</ele>
        <time>2018-11-02T09:24:05Z</time>
      </trkpt>
      <trkpt lat="48.37697" lon="2.67061">
        <ele>123.76</ele>
        <time>2018-11-02T09:24:19Z</time>
      </trkpt>
      <trkpt lat="48.3771" lon="2.67042">
        <ele>123.07</ele>
        <time>2018-11-02T09:24:32Z</time>
      </trkpt>
      <trkpt lat="48.3771" lon="2.67041">
        <ele>123.07</ele>
        <time>2018-11-02T09:24:33Z</time>
      </trkpt>
      <trkpt lat="48.37711" lon="2.67039">
        <ele>123.07</ele>
        <time>2018-11-02T09:24:34Z</time>
      </trkpt>
      <trkpt lat="48.37715" lon="2.67032">
        <ele>123.1</ele>
        <time>2018-11-02T09:24:37Z</time>
      </trkpt>
      <trkpt lat="48.37727" lon="2.67014">
        <ele>121.44</ele>
        <time>2018-11-02T09:24:51Z</time>
      </trkpt>
      <trkpt lat="48.37736" lon="2.66997">
        <ele>119.92</ele>
        <time>2018-11-02T09:25:04Z</time>
      </trkpt>
      <trkpt lat="48.37746" lon="2.66975">
        <ele>118.29</ele>
        <time>2018-11-02T09:25:21Z</time>
      </trkpt>
      <trkpt lat="48.37748" lon="2.66968">
        <ele>117.37</ele>
        <time>2018-11-02T09:25:26Z</time>
      </trkpt>
      <trkpt lat="48.37751" lon="2.66951">
        <ele>114.77</ele>
        <time>2018-11-02T09:25:42Z</time>
      </trkpt>
      <trkpt lat="48.37758" lon="2.6693">
        <ele>111.51</ele>
        <time>2018-11-02T09:25:57Z</time>
      </trkpt>
      <trkpt lat="48.37762" lon="2.66906">
        <ele>108.33</ele>
        <time>2018-11-02T09:26:16Z</time>
      </trkpt>
      <trkpt lat="48.37764" lon="2.66895">
        <ele>107.55</ele>
        <time>2018-11-02T09:26:23Z</time>
      </trkpt>
      <trkpt lat="48.3777" lon="2.66879">
        <ele>105.04</ele>
        <time>2018-11-02T09:26:35Z</time>
      </trkpt>
      <trkpt lat="48.37778" lon="2.66854">
        <ele>102.67</ele>
        <time>2018-11-02T09:26:52Z</time>
      </trkpt>
      <trkpt lat="48.37788" lon="2.6683">
        <ele>100.44</ele>
        <time>2018-11-02T09:27:07Z</time>
      </trkpt>
      <trkpt lat="48.37794" lon="2.66808">
        <ele>99.09</ele>
        <time>2018-11-02T09:27:18Z</time>
      </trkpt>
      <trkpt lat="48.378" lon="2.6679">
        <ele>98.48</ele>
        <time>2018-11-02T09:27:29Z</time>
      </trkpt>
      <trkpt lat="48.37806" lon="2.6677">
        <ele>96.99</ele>
        <time>2018-11-02T09:27:40Z</time>
      </trkpt>
      <trkpt lat="48.3781" lon="2.66754">
        <ele>96.38</ele>
        <time>2018-11-02T09:27:51Z</time>
      </trkpt>
      <trkpt lat="48.37812" lon="2.66747">
        <ele>95.63</ele>
        <time>2018-11-02T09:27:57Z</time>
      </trkpt>
      <trkpt lat="48.37813" lon="2.66743">
        <ele>95.66</ele>
        <time>2018-11-02T09:28:00Z</time>
      </trkpt>
      <trkpt lat="48.37813" lon="2.66737">
        <ele>95.71</ele>
        <time>2018-11-02T09:28:04Z</time>
      </trkpt>
      <trkpt lat="48.37814" lon="2.66715">
        <ele>95.06</ele>
        <time>2018-11-02T09:28:16Z</time>
      </trkpt>
      <trkpt lat="48.37819" lon="2.66696">
        <ele>95.23</ele>
        <time>2018-11-02T09:28:29Z</time>
      </trkpt>
      <trkpt lat="48.37829" lon="2.66669">
        <ele>93.72</ele>
        <time>2018-11-02T09:28:44Z</time>
      </trkpt>
      <trkpt lat="48.37834" lon="2.66657">
        <ele>93.94</ele>
        <time>2018-11-02T09:29:00Z</time>
      </trkpt>
      <trkpt lat="48.37833" lon="2.66654">
        <ele>94.16</ele>
        <time>2018-11-02T09:29:16Z</time>
      </trkpt>
      <trkpt lat="48.37829" lon="2.66645">
        <ele>94.43</ele>
        <time>2018-11-02T09:29:39Z</time>
      </trkpt>
      <trkpt lat="48.37827" lon="2.66638">
        <ele>94.64</ele>
        <time>2018-11-02T09:29:57Z</time>
      </trkpt>
      <trkpt lat="48.37831" lon="2.66632">
        <ele>94.8</ele>
        <time>2018-11-02T09:30:16Z</time>
      </trkpt>
      <trkpt lat="48.37832" lon="2.66629">
        <ele>94.81</ele>
        <time>2018-11-02T09:30:18Z</time>
      </trkpt>
      <trkpt lat="48.37832" lon="2.66627">
        <ele>94.83</ele>
        <time>2018-11-02T09:30:19Z</time>
      </trkpt>
      <trkpt lat="48.37833" lon="2.66623">
        <ele>94.86</ele>
        <time>2018-11-02T09:30:22Z</time>
      </trkpt>
      <trkpt lat="48.37832" lon="2.66621">
        <ele>94.87</ele>
        <time>2018-11-02T09:30:23Z</time>
      </trkpt>
      <trkpt lat="48.37831" lon="2.66617">
        <ele>94.9</ele>
        <time>2018-11-02T09:30:26Z</time>
      </trkpt>
      <trkpt lat="48.37829" lon="2.66607">
        <ele>94.97</ele>
        <time>2018-11-02T09:30:38Z</time>
      </trkpt>
      <trkpt lat="48.37829" lon="2.66606">
        <ele>94.97</ele>
        <time>2018-11-02T09:30:39Z</time>
      </trkpt>
      <trkpt lat="48.37828" lon="2.66604">
        <ele>94.98</ele>
        <time>2018-11-02T09:30:40Z</time>
      </trkpt>
      <trkpt lat="48.37824" lon="2.66595">
        <ele>95.01</ele>
        <time>2018-11-02T09:30:46Z</time>
      </trkpt>
      <trkpt lat="48.37823" lon="2.66593">
        <ele>95.01</ele>
        <time>2018-11-02T09:30:47Z</time>
      </trkpt>
      <trkpt lat="48.37823" lon="2.66592">
        <ele>95.02</ele>
        <time>2018-11-02T09:30:48Z</time>
      </trkpt>
      <trkpt lat="48.37818" lon="2.66576">
        <ele>95.1</ele>
        <time>2018-11-02T09:31:00Z</time>
      </trkpt>
      <trkpt lat="48.37812" lon="2.66563">
        <ele>97.5</ele>
        <time>2018-11-02T09:31:10Z</time>
      </trkpt>
      <trkpt lat="48.37812" lon="2.66562">
        <ele>97.52</ele>
        <time>2018-11-02T09:31:11Z</time>
      </trkpt>
      <trkpt lat="48.37811" lon="2.66559">
        <ele>97.51</ele>
        <time>2018-11-02T09:31:13Z</time>
      </trkpt>
      <trkpt lat="48.37806" lon="2.66545">
        <ele>98.42</ele>
        <time>2018-11-02T09:31:23Z</time>
      </trkpt>
      <trkpt lat="48.37805" lon="2.66544">
        <ele>98.42</ele>
        <time>2018-11-02T09:31:24Z</time>
      </trkpt>
      <trkpt lat="48.37804" lon="2.66542">
        <ele>98.43</ele>
        <time>2018-11-02T09:31:25Z</time>
      </trkpt>
      <trkpt lat="48.37803" lon="2.66541">
        <ele>98.44</ele>
        <time>2018-11-02T09:31:26Z</time>
      </trkpt>
      <trkpt lat="48.37796" lon="2.66523">
        <ele>100.13</ele>
        <time>2018-11-02T09:31:39Z</time>
      </trkpt>
      <trkpt lat="48.37789" lon="2.66505">
        <ele>101.82</ele>
        <time>2018-11-02T09:31:52Z</time>
      </trkpt>
      <trkpt lat="48.37785" lon="2.66494">
        <ele>103.43</ele>
        <time>2018-11-02T09:32:00Z</time>
      </trkpt>
      <trkpt lat="48.37779" lon="2.66484">
        <ele>104.55</ele>
        <time>2018-11-02T09:32:10Z</time>
      </trkpt>
      <trkpt lat="48.37771" lon="2.66467">
        <ele>106.73</ele>
        <time>2018-11-02T09:32:24Z</time>
      </trkpt>
      <trkpt lat="48.37764" lon="2.66451">
        <ele>108.26</ele>
        <time>2018-11-02T09:32:39Z</time>
      </trkpt>
      <trkpt lat="48.37764" lon="2.66449">
        <ele>108.27</ele>
        <time>2018-11-02T09:32:40Z</time>
      </trkpt>
      <trkpt lat="48.37754" lon="2.66433">
        <ele>109.12</ele>
        <time>2018-11-02T09:32:53Z</time>
      </trkpt>
      <trkpt lat="48.37749" lon="2.66417">
        <ele>109.98</ele>
        <time>2018-11-02T09:33:06Z</time>
      </trkpt>
      <trkpt lat="48.37744" lon="2.66407">
        <ele>110.79</ele>
        <time>2018-11-02T09:33:24Z</time>
      </trkpt>
      <trkpt lat="48.37741" lon="2.66404">
        <ele>111.65</ele>
        <time>2018-11-02T09:33:47Z</time>
      </trkpt>
      <trkpt lat="48.37744" lon="2.66405">
        <ele>111.71</ele>
        <time>2018-11-02T09:34:04Z</time>
      </trkpt>
      <trkpt lat="48.37736" lon="2.66383">
        <ele>111.76</ele>
        <time>2018-11-02T09:34:23Z</time>
      </trkpt>
      <trkpt lat="48.37734" lon="2.66379">
        <ele>111.78</ele>
        <time>2018-11-02T09:34:39Z</time>
      </trkpt>
      <trkpt lat="48.37732" lon="2.66383">
        <ele>112.64</ele>
        <time>2018-11-02T09:35:05Z</time>
      </trkpt>
      <trkpt lat="48.37734" lon="2.66388">
        <ele>112.65</ele>
        <time>2018-11-02T09:35:26Z</time>
      </trkpt>
      <trkpt lat="48.37743" lon="2.66385">
        <ele>112.71</ele>
        <time>2018-11-02T09:35:53Z</time>
      </trkpt>
      <trkpt lat="48.37741" lon="2.66371">
        <ele>112.71</ele>
        <time>2018-11-02T09:36:05Z</time>
      </trkpt>
      <trkpt lat="48.3774" lon="2.66368">
        <ele>112.72</ele>
        <time>2018-11-02T09:36:07Z</time>
      </trkpt>
      <trkpt lat="48.37739" lon="2.66366">
        <ele>112.72</ele>
        <time>2018-11-02T09:36:08Z</time>
      </trkpt>
      <trkpt lat="48.37733" lon="2.66348">
        <ele>112.7</ele>
        <time>2018-11-02T09:36:20Z</time>
      </trkpt>
      <trkpt lat="48.37729" lon="2.66337">
        <ele>112.71</ele>
        <time>2018-11-02T09:36:27Z</time>
      </trkpt>
      <trkpt lat="48.37729" lon="2.66335">
        <ele>112.71</ele>
        <time>2018-11-02T09:36:28Z</time>
      </trkpt>
      <trkpt lat="48.37729" lon="2.66333">
        <ele>112.71</ele>
        <time>2018-11-02T09:36:29Z</time>
      </trkpt>
      <trkpt lat="48.37729" lon="2.66331">
        <ele>112.71</ele>
        <time>2018-11-02T09:36:30Z</time>
      </trkpt>
      <trkpt lat="48.37726" lon="2.66325">
        <ele>112.73</ele>
        <time>2018-11-02T09:36:35Z</time>
      </trkpt>
      <trkpt lat="48.37725" lon="2.66321">
        <ele>112.72</ele>
        <time>2018-11-02T09:36:38Z</time>
      </trkpt>
      <trkpt lat="48.37725" lon="2.66319">
        <ele>112.72</ele>
        <time>2018-11-02T09:36:39Z</time>
      </trkpt>
      <trkpt lat="48.37723" lon="2.66309">
        <ele>113.65</ele>
        <time>2018-11-02T09:36:46Z</time>
      </trkpt>
      <trkpt lat="48.37718" lon="2.66292">
        <ele>115.44</ele>
        <time>2018-11-02T09:37:00Z</time>
      </trkpt>
      <trkpt lat="48.37715" lon="2.66267">
        <ele>117.05</ele>
        <time>2018-11-02T09:37:18Z</time>
      </trkpt>
      <trkpt lat="48.37715" lon="2.66257">
        <ele>117.81</ele>
        <time>2018-11-02T09:37:34Z</time>
      </trkpt>
      <trkpt lat="48.3771" lon="2.6623">
        <ele>117.83</ele>
        <time>2018-11-02T09:37:55Z</time>
      </trkpt>
      <trkpt lat="48.37706" lon="2.66218">
        <ele>117.86</ele>
        <time>2018-11-02T09:38:03Z</time>
      </trkpt>
      <trkpt lat="48.37704" lon="2.66204">
        <ele>118.65</ele>
        <time>2018-11-02T09:38:11Z</time>
      </trkpt>
      <trkpt lat="48.37702" lon="2.66187">
        <ele>118.64</ele>
        <time>2018-11-02T09:38:24Z</time>
      </trkpt>
      <trkpt lat="48.37698" lon="2.66161">
        <ele>119.46</ele>
        <time>2018-11-02T09:38:41Z</time>
      </trkpt>
      <trkpt lat="48.37692" lon="2.66141">
        <ele>119.5</ele>
        <time>2018-11-02T09:38:57Z</time>
      </trkpt>
      <trkpt lat="48.37688" lon="2.66127">
        <ele>119.54</ele>
        <time>2018-11-02T09:39:07Z</time>
      </trkpt>
      <trkpt lat="48.37687" lon="2.6612">
        <ele>119.56</ele>
        <time>2018-11-02T09:39:12Z</time>
      </trkpt>
      <trkpt lat="48.37681" lon="2.66103">
        <ele>120.47</ele>
        <time>2018-11-02T09:39:27Z</time>
      </trkpt>
      <trkpt lat="48.37675" lon="2.66086">
        <ele>121.27</ele>
        <time>2018-11-02T09:39:45Z</time>
      </trkpt>
      <trkpt lat="48.37674" lon="2.66083">
        <ele>122.37</ele>
        <time>2018-11-02T09:40:15Z</time>
      </trkpt>
      <trkpt lat="48.37674" lon="2.6608">
        <ele>122.4</ele>
        <time>2018-11-02T09:40:44Z</time>
      </trkpt>
      <trkpt lat="48.3767" lon="2.66079">
        <ele>122.48</ele>
        <time>2018-11-02T09:41:14Z</time>
      </trkpt>
      <trkpt lat="48.37673" lon="2.66079">
        <ele>122.49</ele>
        <time>2018-11-02T09:41:29Z</time>
      </trkpt>
      <trkpt lat="48.37674" lon="2.66082">
        <ele>122.52</ele>
        <time>2018-11-02T09:41:56Z</time>
      </trkpt>
      <trkpt lat="48.37671" lon="2.66078">
        <ele>122.52</ele>
        <time>2018-11-02T09:42:32Z</time>
      </trkpt>
      <trkpt lat="48.37673" lon="2.66084">
        <ele>122.52</ele>
        <time>2018-11-02T09:42:57Z</time>
      </trkpt>
      <trkpt lat="48.37683" lon="2.66093">
        <ele>122.53</ele>
        <time>2018-11-02T09:43:19Z</time>
      </trkpt>
      <trkpt lat="48.37692" lon="2.66102">
        <ele>120.23</ele>
        <time>2018-11-02T09:43:31Z</time>
      </trkpt>
      <trkpt lat="48.37713" lon="2.66127">
        <ele>120.22</ele>
        <time>2018-11-02T09:43:55Z</time>
      </trkpt>
      <trkpt lat="48.3773" lon="2.66143">
        <ele>120.2</ele>
        <time>2018-11-02T09:44:14Z</time>
      </trkpt>
      <trkpt lat="48.37738" lon="2.66162">
        <ele>120.12</ele>
        <time>2018-11-02T09:44:31Z</time>
      </trkpt>
      <trkpt lat="48.37746" lon="2.66181">
        <ele>120.08</ele>
        <time>2018-11-02T09:44:46Z</time>
      </trkpt>
      <trkpt lat="48.37756" lon="2.66175">
        <ele>119.98</ele>
        <time>2018-11-02T09:45:03Z</time>
      </trkpt>
      <trkpt lat="48.37762" lon="2.66161">
        <ele>118.66</ele>
        <time>2018-11-02T09:45:13Z</time>
      </trkpt>
      <trkpt lat="48.37765" lon="2.66146">
        <ele>118.59</ele>
        <time>2018-11-02T09:45:27Z</time>
      </trkpt>
      <trkpt lat="48.37767" lon="2.66143">
        <ele>118.57</ele>
        <time>2018-11-02T09:45:30Z</time>
      </trkpt>
      <trkpt lat="48.37773" lon="2.66126">
        <ele>120.98</ele>
        <time>2018-11-02T09:45:41Z</time>
      </trkpt>
      <trkpt lat="48.37779" lon="2.66107">
        <ele>120.88</ele>
        <time>2018-11-02T09:45:57Z</time>
      </trkpt>
      <trkpt lat="48.3778" lon="2.66081">
        <ele>120.77</ele>
        <time>2018-11-02T09:46:16Z</time>
      </trkpt>
      <trkpt lat="48.37789" lon="2.66047">
        <ele>120.61</ele>
        <time>2018-11-02T09:46:38Z</time>
      </trkpt>
      <trkpt lat="48.37796" lon="2.66032">
        <ele>118.15</ele>
        <time>2018-11-02T09:46:49Z</time>
      </trkpt>
      <trkpt lat="48.37801" lon="2.6602">
        <ele>116.4</ele>
        <time>2018-11-02T09:47:01Z</time>
      </trkpt>
      <trkpt lat="48.37811" lon="2.65991">
        <ele>114.52</ele>
        <time>2018-11-02T09:47:21Z</time>
      </trkpt>
      <trkpt lat="48.37812" lon="2.65971">
        <ele>111.2</ele>
        <time>2018-11-02T09:47:38Z</time>
      </trkpt>
      <trkpt lat="48.3782" lon="2.65952">
        <ele>111.15</ele>
        <time>2018-11-02T09:47:59Z</time>
      </trkpt>
      <trkpt lat="48.37823" lon="2.65947">
        <ele>111.15</ele>
        <time>2018-11-02T09:48:04Z</time>
      </trkpt>
      <trkpt lat="48.37826" lon="2.65931">
        <ele>110.38</ele>
        <time>2018-11-02T09:48:15Z</time>
      </trkpt>
      <trkpt lat="48.37829" lon="2.65915">
        <ele>107.35</ele>
        <time>2018-11-02T09:48:28Z</time>
      </trkpt>
      <trkpt lat="48.37831" lon="2.65882">
        <ele>104.71</ele>
        <time>2018-11-02T09:48:49Z</time>
      </trkpt>
      <trkpt lat="48.37835" lon="2.65854">
        <ele>103.13</ele>
        <time>2018-11-02T09:49:10Z</time>
      </trkpt>
      <trkpt lat="48.37833" lon="2.65839">
        <ele>102.24</ele>
        <time>2018-11-02T09:49:21Z</time>
      </trkpt>
      <trkpt lat="48.37838" lon="2.65818">
        <ele>101.38</ele>
        <time>2018-11-02T09:49:40Z</time>
      </trkpt>
      <trkpt lat="48.37842" lon="2.65794">
        <ele>100.3</ele>
        <time>2018-11-02T09:49:57Z</time>
      </trkpt>
      <trkpt lat="48.3784" lon="2.65783">
        <ele>100.28</ele>
        <time>2018-11-02T09:50:05Z</time>
      </trkpt>
      <trkpt lat="48.37837" lon="2.65772">
        <ele>99.51</ele>
        <time>2018-11-02T09:50:17Z</time>
      </trkpt>
      <trkpt lat="48.37837" lon="2.65767">
        <ele>99.49</ele>
        <time>2018-11-02T09:50:21Z</time>
      </trkpt>
      <trkpt lat="48.37837" lon="2.65748">
        <ele>97.03</ele>
        <time>2018-11-02T09:50:36Z</time>
      </trkpt>
      <trkpt lat="48.37848" lon="2.65731">
        <ele>94.62</ele>
        <time>2018-11-02T09:50:53Z</time>
      </trkpt>
      <trkpt lat="48.37851" lon="2.65725">
        <ele>94.72</ele>
        <time>2018-11-02T09:50:57Z</time>
      </trkpt>
      <trkpt lat="48.37858" lon="2.65711">
        <ele>93.85</ele>
        <time>2018-11-02T09:51:11Z</time>
      </trkpt>
      <trkpt lat="48.37869" lon="2.65696">
        <ele>92.2</ele>
        <time>2018-11-02T09:51:27Z</time>
      </trkpt>
      <trkpt lat="48.37878" lon="2.6568">
        <ele>91.45</ele>
        <time>2018-11-02T09:51:47Z</time>
      </trkpt>
      <trkpt lat="48.37878" lon="2.65678">
        <ele>91.45</ele>
        <time>2018-11-02T09:51:48Z</time>
      </trkpt>
      <trkpt lat="48.37879" lon="2.65677">
        <ele>91.44</ele>
        <time>2018-11-02T09:51:49Z</time>
      </trkpt>
      <trkpt lat="48.37881" lon="2.65675">
        <ele>91.44</ele>
        <time>2018-11-02T09:51:51Z</time>
      </trkpt>
      <trkpt lat="48.37886" lon="2.6567">
        <ele>91.43</ele>
        <time>2018-11-02T09:51:55Z</time>
      </trkpt>
      <trkpt lat="48.37896" lon="2.65658">
        <ele>91.4</ele>
        <time>2018-11-02T09:52:08Z</time>
      </trkpt>
      <trkpt lat="48.37898" lon="2.65654">
        <ele>91.4</ele>
        <time>2018-11-02T09:52:11Z</time>
      </trkpt>
      <trkpt lat="48.379" lon="2.65651">
        <ele>91.41</ele>
        <time>2018-11-02T09:52:13Z</time>
      </trkpt>
      <trkpt lat="48.37901" lon="2.65646">
        <ele>90.31</ele>
        <time>2018-11-02T09:52:17Z</time>
      </trkpt>
      <trkpt lat="48.37905" lon="2.65642">
        <ele>90.26</ele>
        <time>2018-11-02T09:52:32Z</time>
      </trkpt>
      <trkpt lat="48.37907" lon="2.65642">
        <ele>90.24</ele>
        <time>2018-11-02T09:53:06Z</time>
      </trkpt>
      <trkpt lat="48.37905" lon="2.6563">
        <ele>90.26</ele>
        <time>2018-11-02T09:53:21Z</time>
      </trkpt>
      <trkpt lat="48.37906" lon="2.65613">
        <ele>90.15</ele>
        <time>2018-11-02T09:53:40Z</time>
      </trkpt>
      <trkpt lat="48.37904" lon="2.65617">
        <ele>90.29</ele>
        <time>2018-11-02T09:53:49Z</time>
      </trkpt>
      <trkpt lat="48.37905" lon="2.6564">
        <ele>90.32</ele>
        <time>2018-11-02T09:54:04Z</time>
      </trkpt>
      <trkpt lat="48.37906" lon="2.65639">
        <ele>90.3</ele>
        <time>2018-11-02T09:54:23Z</time>
      </trkpt>
      <trkpt lat="48.37905" lon="2.65638">
        <ele>90.27</ele>
        <time>2018-11-02T09:54:52Z</time>
      </trkpt>
      <trkpt lat="48.37905" lon="2.65618">
        <ele>90.3</ele>
        <time>2018-11-02T09:55:11Z</time>
      </trkpt>
      <trkpt lat="48.37906" lon="2.65604">
        <ele>90.33</ele>
        <time>2018-11-02T09:55:30Z</time>
      </trkpt>
      <trkpt lat="48.3791" lon="2.6559">
        <ele>90.33</ele>
        <time>2018-11-02T09:55:44Z</time>
      </trkpt>
      <trkpt lat="48.37913" lon="2.65584">
        <ele>90.36</ele>
        <time>2018-11-02T09:55:48Z</time>
      </trkpt>
      <trkpt lat="48.37914" lon="2.65582">
        <ele>90.37</ele>
        <time>2018-11-02T09:55:50Z</time>
      </trkpt>
      <trkpt lat="48.37915" lon="2.65577">
        <ele>90.36</ele>
        <time>2018-11-02T09:55:53Z</time>
      </trkpt>
      <trkpt lat="48.37919" lon="2.6557">
        <ele>89.46</ele>
        <time>2018-11-02T09:56:07Z</time>
      </trkpt>
      <trkpt lat="48.37927" lon="2.65558">
        <ele>89.45</ele>
        <time>2018-11-02T09:56:17Z</time>
      </trkpt>
      <trkpt lat="48.37928" lon="2.65557">
        <ele>89.45</ele>
        <time>2018-11-02T09:56:18Z</time>
      </trkpt>
      <trkpt lat="48.37929" lon="2.65556">
        <ele>89.46</ele>
        <time>2018-11-02T09:56:19Z</time>
      </trkpt>
      <trkpt lat="48.3793" lon="2.65555">
        <ele>89.46</ele>
        <time>2018-11-02T09:56:20Z</time>
      </trkpt>
      <trkpt lat="48.37932" lon="2.65552">
        <ele>88.73</ele>
        <time>2018-11-02T09:56:22Z</time>
      </trkpt>
      <trkpt lat="48.37933" lon="2.6555">
        <ele>88.73</ele>
        <time>2018-11-02T09:56:23Z</time>
      </trkpt>
      <trkpt lat="48.3794" lon="2.6554">
        <ele>88.74</ele>
        <time>2018-11-02T09:56:30Z</time>
      </trkpt>
      <trkpt lat="48.37941" lon="2.65539">
        <ele>88.74</ele>
        <time>2018-11-02T09:56:31Z</time>
      </trkpt>
      <trkpt lat="48.37942" lon="2.65538">
        <ele>88.74</ele>
        <time>2018-11-02T09:56:32Z</time>
      </trkpt>
      <trkpt lat="48.37951" lon="2.65526">
        <ele>88.78</ele>
        <time>2018-11-02T09:56:42Z</time>
      </trkpt>
      <trkpt lat="48.37952" lon="2.65525">
        <ele>88.78</ele>
        <time>2018-11-02T09:56:43Z</time>
      </trkpt>
      <trkpt lat="48.37954" lon="2.65523">
        <ele>87.92</ele>
        <time>2018-11-02T09:56:45Z</time>
      </trkpt>
      <trkpt lat="48.37961" lon="2.65509">
        <ele>87.93</ele>
        <time>2018-11-02T09:56:56Z</time>
      </trkpt>
      <trkpt lat="48.37966" lon="2.65491">
        <ele>86.98</ele>
        <time>2018-11-02T09:57:07Z</time>
      </trkpt>
      <trkpt lat="48.3797" lon="2.65485">
        <ele>87.01</ele>
        <time>2018-11-02T09:57:25Z</time>
      </trkpt>
      <trkpt lat="48.37977" lon="2.65469">
        <ele>87.08</ele>
        <time>2018-11-02T09:57:48Z</time>
      </trkpt>
      <trkpt lat="48.37988" lon="2.65461">
        <ele>86.31</ele>
        <time>2018-11-02T09:57:58Z</time>
      </trkpt>
      <trkpt lat="48.37998" lon="2.65459">
        <ele>86.35</ele>
        <time>2018-11-02T09:58:10Z</time>
      </trkpt>
      <trkpt lat="48.38009" lon="2.65456">
        <ele>87.69</ele>
        <time>2018-11-02T09:58:19Z</time>
      </trkpt>
      <trkpt lat="48.38011" lon="2.65455">
        <ele>87.69</ele>
        <time>2018-11-02T09:58:20Z</time>
      </trkpt>
      <trkpt lat="48.38012" lon="2.65454">
        <ele>87.7</ele>
        <time>2018-11-02T09:58:21Z</time>
      </trkpt>
      <trkpt lat="48.38013" lon="2.65454">
        <ele>87.71</ele>
        <time>2018-11-02T09:58:22Z</time>
      </trkpt>
      <trkpt lat="48.38015" lon="2.65455">
        <ele>85.36</ele>
        <time>2018-11-02T09:58:24Z</time>
      </trkpt>
      <trkpt lat="48.38032" lon="2.65454">
        <ele>85.42</ele>
        <time>2018-11-02T09:58:39Z</time>
      </trkpt>
      <trkpt lat="48.38041" lon="2.65448">
        <ele>85.5</ele>
        <time>2018-11-02T09:58:56Z</time>
      </trkpt>
      <trkpt lat="48.38042" lon="2.65445">
        <ele>85.58</ele>
        <time>2018-11-02T09:59:15Z</time>
      </trkpt>
      <trkpt lat="48.38044" lon="2.65437">
        <ele>85.68</ele>
        <time>2018-11-02T09:59:44Z</time>
      </trkpt>
      <trkpt lat="48.38051" lon="2.65443">
        <ele>85.78</ele>
        <time>2018-11-02T10:00:06Z</time>
      </trkpt>
      <trkpt lat="48.38056" lon="2.65448">
        <ele>85.81</ele>
        <time>2018-11-02T10:00:12Z</time>
      </trkpt>
      <trkpt lat="48.38064" lon="2.65456">
        <ele>85.81</ele>
        <time>2018-11-02T10:00:19Z</time>
      </trkpt>
      <trkpt lat="48.38065" lon="2.65457">
        <ele>85.82</ele>
        <time>2018-11-02T10:00:20Z</time>
      </trkpt>
      <trkpt lat="48.38066" lon="2.65459">
        <ele>85.82</ele>
        <time>2018-11-02T10:00:21Z</time>
      </trkpt>
      <trkpt lat="48.38074" lon="2.65477">
        <ele>85.82</ele>
        <time>2018-11-02T10:00:34Z</time>
      </trkpt>
      <trkpt lat="48.38086" lon="2.65503">
        <ele>84.8</ele>
        <time>2018-11-02T10:00:50Z</time>
      </trkpt>
      <trkpt lat="48.38092" lon="2.65516">
        <ele>84.82</ele>
        <time>2018-11-02T10:01:01Z</time>
      </trkpt>
      <trkpt lat="48.38092" lon="2.65518">
        <ele>84.81</ele>
        <time>2018-11-02T10:01:02Z</time>
      </trkpt>
      <trkpt lat="48.38093" lon="2.65519">
        <ele>84.85</ele>
        <time>2018-11-02T10:01:03Z</time>
      </trkpt>
      <trkpt lat="48.38104" lon="2.65541">
        <ele>84.87</ele>
        <time>2018-11-02T10:01:18Z</time>
      </trkpt>
      <trkpt lat="48.38114" lon="2.65563">
        <ele>84.89</ele>
        <time>2018-11-02T10:01:31Z</time>
      </trkpt>
      <trkpt lat="48.38117" lon="2.65577">
        <ele>84.91</ele>
        <time>2018-11-02T10:01:39Z</time>
      </trkpt>
      <trkpt lat="48.38119" lon="2.65578">
        <ele>84.92</ele>
        <time>2018-11-02T10:01:40Z</time>
      </trkpt>
      <trkpt lat="48.3812" lon="2.6558">
        <ele>84.91</ele>
        <time>2018-11-02T10:01:41Z</time>
      </trkpt>
      <trkpt lat="48.38121" lon="2.65581">
        <ele>84.91</ele>
        <time>2018-11-02T10:01:42Z</time>
      </trkpt>
      <trkpt lat="48.38122" lon="2.65583">
        <ele>84.91</ele>
        <time>2018-11-02T10:01:43Z</time>
      </trkpt>
      <trkpt lat="48.38125" lon="2.65588">
        <ele>84.1</ele>
        <time>2018-11-02T10:01:47Z</time>
      </trkpt>
      <trkpt lat="48.38127" lon="2.65591">
        <ele>84.15</ele>
        <time>2018-11-02T10:01:49Z</time>
      </trkpt>
      <trkpt lat="48.38127" lon="2.65592">
        <ele>84.15</ele>
        <time>2018-11-02T10:01:50Z</time>
      </trkpt>
      <trkpt lat="48.38128" lon="2.65594">
        <ele>84.15</ele>
        <time>2018-11-02T10:01:51Z</time>
      </trkpt>
      <trkpt lat="48.38129" lon="2.65595">
        <ele>84.15</ele>
        <time>2018-11-02T10:01:52Z</time>
      </trkpt>
      <trkpt lat="48.38129" lon="2.65597">
        <ele>84.15</ele>
        <time>2018-11-02T10:01:53Z</time>
      </trkpt>
      <trkpt lat="48.38138" lon="2.65618">
        <ele>84.22</ele>
        <time>2018-11-02T10:02:07Z</time>
      </trkpt>
      <trkpt lat="48.3814" lon="2.65619">
        <ele>84.22</ele>
        <time>2018-11-02T10:02:08Z</time>
      </trkpt>
      <trkpt lat="48.38146" lon="2.65614">
        <ele>86.28</ele>
        <time>2018-11-02T10:02:20Z</time>
      </trkpt>
      <trkpt lat="48.38147" lon="2.65613">
        <ele>83.74</ele>
        <time>2018-11-02T10:02:22Z</time>
      </trkpt>
      <trkpt lat="48.38152" lon="2.65602">
        <ele>86.06</ele>
        <time>2018-11-02T10:02:31Z</time>
      </trkpt>
      <trkpt lat="48.38155" lon="2.65597">
        <ele>86.08</ele>
        <time>2018-11-02T10:02:34Z</time>
      </trkpt>
      <trkpt lat="48.38169" lon="2.65567">
        <ele>86.1</ele>
        <time>2018-11-02T10:02:55Z</time>
      </trkpt>
      <trkpt lat="48.38176" lon="2.65544">
        <ele>86.17</ele>
        <time>2018-11-02T10:03:12Z</time>
      </trkpt>
      <trkpt lat="48.38179" lon="2.65533">
        <ele>86.98</ele>
        <time>2018-11-02T10:03:18Z</time>
      </trkpt>
      <trkpt lat="48.38181" lon="2.65527">
        <ele>86.99</ele>
        <time>2018-11-02T10:03:21Z</time>
      </trkpt>
      <trkpt lat="48.38184" lon="2.65513">
        <ele>87.74</ele>
        <time>2018-11-02T10:03:37Z</time>
      </trkpt>
      <trkpt lat="48.38182" lon="2.65504">
        <ele>88.53</ele>
        <time>2018-11-02T10:03:59Z</time>
      </trkpt>
      <trkpt lat="48.38183" lon="2.65479">
        <ele>88.54</ele>
        <time>2018-11-02T10:04:16Z</time>
      </trkpt>
      <trkpt lat="48.38182" lon="2.65471">
        <ele>88.55</ele>
        <time>2018-11-02T10:04:23Z</time>
      </trkpt>
      <trkpt lat="48.38182" lon="2.6545">
        <ele>89.37</ele>
        <time>2018-11-02T10:04:36Z</time>
      </trkpt>
      <trkpt lat="48.38182" lon="2.65432">
        <ele>90.13</ele>
        <time>2018-11-02T10:04:49Z</time>
      </trkpt>
      <trkpt lat="48.38181" lon="2.65415">
        <ele>90.98</ele>
        <time>2018-11-02T10:05:01Z</time>
      </trkpt>
      <trkpt lat="48.38189" lon="2.65378">
        <ele>91.91</ele>
        <time>2018-11-02T10:05:21Z</time>
      </trkpt>
      <trkpt lat="48.38196" lon="2.65359">
        <ele>93.68</ele>
        <time>2018-11-02T10:05:35Z</time>
      </trkpt>
      <trkpt lat="48.38203" lon="2.65326">
        <ele>94.7</ele>
        <time>2018-11-02T10:05:56Z</time>
      </trkpt>
      <trkpt lat="48.38203" lon="2.65322">
        <ele>94.72</ele>
        <time>2018-11-02T10:05:58Z</time>
      </trkpt>
      <trkpt lat="48.38204" lon="2.65292">
        <ele>96.37</ele>
        <time>2018-11-02T10:06:16Z</time>
      </trkpt>
      <trkpt lat="48.38203" lon="2.65284">
        <ele>97.23</ele>
        <time>2018-11-02T10:06:21Z</time>
      </trkpt>
      <trkpt lat="48.38205" lon="2.65265">
        <ele>98.16</ele>
        <time>2018-11-02T10:06:34Z</time>
      </trkpt>
      <trkpt lat="48.38209" lon="2.65258">
        <ele>98.21</ele>
        <time>2018-11-02T10:06:40Z</time>
      </trkpt>
      <trkpt lat="48.38211" lon="2.65255">
        <ele>98.24</ele>
        <time>2018-11-02T10:06:42Z</time>
      </trkpt>
      <trkpt lat="48.38213" lon="2.65252">
        <ele>99.21</ele>
        <time>2018-11-02T10:06:43Z</time>
      </trkpt>
      <trkpt lat="48.38214" lon="2.6525">
        <ele>99.22</ele>
        <time>2018-11-02T10:06:44Z</time>
      </trkpt>
      <trkpt lat="48.38224" lon="2.65228">
        <ele>100.25</ele>
        <time>2018-11-02T10:06:56Z</time>
      </trkpt>
      <trkpt lat="48.38225" lon="2.65226">
        <ele>100.19</ele>
        <time>2018-11-02T10:06:57Z</time>
      </trkpt>
      <trkpt lat="48.38227" lon="2.65225">
        <ele>100.19</ele>
        <time>2018-11-02T10:06:58Z</time>
      </trkpt>
      <trkpt lat="48.38228" lon="2.65224">
        <ele>100.19</ele>
        <time>2018-11-02T10:06:59Z</time>
      </trkpt>
      <trkpt lat="48.38229" lon="2.65222">
        <ele>100.21</ele>
        <time>2018-11-02T10:07:00Z</time>
      </trkpt>
      <trkpt lat="48.38235" lon="2.6521">
        <ele>101.07</ele>
        <time>2018-11-02T10:07:10Z</time>
      </trkpt>
      <trkpt lat="48.38235" lon="2.65205">
        <ele>102.17</ele>
        <time>2018-11-02T10:07:14Z</time>
      </trkpt>
      <trkpt lat="48.38236" lon="2.65201">
        <ele>102.2</ele>
        <time>2018-11-02T10:07:16Z</time>
      </trkpt>
      <trkpt lat="48.38239" lon="2.65177">
        <ele>103.97</ele>
        <time>2018-11-02T10:07:31Z</time>
      </trkpt>
      <trkpt lat="48.38241" lon="2.65173">
        <ele>103.97</ele>
        <time>2018-11-02T10:07:34Z</time>
      </trkpt>
      <trkpt lat="48.38241" lon="2.65171">
        <ele>103.99</ele>
        <time>2018-11-02T10:07:35Z</time>
      </trkpt>
      <trkpt lat="48.38244" lon="2.65146">
        <ele>105.89</ele>
        <time>2018-11-02T10:07:53Z</time>
      </trkpt>
      <trkpt lat="48.38252" lon="2.65119">
        <ele>107.61</ele>
        <time>2018-11-02T10:08:10Z</time>
      </trkpt>
      <trkpt lat="48.38252" lon="2.65112">
        <ele>107.66</ele>
        <time>2018-11-02T10:08:14Z</time>
      </trkpt>
      <trkpt lat="48.38256" lon="2.65081">
        <ele>109.47</ele>
        <time>2018-11-02T10:08:32Z</time>
      </trkpt>
      <trkpt lat="48.38259" lon="2.65047">
        <ele>112.35</ele>
        <time>2018-11-02T10:08:53Z</time>
      </trkpt>
      <trkpt lat="48.38267" lon="2.65006">
        <ele>114.98</ele>
        <time>2018-11-02T10:09:14Z</time>
      </trkpt>
      <trkpt lat="48.38268" lon="2.64998">
        <ele>115.04</ele>
        <time>2018-11-02T10:09:18Z</time>
      </trkpt>
      <trkpt lat="48.38267" lon="2.64993">
        <ele>115.98</ele>
        <time>2018-11-02T10:09:20Z</time>
      </trkpt>
      <trkpt lat="48.38268" lon="2.64987">
        <ele>115.98</ele>
        <time>2018-11-02T10:09:23Z</time>
      </trkpt>
      <trkpt lat="48.38268" lon="2.64985">
        <ele>115.99</ele>
        <time>2018-11-02T10:09:24Z</time>
      </trkpt>
      <trkpt lat="48.38266" lon="2.64956">
        <ele>117.94</ele>
        <time>2018-11-02T10:09:36Z</time>
      </trkpt>
      <trkpt lat="48.38271" lon="2.64937">
        <ele>119.73</ele>
        <time>2018-11-02T10:09:50Z</time>
      </trkpt>
      <trkpt lat="48.38276" lon="2.64914">
        <ele>120.66</ele>
        <time>2018-11-02T10:10:07Z</time>
      </trkpt>
      <trkpt lat="48.38279" lon="2.6488">
        <ele>121.69</ele>
        <time>2018-11-02T10:10:27Z</time>
      </trkpt>
      <trkpt lat="48.38289" lon="2.64844">
        <ele>122.56</ele>
        <time>2018-11-02T10:10:45Z</time>
      </trkpt>
      <trkpt lat="48.3829" lon="2.64838">
        <ele>122.58</ele>
        <time>2018-11-02T10:10:48Z</time>
      </trkpt>
      <trkpt lat="48.3829" lon="2.64836">
        <ele>122.59</ele>
        <time>2018-11-02T10:10:49Z</time>
      </trkpt>
      <trkpt lat="48.3829" lon="2.64834">
        <ele>122.59</ele>
        <time>2018-11-02T10:10:50Z</time>
      </trkpt>
      <trkpt lat="48.3829" lon="2.64832">
        <ele>122.58</ele>
        <time>2018-11-02T10:10:51Z</time>
      </trkpt>
      <trkpt lat="48.38292" lon="2.6482">
        <ele>123.33</ele>
        <time>2018-11-02T10:11:02Z</time>
      </trkpt>
      <trkpt lat="48.38287" lon="2.64819">
        <ele>123.35</ele>
        <time>2018-11-02T10:11:27Z</time>
      </trkpt>
      <trkpt lat="48.38289" lon="2.64818">
        <ele>123.36</ele>
        <time>2018-11-02T10:11:54Z</time>
      </trkpt>
      <trkpt lat="48.38288" lon="2.64812">
        <ele>123.36</ele>
        <time>2018-11-02T10:12:22Z</time>
      </trkpt>
      <trkpt lat="48.38286" lon="2.64809">
        <ele>123.37</ele>
        <time>2018-11-02T10:12:25Z</time>
      </trkpt>
      <trkpt lat="48.38299" lon="2.64815">
        <ele>123.38</ele>
        <time>2018-11-02T10:12:39Z</time>
      </trkpt>
      <trkpt lat="48.3831" lon="2.64834">
        <ele>123.38</ele>
        <time>2018-11-02T10:12:51Z</time>
      </trkpt>
      <trkpt lat="48.3832" lon="2.64856">
        <ele>123.36</ele>
        <time>2018-11-02T10:13:06Z</time>
      </trkpt>
      <trkpt lat="48.38327" lon="2.64875">
        <ele>123.31</ele>
        <time>2018-11-02T10:13:20Z</time>
      </trkpt>
      <trkpt lat="48.38339" lon="2.64894">
        <ele>123.21</ele>
        <time>2018-11-02T10:13:36Z</time>
      </trkpt>
      <trkpt lat="48.38343" lon="2.64897">
        <ele>124.16</ele>
        <time>2018-11-02T10:13:53Z</time>
      </trkpt>
      <trkpt lat="48.38348" lon="2.64905">
        <ele>123.95</ele>
        <time>2018-11-02T10:14:13Z</time>
      </trkpt>
      <trkpt lat="48.38348" lon="2.64908">
        <ele>123.92</ele>
        <time>2018-11-02T10:14:16Z</time>
      </trkpt>
      <trkpt lat="48.38349" lon="2.64911">
        <ele>123.86</ele>
        <time>2018-11-02T10:14:35Z</time>
      </trkpt>
      <trkpt lat="48.38352" lon="2.64914">
        <ele>119.44</ele>
        <time>2018-11-02T10:14:40Z</time>
      </trkpt>
      <trkpt lat="48.38352" lon="2.64915">
        <ele>124.31</ele>
        <time>2018-11-02T10:14:41Z</time>
      </trkpt>
      <trkpt lat="48.38351" lon="2.6492">
        <ele>122.97</ele>
        <time>2018-11-02T10:14:59Z</time>
      </trkpt>
      <trkpt lat="48.38351" lon="2.6492">
        <ele>122</ele>
        <time>2018-11-02T10:15:13Z</time>
      </trkpt>
      <trkpt lat="48.38355" lon="2.64925">
        <ele>124.67</ele>
        <time>2018-11-02T10:15:18Z</time>
      </trkpt>
      <trkpt lat="48.38356" lon="2.64927">
        <ele>124.53</ele>
        <time>2018-11-02T10:15:19Z</time>
      </trkpt>
      <trkpt lat="48.38365" lon="2.64941">
        <ele>124.51</ele>
        <time>2018-11-02T10:15:31Z</time>
      </trkpt>
      <trkpt lat="48.38371" lon="2.64947">
        <ele>124.48</ele>
        <time>2018-11-02T10:15:37Z</time>
      </trkpt>
      <trkpt lat="48.38373" lon="2.64948">
        <ele>124.47</ele>
        <time>2018-11-02T10:15:39Z</time>
      </trkpt>
      <trkpt lat="48.38374" lon="2.64949">
        <ele>124.46</ele>
        <time>2018-11-02T10:15:40Z</time>
      </trkpt>
      <trkpt lat="48.38388" lon="2.64966">
        <ele>124.39</ele>
        <time>2018-11-02T10:15:54Z</time>
      </trkpt>
      <trkpt lat="48.38393" lon="2.64974">
        <ele>124.38</ele>
        <time>2018-11-02T10:15:59Z</time>
      </trkpt>
      <trkpt lat="48.38394" lon="2.64976">
        <ele>124.39</ele>
        <time>2018-11-02T10:16:00Z</time>
      </trkpt>
      <trkpt lat="48.38395" lon="2.64977">
        <ele>124.39</ele>
        <time>2018-11-02T10:16:01Z</time>
      </trkpt>
      <trkpt lat="48.38396" lon="2.64978">
        <ele>124.38</ele>
        <time>2018-11-02T10:16:02Z</time>
      </trkpt>
      <trkpt lat="48.38397" lon="2.64979">
        <ele>124.36</ele>
        <time>2018-11-02T10:16:03Z</time>
      </trkpt>
      <trkpt lat="48.38398" lon="2.64981">
        <ele>124.35</ele>
        <time>2018-11-02T10:16:04Z</time>
      </trkpt>
      <trkpt lat="48.38402" lon="2.64989">
        <ele>124.34</ele>
        <time>2018-11-02T10:16:08Z</time>
      </trkpt>
      <trkpt lat="48.38403" lon="2.64991">
        <ele>124.33</ele>
        <time>2018-11-02T10:16:09Z</time>
      </trkpt>
      <trkpt lat="48.38404" lon="2.64992">
        <ele>124.32</ele>
        <time>2018-11-02T10:16:10Z</time>
      </trkpt>
      <trkpt lat="48.38405" lon="2.64994">
        <ele>124.31</ele>
        <time>2018-11-02T10:16:12Z</time>
      </trkpt>
      <trkpt lat="48.38406" lon="2.64996">
        <ele>124.31</ele>
        <time>2018-11-02T10:16:13Z</time>
      </trkpt>
      <trkpt lat="48.38412" lon="2.65006">
        <ele>124.28</ele>
        <time>2018-11-02T10:16:19Z</time>
      </trkpt>
      <trkpt lat="48.38412" lon="2.65008">
        <ele>124.27</ele>
        <time>2018-11-02T10:16:20Z</time>
      </trkpt>
      <trkpt lat="48.38413" lon="2.65009">
        <ele>124.26</ele>
        <time>2018-11-02T10:16:21Z</time>
      </trkpt>
      <trkpt lat="48.38425" lon="2.65031">
        <ele>124.18</ele>
        <time>2018-11-02T10:16:36Z</time>
      </trkpt>
      <trkpt lat="48.38427" lon="2.65034">
        <ele>124.17</ele>
        <time>2018-11-02T10:16:38Z</time>
      </trkpt>
      <trkpt lat="48.38429" lon="2.65036">
        <ele>124.16</ele>
        <time>2018-11-02T10:16:39Z</time>
      </trkpt>
      <trkpt lat="48.38441" lon="2.65054">
        <ele>124.12</ele>
        <time>2018-11-02T10:16:50Z</time>
      </trkpt>
      <trkpt lat="48.38452" lon="2.65075">
        <ele>124.01</ele>
        <time>2018-11-02T10:17:03Z</time>
      </trkpt>
      <trkpt lat="48.38455" lon="2.65082">
        <ele>123.98</ele>
        <time>2018-11-02T10:17:07Z</time>
      </trkpt>
      <trkpt lat="48.38456" lon="2.65083">
        <ele>123.98</ele>
        <time>2018-11-02T10:17:08Z</time>
      </trkpt>
      <trkpt lat="48.38458" lon="2.65084">
        <ele>123.97</ele>
        <time>2018-11-02T10:17:09Z</time>
      </trkpt>
      <trkpt lat="48.38459" lon="2.65086">
        <ele>123.96</ele>
        <time>2018-11-02T10:17:10Z</time>
      </trkpt>
      <trkpt lat="48.3846" lon="2.65087">
        <ele>123.95</ele>
        <time>2018-11-02T10:17:11Z</time>
      </trkpt>
      <trkpt lat="48.38461" lon="2.65089">
        <ele>123.94</ele>
        <time>2018-11-02T10:17:12Z</time>
      </trkpt>
      <trkpt lat="48.38471" lon="2.65104">
        <ele>119.1</ele>
        <time>2018-11-02T10:17:23Z</time>
      </trkpt>
      <trkpt lat="48.38472" lon="2.65105">
        <ele>123</ele>
        <time>2018-11-02T10:17:24Z</time>
      </trkpt>
      <trkpt lat="48.38485" lon="2.65126">
        <ele>122.89</ele>
        <time>2018-11-02T10:17:39Z</time>
      </trkpt>
      <trkpt lat="48.38499" lon="2.65147">
        <ele>122.78</ele>
        <time>2018-11-02T10:17:51Z</time>
      </trkpt>
      <trkpt lat="48.38505" lon="2.65158">
        <ele>122.72</ele>
        <time>2018-11-02T10:17:59Z</time>
      </trkpt>
      <trkpt lat="48.38507" lon="2.6516">
        <ele>120.42</ele>
        <time>2018-11-02T10:18:01Z</time>
      </trkpt>
      <trkpt lat="48.38508" lon="2.65163">
        <ele>120.41</ele>
        <time>2018-11-02T10:18:03Z</time>
      </trkpt>
      <trkpt lat="48.38509" lon="2.65165">
        <ele>120.41</ele>
        <time>2018-11-02T10:18:04Z</time>
      </trkpt>
      <trkpt lat="48.38513" lon="2.65171">
        <ele>120.39</ele>
        <time>2018-11-02T10:18:08Z</time>
      </trkpt>
      <trkpt lat="48.38514" lon="2.65173">
        <ele>120.38</ele>
        <time>2018-11-02T10:18:09Z</time>
      </trkpt>
      <trkpt lat="48.38522" lon="2.65187">
        <ele>120.29</ele>
        <time>2018-11-02T10:18:26Z</time>
      </trkpt>
      <trkpt lat="48.3853" lon="2.65208">
        <ele>120.21</ele>
        <time>2018-11-02T10:18:43Z</time>
      </trkpt>
      <trkpt lat="48.38536" lon="2.65224">
        <ele>120.13</ele>
        <time>2018-11-02T10:18:54Z</time>
      </trkpt>
      <trkpt lat="48.38537" lon="2.65226">
        <ele>120.16</ele>
        <time>2018-11-02T10:18:55Z</time>
      </trkpt>
      <trkpt lat="48.38545" lon="2.65244">
        <ele>119.22</ele>
        <time>2018-11-02T10:19:10Z</time>
      </trkpt>
      <trkpt lat="48.38549" lon="2.65255">
        <ele>119.2</ele>
        <time>2018-11-02T10:19:17Z</time>
      </trkpt>
      <trkpt lat="48.38551" lon="2.6526">
        <ele>119.2</ele>
        <time>2018-11-02T10:19:20Z</time>
      </trkpt>
      <trkpt lat="48.38556" lon="2.6528">
        <ele>119.19</ele>
        <time>2018-11-02T10:19:31Z</time>
      </trkpt>
      <trkpt lat="48.38564" lon="2.65299">
        <ele>119.17</ele>
        <time>2018-11-02T10:19:42Z</time>
      </trkpt>
      <trkpt lat="48.38573" lon="2.65321">
        <ele>118.35</ele>
        <time>2018-11-02T10:19:56Z</time>
      </trkpt>
      <trkpt lat="48.38575" lon="2.65333">
        <ele>118.34</ele>
        <time>2018-11-02T10:20:04Z</time>
      </trkpt>
      <trkpt lat="48.38576" lon="2.65334">
        <ele>118.34</ele>
        <time>2018-11-02T10:20:05Z</time>
      </trkpt>
      <trkpt lat="48.38583" lon="2.65354">
        <ele>118.32</ele>
        <time>2018-11-02T10:20:19Z</time>
      </trkpt>
      <trkpt lat="48.38584" lon="2.65355">
        <ele>118.33</ele>
        <time>2018-11-02T10:20:20Z</time>
      </trkpt>
      <trkpt lat="48.38585" lon="2.65356">
        <ele>117.57</ele>
        <time>2018-11-02T10:20:21Z</time>
      </trkpt>
      <trkpt lat="48.38586" lon="2.65358">
        <ele>117.58</ele>
        <time>2018-11-02T10:20:22Z</time>
      </trkpt>
      <trkpt lat="48.38587" lon="2.6536">
        <ele>117.58</ele>
        <time>2018-11-02T10:20:23Z</time>
      </trkpt>
      <trkpt lat="48.38587" lon="2.65362">
        <ele>117.58</ele>
        <time>2018-11-02T10:20:24Z</time>
      </trkpt>
      <trkpt lat="48.38591" lon="2.65373">
        <ele>117.58</ele>
        <time>2018-11-02T10:20:30Z</time>
      </trkpt>
      <trkpt lat="48.38595" lon="2.65388">
        <ele>116.83</ele>
        <time>2018-11-02T10:20:42Z</time>
      </trkpt>
      <trkpt lat="48.38603" lon="2.65411">
        <ele>116.85</ele>
        <time>2018-11-02T10:20:57Z</time>
      </trkpt>
      <trkpt lat="48.3861" lon="2.65435">
        <ele>115.35</ele>
        <time>2018-11-02T10:21:11Z</time>
      </trkpt>
      <trkpt lat="48.38616" lon="2.65453">
        <ele>114.48</ele>
        <time>2018-11-02T10:21:23Z</time>
      </trkpt>
      <trkpt lat="48.38619" lon="2.65466">
        <ele>113.7</ele>
        <time>2018-11-02T10:21:35Z</time>
      </trkpt>
      <trkpt lat="48.38622" lon="2.65474">
        <ele>112.91</ele>
        <time>2018-11-02T10:21:40Z</time>
      </trkpt>
      <trkpt lat="48.38622" lon="2.65476">
        <ele>112.92</ele>
        <time>2018-11-02T10:21:41Z</time>
      </trkpt>
      <trkpt lat="48.38622" lon="2.65477">
        <ele>112.92</ele>
        <time>2018-11-02T10:21:42Z</time>
      </trkpt>
      <trkpt lat="48.38623" lon="2.65479">
        <ele>112.14</ele>
        <time>2018-11-02T10:21:43Z</time>
      </trkpt>
      <trkpt lat="48.38624" lon="2.65481">
        <ele>112.25</ele>
        <time>2018-11-02T10:21:44Z</time>
      </trkpt>
      <trkpt lat="48.38625" lon="2.65483">
        <ele>112.24</ele>
        <time>2018-11-02T10:21:45Z</time>
      </trkpt>
      <trkpt lat="48.38626" lon="2.65485">
        <ele>112.24</ele>
        <time>2018-11-02T10:21:46Z</time>
      </trkpt>
      <trkpt lat="48.38627" lon="2.65486">
        <ele>112.24</ele>
        <time>2018-11-02T10:21:47Z</time>
      </trkpt>
      <trkpt lat="48.38628" lon="2.65488">
        <ele>111.48</ele>
        <time>2018-11-02T10:21:48Z</time>
      </trkpt>
      <trkpt lat="48.38628" lon="2.65492">
        <ele>111.47</ele>
        <time>2018-11-02T10:21:51Z</time>
      </trkpt>
      <trkpt lat="48.38629" lon="2.65495">
        <ele>111.36</ele>
        <time>2018-11-02T10:21:53Z</time>
      </trkpt>
      <trkpt lat="48.3864" lon="2.65516">
        <ele>109.17</ele>
        <time>2018-11-02T10:22:07Z</time>
      </trkpt>
      <trkpt lat="48.38644" lon="2.6553">
        <ele>107.39</ele>
        <time>2018-11-02T10:22:16Z</time>
      </trkpt>
      <trkpt lat="48.38645" lon="2.65533">
        <ele>106.59</ele>
        <time>2018-11-02T10:22:18Z</time>
      </trkpt>
      <trkpt lat="48.38646" lon="2.65535">
        <ele>106.54</ele>
        <time>2018-11-02T10:22:19Z</time>
      </trkpt>
      <trkpt lat="48.3865" lon="2.65551">
        <ele>103.25</ele>
        <time>2018-11-02T10:22:29Z</time>
      </trkpt>
      <trkpt lat="48.38661" lon="2.65577">
        <ele>100.21</ele>
        <time>2018-11-02T10:22:44Z</time>
      </trkpt>
      <trkpt lat="48.38663" lon="2.65588">
        <ele>99.43</ele>
        <time>2018-11-02T10:22:49Z</time>
      </trkpt>
      <trkpt lat="48.38664" lon="2.6559">
        <ele>99.42</ele>
        <time>2018-11-02T10:22:50Z</time>
      </trkpt>
      <trkpt lat="48.38669" lon="2.65605">
        <ele>97.64</ele>
        <time>2018-11-02T10:23:00Z</time>
      </trkpt>
      <trkpt lat="48.38674" lon="2.65619">
        <ele>96.58</ele>
        <time>2018-11-02T10:23:08Z</time>
      </trkpt>
      <trkpt lat="48.38676" lon="2.65623">
        <ele>96.56</ele>
        <time>2018-11-02T10:23:11Z</time>
      </trkpt>
      <trkpt lat="48.38676" lon="2.65625">
        <ele>96.58</ele>
        <time>2018-11-02T10:23:12Z</time>
      </trkpt>
      <trkpt lat="48.38676" lon="2.65627">
        <ele>95.83</ele>
        <time>2018-11-02T10:23:13Z</time>
      </trkpt>
      <trkpt lat="48.38676" lon="2.65629">
        <ele>95.84</ele>
        <time>2018-11-02T10:23:14Z</time>
      </trkpt>
      <trkpt lat="48.38678" lon="2.65636">
        <ele>95.97</ele>
        <time>2018-11-02T10:23:18Z</time>
      </trkpt>
      <trkpt lat="48.38679" lon="2.65637">
        <ele>95.97</ele>
        <time>2018-11-02T10:23:19Z</time>
      </trkpt>
      <trkpt lat="48.3868" lon="2.65639">
        <ele>94.66</ele>
        <time>2018-11-02T10:23:21Z</time>
      </trkpt>
      <trkpt lat="48.38686" lon="2.65654">
        <ele>93.91</ele>
        <time>2018-11-02T10:23:30Z</time>
      </trkpt>
      <trkpt lat="48.38686" lon="2.65656">
        <ele>93.91</ele>
        <time>2018-11-02T10:23:31Z</time>
      </trkpt>
      <trkpt lat="48.38686" lon="2.65658">
        <ele>93.9</ele>
        <time>2018-11-02T10:23:32Z</time>
      </trkpt>
      <trkpt lat="48.38687" lon="2.6566">
        <ele>93.89</ele>
        <time>2018-11-02T10:23:33Z</time>
      </trkpt>
      <trkpt lat="48.38687" lon="2.65661">
        <ele>93.08</ele>
        <time>2018-11-02T10:23:34Z</time>
      </trkpt>
      <trkpt lat="48.38687" lon="2.65663">
        <ele>93.09</ele>
        <time>2018-11-02T10:23:35Z</time>
      </trkpt>
      <trkpt lat="48.38688" lon="2.65665">
        <ele>93.08</ele>
        <time>2018-11-02T10:23:36Z</time>
      </trkpt>
      <trkpt lat="48.38689" lon="2.65666">
        <ele>93.07</ele>
        <time>2018-11-02T10:23:37Z</time>
      </trkpt>
      <trkpt lat="48.3869" lon="2.65667">
        <ele>93.08</ele>
        <time>2018-11-02T10:23:38Z</time>
      </trkpt>
      <trkpt lat="48.38693" lon="2.65674">
        <ele>93.1</ele>
        <time>2018-11-02T10:23:42Z</time>
      </trkpt>
      <trkpt lat="48.38693" lon="2.65676">
        <ele>93.09</ele>
        <time>2018-11-02T10:23:43Z</time>
      </trkpt>
      <trkpt lat="48.38693" lon="2.65678">
        <ele>92.22</ele>
        <time>2018-11-02T10:23:44Z</time>
      </trkpt>
      <trkpt lat="48.38693" lon="2.6568">
        <ele>92.22</ele>
        <time>2018-11-02T10:23:45Z</time>
      </trkpt>
      <trkpt lat="48.38693" lon="2.65682">
        <ele>92.23</ele>
        <time>2018-11-02T10:23:46Z</time>
      </trkpt>
      <trkpt lat="48.38693" lon="2.65684">
        <ele>92.21</ele>
        <time>2018-11-02T10:23:47Z</time>
      </trkpt>
      <trkpt lat="48.387" lon="2.657">
        <ele>91.34</ele>
        <time>2018-11-02T10:23:56Z</time>
      </trkpt>
      <trkpt lat="48.38702" lon="2.65707">
        <ele>91.44</ele>
        <time>2018-11-02T10:24:00Z</time>
      </trkpt>
      <trkpt lat="48.38703" lon="2.6571">
        <ele>91.43</ele>
        <time>2018-11-02T10:24:01Z</time>
      </trkpt>
      <trkpt lat="48.38704" lon="2.65712">
        <ele>91.43</ele>
        <time>2018-11-02T10:24:02Z</time>
      </trkpt>
      <trkpt lat="48.38704" lon="2.65714">
        <ele>90.65</ele>
        <time>2018-11-02T10:24:03Z</time>
      </trkpt>
      <trkpt lat="48.38705" lon="2.65716">
        <ele>90.65</ele>
        <time>2018-11-02T10:24:04Z</time>
      </trkpt>
      <trkpt lat="48.38706" lon="2.65718">
        <ele>90.66</ele>
        <time>2018-11-02T10:24:05Z</time>
      </trkpt>
      <trkpt lat="48.38713" lon="2.65739">
        <ele>89.69</ele>
        <time>2018-11-02T10:24:17Z</time>
      </trkpt>
      <trkpt lat="48.38716" lon="2.6575">
        <ele>89.68</ele>
        <time>2018-11-02T10:24:24Z</time>
      </trkpt>
      <trkpt lat="48.38716" lon="2.65751">
        <ele>89.69</ele>
        <time>2018-11-02T10:24:25Z</time>
      </trkpt>
      <trkpt lat="48.38717" lon="2.65753">
        <ele>89.68</ele>
        <time>2018-11-02T10:24:26Z</time>
      </trkpt>
      <trkpt lat="48.38721" lon="2.65761">
        <ele>87.98</ele>
        <time>2018-11-02T10:24:32Z</time>
      </trkpt>
      <trkpt lat="48.38722" lon="2.65763">
        <ele>87.98</ele>
        <time>2018-11-02T10:24:33Z</time>
      </trkpt>
      <trkpt lat="48.38722" lon="2.65764">
        <ele>87.99</ele>
        <time>2018-11-02T10:24:34Z</time>
      </trkpt>
      <trkpt lat="48.38725" lon="2.65767">
        <ele>87.99</ele>
        <time>2018-11-02T10:24:38Z</time>
      </trkpt>
      <trkpt lat="48.38726" lon="2.65767">
        <ele>88.05</ele>
        <time>2018-11-02T10:24:39Z</time>
      </trkpt>
      <trkpt lat="48.38727" lon="2.65767">
        <ele>88.04</ele>
        <time>2018-11-02T10:24:40Z</time>
      </trkpt>
      <trkpt lat="48.38728" lon="2.65767">
        <ele>88.04</ele>
        <time>2018-11-02T10:24:41Z</time>
      </trkpt>
      <trkpt lat="48.38729" lon="2.65767">
        <ele>88.04</ele>
        <time>2018-11-02T10:24:42Z</time>
      </trkpt>
      <trkpt lat="48.3873" lon="2.65766">
        <ele>88.04</ele>
        <time>2018-11-02T10:24:43Z</time>
      </trkpt>
      <trkpt lat="48.38733" lon="2.6576">
        <ele>89.22</ele>
        <time>2018-11-02T10:25:02Z</time>
      </trkpt>
      <trkpt lat="48.38736" lon="2.65752">
        <ele>89.22</ele>
        <time>2018-11-02T10:25:20Z</time>
      </trkpt>
      <trkpt lat="48.38736" lon="2.6575">
        <ele>89.21</ele>
        <time>2018-11-02T10:25:21Z</time>
      </trkpt>
      <trkpt lat="48.38739" lon="2.65742">
        <ele>86.81</ele>
        <time>2018-11-02T10:25:27Z</time>
      </trkpt>
      <trkpt lat="48.38741" lon="2.65736">
        <ele>86.81</ele>
        <time>2018-11-02T10:25:31Z</time>
      </trkpt>
      <trkpt lat="48.38741" lon="2.65734">
        <ele>86.8</ele>
        <time>2018-11-02T10:25:32Z</time>
      </trkpt>
      <trkpt lat="48.38742" lon="2.65732">
        <ele>86.8</ele>
        <time>2018-11-02T10:25:33Z</time>
      </trkpt>
      <trkpt lat="48.38741" lon="2.65708">
        <ele>86.73</ele>
        <time>2018-11-02T10:25:46Z</time>
      </trkpt>
      <trkpt lat="48.38746" lon="2.65682">
        <ele>86.7</ele>
        <time>2018-11-02T10:26:02Z</time>
      </trkpt>
      <trkpt lat="48.38749" lon="2.65673">
        <ele>86.7</ele>
        <time>2018-11-02T10:26:07Z</time>
      </trkpt>
      <trkpt lat="48.38749" lon="2.65671">
        <ele>86.7</ele>
        <time>2018-11-02T10:26:08Z</time>
      </trkpt>
      <trkpt lat="48.38749" lon="2.65669">
        <ele>86.7</ele>
        <time>2018-11-02T10:26:09Z</time>
      </trkpt>
      <trkpt lat="48.38749" lon="2.65667">
        <ele>86.7</ele>
        <time>2018-11-02T10:26:10Z</time>
      </trkpt>
      <trkpt lat="48.3875" lon="2.65665">
        <ele>86.7</ele>
        <time>2018-11-02T10:26:11Z</time>
      </trkpt>
      <trkpt lat="48.3875" lon="2.65663">
        <ele>86.69</ele>
        <time>2018-11-02T10:26:12Z</time>
      </trkpt>
      <trkpt lat="48.38754" lon="2.65635">
        <ele>86.68</ele>
        <time>2018-11-02T10:26:28Z</time>
      </trkpt>
      <trkpt lat="48.38757" lon="2.65615">
        <ele>86.68</ele>
        <time>2018-11-02T10:26:40Z</time>
      </trkpt>
      <trkpt lat="48.38757" lon="2.65613">
        <ele>86.69</ele>
        <time>2018-11-02T10:26:41Z</time>
      </trkpt>
      <trkpt lat="48.38758" lon="2.65611">
        <ele>86.69</ele>
        <time>2018-11-02T10:26:42Z</time>
      </trkpt>
      <trkpt lat="48.38762" lon="2.65587">
        <ele>86.73</ele>
        <time>2018-11-02T10:26:57Z</time>
      </trkpt>
      <trkpt lat="48.38764" lon="2.65576">
        <ele>86.75</ele>
        <time>2018-11-02T10:27:02Z</time>
      </trkpt>
      <trkpt lat="48.38769" lon="2.6555">
        <ele>86.79</ele>
        <time>2018-11-02T10:27:16Z</time>
      </trkpt>
      <trkpt lat="48.38775" lon="2.65523">
        <ele>86.86</ele>
        <time>2018-11-02T10:27:33Z</time>
      </trkpt>
      <trkpt lat="48.38777" lon="2.65516">
        <ele>86.87</ele>
        <time>2018-11-02T10:27:37Z</time>
      </trkpt>
      <trkpt lat="48.38777" lon="2.65514">
        <ele>86.88</ele>
        <time>2018-11-02T10:27:38Z</time>
      </trkpt>
      <trkpt lat="48.38781" lon="2.65502">
        <ele>86.9</ele>
        <time>2018-11-02T10:27:44Z</time>
      </trkpt>
      <trkpt lat="48.38782" lon="2.65476">
        <ele>89.37</ele>
        <time>2018-11-02T10:27:56Z</time>
      </trkpt>
      <trkpt lat="48.38782" lon="2.65474">
        <ele>89.37</ele>
        <time>2018-11-02T10:27:57Z</time>
      </trkpt>
      <trkpt lat="48.38785" lon="2.65446">
        <ele>89.42</ele>
        <time>2018-11-02T10:28:12Z</time>
      </trkpt>
      <trkpt lat="48.38788" lon="2.65433">
        <ele>89.45</ele>
        <time>2018-11-02T10:28:20Z</time>
      </trkpt>
      <trkpt lat="48.38789" lon="2.65429">
        <ele>89.45</ele>
        <time>2018-11-02T10:28:23Z</time>
      </trkpt>
      <trkpt lat="48.38792" lon="2.65417">
        <ele>89.46</ele>
        <time>2018-11-02T10:28:29Z</time>
      </trkpt>
      <trkpt lat="48.38792" lon="2.65415">
        <ele>89.46</ele>
        <time>2018-11-02T10:28:30Z</time>
      </trkpt>
      <trkpt lat="48.38792" lon="2.65412">
        <ele>89.47</ele>
        <time>2018-11-02T10:28:31Z</time>
      </trkpt>
      <trkpt lat="48.38793" lon="2.6541">
        <ele>89.48</ele>
        <time>2018-11-02T10:28:32Z</time>
      </trkpt>
      <trkpt lat="48.38795" lon="2.654">
        <ele>89.48</ele>
        <time>2018-11-02T10:28:38Z</time>
      </trkpt>
      <trkpt lat="48.38795" lon="2.65398">
        <ele>89.49</ele>
        <time>2018-11-02T10:28:39Z</time>
      </trkpt>
      <trkpt lat="48.38798" lon="2.6538">
        <ele>89.51</ele>
        <time>2018-11-02T10:28:50Z</time>
      </trkpt>
      <trkpt lat="48.38798" lon="2.65378">
        <ele>89.52</ele>
        <time>2018-11-02T10:28:51Z</time>
      </trkpt>
      <trkpt lat="48.38798" lon="2.65376">
        <ele>89.52</ele>
        <time>2018-11-02T10:28:52Z</time>
      </trkpt>
      <trkpt lat="48.38799" lon="2.6537">
        <ele>89.52</ele>
        <time>2018-11-02T10:28:55Z</time>
      </trkpt>
      <trkpt lat="48.388" lon="2.65366">
        <ele>89.52</ele>
        <time>2018-11-02T10:28:57Z</time>
      </trkpt>
      <trkpt lat="48.388" lon="2.6536">
        <ele>89.53</ele>
        <time>2018-11-02T10:29:01Z</time>
      </trkpt>
      <trkpt lat="48.38801" lon="2.65358">
        <ele>89.53</ele>
        <time>2018-11-02T10:29:02Z</time>
      </trkpt>
      <trkpt lat="48.38808" lon="2.6533">
        <ele>89.58</ele>
        <time>2018-11-02T10:29:18Z</time>
      </trkpt>
      <trkpt lat="48.38811" lon="2.65318">
        <ele>89.61</ele>
        <time>2018-11-02T10:29:24Z</time>
      </trkpt>
      <trkpt lat="48.38812" lon="2.65316">
        <ele>89.62</ele>
        <time>2018-11-02T10:29:25Z</time>
      </trkpt>
      <trkpt lat="48.38817" lon="2.65288">
        <ele>89.7</ele>
        <time>2018-11-02T10:29:39Z</time>
      </trkpt>
      <trkpt lat="48.38819" lon="2.6528">
        <ele>89.73</ele>
        <time>2018-11-02T10:29:44Z</time>
      </trkpt>
      <trkpt lat="48.38819" lon="2.65278">
        <ele>89.74</ele>
        <time>2018-11-02T10:29:45Z</time>
      </trkpt>
      <trkpt lat="48.38819" lon="2.65276">
        <ele>89.74</ele>
        <time>2018-11-02T10:29:46Z</time>
      </trkpt>
      <trkpt lat="48.3882" lon="2.65275">
        <ele>89.75</ele>
        <time>2018-11-02T10:29:47Z</time>
      </trkpt>
      <trkpt lat="48.3882" lon="2.65273">
        <ele>89.76</ele>
        <time>2018-11-02T10:29:48Z</time>
      </trkpt>
      <trkpt lat="48.3882" lon="2.65271">
        <ele>89.77</ele>
        <time>2018-11-02T10:29:49Z</time>
      </trkpt>
      <trkpt lat="48.38823" lon="2.65251">
        <ele>89.84</ele>
        <time>2018-11-02T10:30:00Z</time>
      </trkpt>
      <trkpt lat="48.38823" lon="2.6525">
        <ele>89.85</ele>
        <time>2018-11-02T10:30:01Z</time>
      </trkpt>
      <trkpt lat="48.38823" lon="2.65248">
        <ele>89.85</ele>
        <time>2018-11-02T10:30:02Z</time>
      </trkpt>
      <trkpt lat="48.38824" lon="2.65246">
        <ele>89.85</ele>
        <time>2018-11-02T10:30:03Z</time>
      </trkpt>
      <trkpt lat="48.38824" lon="2.65244">
        <ele>89.86</ele>
        <time>2018-11-02T10:30:04Z</time>
      </trkpt>
      <trkpt lat="48.38824" lon="2.65242">
        <ele>89.87</ele>
        <time>2018-11-02T10:30:05Z</time>
      </trkpt>
      <trkpt lat="48.38827" lon="2.65217">
        <ele>89.95</ele>
        <time>2018-11-02T10:30:19Z</time>
      </trkpt>
      <trkpt lat="48.38832" lon="2.65201">
        <ele>90</ele>
        <time>2018-11-02T10:30:28Z</time>
      </trkpt>
      <trkpt lat="48.38832" lon="2.65199">
        <ele>90.01</ele>
        <time>2018-11-02T10:30:29Z</time>
      </trkpt>
      <trkpt lat="48.38832" lon="2.65198">
        <ele>90.02</ele>
        <time>2018-11-02T10:30:30Z</time>
      </trkpt>
      <trkpt lat="48.38833" lon="2.65195">
        <ele>90.02</ele>
        <time>2018-11-02T10:30:31Z</time>
      </trkpt>
      <trkpt lat="48.38833" lon="2.65193">
        <ele>90.02</ele>
        <time>2018-11-02T10:30:32Z</time>
      </trkpt>
      <trkpt lat="48.38833" lon="2.65191">
        <ele>90.02</ele>
        <time>2018-11-02T10:30:33Z</time>
      </trkpt>
      <trkpt lat="48.38834" lon="2.65189">
        <ele>90.04</ele>
        <time>2018-11-02T10:30:34Z</time>
      </trkpt>
      <trkpt lat="48.38834" lon="2.65187">
        <ele>90.05</ele>
        <time>2018-11-02T10:30:35Z</time>
      </trkpt>
      <trkpt lat="48.38839" lon="2.65161">
        <ele>90.15</ele>
        <time>2018-11-02T10:30:49Z</time>
      </trkpt>
      <trkpt lat="48.38839" lon="2.65159">
        <ele>90.15</ele>
        <time>2018-11-02T10:30:50Z</time>
      </trkpt>
      <trkpt lat="48.38841" lon="2.65135">
        <ele>90.21</ele>
        <time>2018-11-02T10:31:04Z</time>
      </trkpt>
      <trkpt lat="48.38844" lon="2.65116">
        <ele>90.24</ele>
        <time>2018-11-02T10:31:14Z</time>
      </trkpt>
      <trkpt lat="48.38844" lon="2.65114">
        <ele>90.24</ele>
        <time>2018-11-02T10:31:15Z</time>
      </trkpt>
      <trkpt lat="48.38844" lon="2.65112">
        <ele>90.24</ele>
        <time>2018-11-02T10:31:16Z</time>
      </trkpt>
      <trkpt lat="48.38845" lon="2.65091">
        <ele>90.28</ele>
        <time>2018-11-02T10:31:27Z</time>
      </trkpt>
      <trkpt lat="48.3885" lon="2.65066">
        <ele>90.29</ele>
        <time>2018-11-02T10:31:42Z</time>
      </trkpt>
      <trkpt lat="48.38851" lon="2.65062">
        <ele>90.29</ele>
        <time>2018-11-02T10:31:44Z</time>
      </trkpt>
      <trkpt lat="48.38852" lon="2.6506">
        <ele>90.3</ele>
        <time>2018-11-02T10:31:45Z</time>
      </trkpt>
      <trkpt lat="48.38852" lon="2.65058">
        <ele>90.3</ele>
        <time>2018-11-02T10:31:46Z</time>
      </trkpt>
      <trkpt lat="48.38854" lon="2.65027">
        <ele>90.3</ele>
        <time>2018-11-02T10:32:02Z</time>
      </trkpt>
      <trkpt lat="48.38855" lon="2.65021">
        <ele>90.28</ele>
        <time>2018-11-02T10:32:06Z</time>
      </trkpt>
      <trkpt lat="48.38856" lon="2.65019">
        <ele>90.29</ele>
        <time>2018-11-02T10:32:07Z</time>
      </trkpt>
      <trkpt lat="48.38856" lon="2.65018">
        <ele>90.29</ele>
        <time>2018-11-02T10:32:08Z</time>
      </trkpt>
      <trkpt lat="48.38858" lon="2.64999">
        <ele>90.29</ele>
        <time>2018-11-02T10:32:20Z</time>
      </trkpt>
      <trkpt lat="48.3886" lon="2.64977">
        <ele>90.28</ele>
        <time>2018-11-02T10:32:32Z</time>
      </trkpt>
      <trkpt lat="48.38863" lon="2.64967">
        <ele>90.28</ele>
        <time>2018-11-02T10:32:38Z</time>
      </trkpt>
      <trkpt lat="48.38863" lon="2.64966">
        <ele>90.28</ele>
        <time>2018-11-02T10:32:39Z</time>
      </trkpt>
      <trkpt lat="48.38864" lon="2.64964">
        <ele>90.28</ele>
        <time>2018-11-02T10:32:40Z</time>
      </trkpt>
      <trkpt lat="48.38866" lon="2.64956">
        <ele>90.27</ele>
        <time>2018-11-02T10:32:45Z</time>
      </trkpt>
      <trkpt lat="48.38866" lon="2.64954">
        <ele>90.27</ele>
        <time>2018-11-02T10:32:46Z</time>
      </trkpt>
      <trkpt lat="48.38867" lon="2.64947">
        <ele>90.27</ele>
        <time>2018-11-02T10:32:50Z</time>
      </trkpt>
      <trkpt lat="48.38867" lon="2.64945">
        <ele>90.27</ele>
        <time>2018-11-02T10:32:51Z</time>
      </trkpt>
      <trkpt lat="48.38868" lon="2.64943">
        <ele>90.27</ele>
        <time>2018-11-02T10:32:52Z</time>
      </trkpt>
      <trkpt lat="48.38868" lon="2.64941">
        <ele>90.27</ele>
        <time>2018-11-02T10:32:53Z</time>
      </trkpt>
      <trkpt lat="48.38869" lon="2.64935">
        <ele>90.27</ele>
        <time>2018-11-02T10:32:57Z</time>
      </trkpt>
      <trkpt lat="48.38869" lon="2.64933">
        <ele>90.27</ele>
        <time>2018-11-02T10:32:58Z</time>
      </trkpt>
      <trkpt lat="48.38868" lon="2.64931">
        <ele>90.26</ele>
        <time>2018-11-02T10:32:59Z</time>
      </trkpt>
      <trkpt lat="48.38869" lon="2.64929">
        <ele>90.26</ele>
        <time>2018-11-02T10:33:00Z</time>
      </trkpt>
      <trkpt lat="48.3887" lon="2.64927">
        <ele>90.26</ele>
        <time>2018-11-02T10:33:01Z</time>
      </trkpt>
      <trkpt lat="48.3887" lon="2.64925">
        <ele>90.26</ele>
        <time>2018-11-02T10:33:02Z</time>
      </trkpt>
      <trkpt lat="48.3887" lon="2.64924">
        <ele>90.26</ele>
        <time>2018-11-02T10:33:03Z</time>
      </trkpt>
      <trkpt lat="48.38871" lon="2.64922">
        <ele>90.27</ele>
        <time>2018-11-02T10:33:04Z</time>
      </trkpt>
      <trkpt lat="48.38875" lon="2.64905">
        <ele>90.23</ele>
        <time>2018-11-02T10:33:15Z</time>
      </trkpt>
      <trkpt lat="48.38875" lon="2.64903">
        <ele>90.23</ele>
        <time>2018-11-02T10:33:16Z</time>
      </trkpt>
      <trkpt lat="48.38876" lon="2.64901">
        <ele>90.23</ele>
        <time>2018-11-02T10:33:17Z</time>
      </trkpt>
      <trkpt lat="48.38876" lon="2.64899">
        <ele>90.23</ele>
        <time>2018-11-02T10:33:18Z</time>
      </trkpt>
      <trkpt lat="48.38876" lon="2.64897">
        <ele>90.23</ele>
        <time>2018-11-02T10:33:19Z</time>
      </trkpt>
      <trkpt lat="48.38877" lon="2.64895">
        <ele>90.23</ele>
        <time>2018-11-02T10:33:20Z</time>
      </trkpt>
      <trkpt lat="48.38879" lon="2.64889">
        <ele>90.23</ele>
        <time>2018-11-02T10:33:24Z</time>
      </trkpt>
      <trkpt lat="48.38879" lon="2.64887">
        <ele>90.23</ele>
        <time>2018-11-02T10:33:25Z</time>
      </trkpt>
      <trkpt lat="48.38881" lon="2.6488">
        <ele>90.23</ele>
        <time>2018-11-02T10:33:29Z</time>
      </trkpt>
      <trkpt lat="48.38882" lon="2.64878">
        <ele>90.23</ele>
        <time>2018-11-02T10:33:30Z</time>
      </trkpt>
      <trkpt lat="48.38882" lon="2.64876">
        <ele>90.23</ele>
        <time>2018-11-02T10:33:31Z</time>
      </trkpt>
      <trkpt lat="48.38882" lon="2.64874">
        <ele>91.01</ele>
        <time>2018-11-02T10:33:32Z</time>
      </trkpt>
      <trkpt lat="48.38883" lon="2.64873">
        <ele>91.02</ele>
        <time>2018-11-02T10:33:33Z</time>
      </trkpt>
      <trkpt lat="48.38883" lon="2.64871">
        <ele>91.01</ele>
        <time>2018-11-02T10:33:34Z</time>
      </trkpt>
      <trkpt lat="48.38884" lon="2.64869">
        <ele>91.01</ele>
        <time>2018-11-02T10:33:35Z</time>
      </trkpt>
      <trkpt lat="48.38884" lon="2.64867">
        <ele>91.01</ele>
        <time>2018-11-02T10:33:36Z</time>
      </trkpt>
      <trkpt lat="48.38885" lon="2.64847">
        <ele>91.03</ele>
        <time>2018-11-02T10:33:49Z</time>
      </trkpt>
      <trkpt lat="48.38884" lon="2.64842">
        <ele>90.98</ele>
        <time>2018-11-02T10:33:57Z</time>
      </trkpt>
      <trkpt lat="48.38882" lon="2.64824">
        <ele>91.75</ele>
        <time>2018-11-02T10:34:08Z</time>
      </trkpt>
      <trkpt lat="48.38882" lon="2.64822">
        <ele>91.75</ele>
        <time>2018-11-02T10:34:09Z</time>
      </trkpt>
      <trkpt lat="48.38882" lon="2.6482">
        <ele>91.76</ele>
        <time>2018-11-02T10:34:10Z</time>
      </trkpt>
      <trkpt lat="48.38877" lon="2.64795">
        <ele>91.76</ele>
        <time>2018-11-02T10:34:26Z</time>
      </trkpt>
      <trkpt lat="48.38874" lon="2.64775">
        <ele>91.77</ele>
        <time>2018-11-02T10:34:39Z</time>
      </trkpt>
      <trkpt lat="48.38872" lon="2.6476">
        <ele>92.59</ele>
        <time>2018-11-02T10:34:50Z</time>
      </trkpt>
      <trkpt lat="48.38871" lon="2.64758">
        <ele>92.6</ele>
        <time>2018-11-02T10:34:51Z</time>
      </trkpt>
      <trkpt lat="48.38868" lon="2.64734">
        <ele>93.54</ele>
        <time>2018-11-02T10:35:07Z</time>
      </trkpt>
      <trkpt lat="48.38866" lon="2.64695">
        <ele>94.44</ele>
        <time>2018-11-02T10:35:29Z</time>
      </trkpt>
      <trkpt lat="48.38865" lon="2.64666">
        <ele>95.4</ele>
        <time>2018-11-02T10:35:42Z</time>
      </trkpt>
      <trkpt lat="48.38861" lon="2.64645">
        <ele>96.32</ele>
        <time>2018-11-02T10:35:56Z</time>
      </trkpt>
      <trkpt lat="48.38861" lon="2.64633">
        <ele>97.71</ele>
        <time>2018-11-02T10:36:02Z</time>
      </trkpt>
      <trkpt lat="48.38859" lon="2.64615">
        <ele>98.82</ele>
        <time>2018-11-02T10:36:11Z</time>
      </trkpt>
      <trkpt lat="48.38851" lon="2.64586">
        <ele>98.93</ele>
        <time>2018-11-02T10:36:25Z</time>
      </trkpt>
      <trkpt lat="48.38851" lon="2.64584">
        <ele>98.93</ele>
        <time>2018-11-02T10:36:26Z</time>
      </trkpt>
      <trkpt lat="48.38847" lon="2.64572">
        <ele>99.03</ele>
        <time>2018-11-02T10:36:45Z</time>
      </trkpt>
      <trkpt lat="48.38844" lon="2.64552">
        <ele>99.12</ele>
        <time>2018-11-02T10:37:00Z</time>
      </trkpt>
      <trkpt lat="48.38842" lon="2.64531">
        <ele>100.05</ele>
        <time>2018-11-02T10:37:14Z</time>
      </trkpt>
      <trkpt lat="48.3884" lon="2.6451">
        <ele>100.92</ele>
        <time>2018-11-02T10:37:27Z</time>
      </trkpt>
      <trkpt lat="48.38837" lon="2.64484">
        <ele>101.78</ele>
        <time>2018-11-02T10:37:44Z</time>
      </trkpt>
      <trkpt lat="48.38833" lon="2.6446">
        <ele>103.59</ele>
        <time>2018-11-02T10:38:00Z</time>
      </trkpt>
      <trkpt lat="48.3883" lon="2.6442">
        <ele>105.4</ele>
        <time>2018-11-02T10:38:24Z</time>
      </trkpt>
      <trkpt lat="48.38825" lon="2.64383">
        <ele>107.51</ele>
        <time>2018-11-02T10:38:44Z</time>
      </trkpt>
      <trkpt lat="48.3882" lon="2.64353">
        <ele>110.1</ele>
        <time>2018-11-02T10:39:03Z</time>
      </trkpt>
      <trkpt lat="48.38818" lon="2.64323">
        <ele>113.67</ele>
        <time>2018-11-02T10:39:20Z</time>
      </trkpt>
      <trkpt lat="48.38815" lon="2.64301">
        <ele>115.58</ele>
        <time>2018-11-02T10:39:35Z</time>
      </trkpt>
      <trkpt lat="48.38814" lon="2.64275">
        <ele>118.18</ele>
        <time>2018-11-02T10:39:53Z</time>
      </trkpt>
      <trkpt lat="48.38811" lon="2.64256">
        <ele>121.86</ele>
        <time>2018-11-02T10:40:07Z</time>
      </trkpt>
      <trkpt lat="48.38811" lon="2.64254">
        <ele>121.84</ele>
        <time>2018-11-02T10:40:08Z</time>
      </trkpt>
      <trkpt lat="48.3881" lon="2.6423">
        <ele>121.89</ele>
        <time>2018-11-02T10:40:25Z</time>
      </trkpt>
      <trkpt lat="48.3881" lon="2.64229">
        <ele>121.9</ele>
        <time>2018-11-02T10:40:26Z</time>
      </trkpt>
      <trkpt lat="48.3881" lon="2.64227">
        <ele>121.92</ele>
        <time>2018-11-02T10:40:27Z</time>
      </trkpt>
      <trkpt lat="48.38813" lon="2.64213">
        <ele>121.96</ele>
        <time>2018-11-02T10:40:36Z</time>
      </trkpt>
      <trkpt lat="48.38813" lon="2.64211">
        <ele>122.86</ele>
        <time>2018-11-02T10:40:37Z</time>
      </trkpt>
      <trkpt lat="48.38817" lon="2.64201">
        <ele>122.88</ele>
        <time>2018-11-02T10:40:44Z</time>
      </trkpt>
      <trkpt lat="48.38817" lon="2.642">
        <ele>122.88</ele>
        <time>2018-11-02T10:40:45Z</time>
      </trkpt>
      <trkpt lat="48.38822" lon="2.64184">
        <ele>122.91</ele>
        <time>2018-11-02T10:40:57Z</time>
      </trkpt>
      <trkpt lat="48.38831" lon="2.64165">
        <ele>123.78</ele>
        <time>2018-11-02T10:41:10Z</time>
      </trkpt>
      <trkpt lat="48.38841" lon="2.64143">
        <ele>123.79</ele>
        <time>2018-11-02T10:41:25Z</time>
      </trkpt>
      <trkpt lat="48.3885" lon="2.64125">
        <ele>124.66</ele>
        <time>2018-11-02T10:41:38Z</time>
      </trkpt>
      <trkpt lat="48.3886" lon="2.64104">
        <ele>124.66</ele>
        <time>2018-11-02T10:41:52Z</time>
      </trkpt>
      <trkpt lat="48.38864" lon="2.64088">
        <ele>124.69</ele>
        <time>2018-11-02T10:42:01Z</time>
      </trkpt>
      <trkpt lat="48.38865" lon="2.64079">
        <ele>124.7</ele>
        <time>2018-11-02T10:42:05Z</time>
      </trkpt>
      <trkpt lat="48.38864" lon="2.64076">
        <ele>124.7</ele>
        <time>2018-11-02T10:42:07Z</time>
      </trkpt>
      <trkpt lat="48.38865" lon="2.64057">
        <ele>124.72</ele>
        <time>2018-11-02T10:42:19Z</time>
      </trkpt>
      <trkpt lat="48.38864" lon="2.64042">
        <ele>125.83</ele>
        <time>2018-11-02T10:42:26Z</time>
      </trkpt>
      <trkpt lat="48.38862" lon="2.64038">
        <ele>125.86</ele>
        <time>2018-11-02T10:42:28Z</time>
      </trkpt>
      <trkpt lat="48.38862" lon="2.64036">
        <ele>125.86</ele>
        <time>2018-11-02T10:42:29Z</time>
      </trkpt>
      <trkpt lat="48.38862" lon="2.64034">
        <ele>125.82</ele>
        <time>2018-11-02T10:42:30Z</time>
      </trkpt>
      <trkpt lat="48.38862" lon="2.64032">
        <ele>125.82</ele>
        <time>2018-11-02T10:42:31Z</time>
      </trkpt>
      <trkpt lat="48.38862" lon="2.6403">
        <ele>125.82</ele>
        <time>2018-11-02T10:42:32Z</time>
      </trkpt>
      <trkpt lat="48.38861" lon="2.64028">
        <ele>125.82</ele>
        <time>2018-11-02T10:42:33Z</time>
      </trkpt>
      <trkpt lat="48.38861" lon="2.64027">
        <ele>125.82</ele>
        <time>2018-11-02T10:42:34Z</time>
      </trkpt>
      <trkpt lat="48.38858" lon="2.64014">
        <ele>125.83</ele>
        <time>2018-11-02T10:42:45Z</time>
      </trkpt>
      <trkpt lat="48.38855" lon="2.64015">
        <ele>127.62</ele>
        <time>2018-11-02T10:42:51Z</time>
      </trkpt>
      <trkpt lat="48.38854" lon="2.64008">
        <ele>127.55</ele>
        <time>2018-11-02T10:43:07Z</time>
      </trkpt>
      <trkpt lat="48.38853" lon="2.63983">
        <ele>127.56</ele>
        <time>2018-11-02T10:43:24Z</time>
      </trkpt>
      <trkpt lat="48.38853" lon="2.63978">
        <ele>127.57</ele>
        <time>2018-11-02T10:43:27Z</time>
      </trkpt>
      <trkpt lat="48.38851" lon="2.63955">
        <ele>127.58</ele>
        <time>2018-11-02T10:43:43Z</time>
      </trkpt>
      <trkpt lat="48.3885" lon="2.63933">
        <ele>127.6</ele>
        <time>2018-11-02T10:43:55Z</time>
      </trkpt>
      <trkpt lat="48.38849" lon="2.63916">
        <ele>127.63</ele>
        <time>2018-11-02T10:44:03Z</time>
      </trkpt>
      <trkpt lat="48.38844" lon="2.63893">
        <ele>127.7</ele>
        <time>2018-11-02T10:44:17Z</time>
      </trkpt>
      <trkpt lat="48.38844" lon="2.63891">
        <ele>127.7</ele>
        <time>2018-11-02T10:44:18Z</time>
      </trkpt>
      <trkpt lat="48.38841" lon="2.63863">
        <ele>127.82</ele>
        <time>2018-11-02T10:44:35Z</time>
      </trkpt>
      <trkpt lat="48.38841" lon="2.63861">
        <ele>127.84</ele>
        <time>2018-11-02T10:44:36Z</time>
      </trkpt>
      <trkpt lat="48.38841" lon="2.63837">
        <ele>127.89</ele>
        <time>2018-11-02T10:44:49Z</time>
      </trkpt>
      <trkpt lat="48.38839" lon="2.6381">
        <ele>127.95</ele>
        <time>2018-11-02T10:45:02Z</time>
      </trkpt>
      <trkpt lat="48.38836" lon="2.63789">
        <ele>128.04</ele>
        <time>2018-11-02T10:45:14Z</time>
      </trkpt>
      <trkpt lat="48.38835" lon="2.63779">
        <ele>128.07</ele>
        <time>2018-11-02T10:45:19Z</time>
      </trkpt>
      <trkpt lat="48.38834" lon="2.6377">
        <ele>128.1</ele>
        <time>2018-11-02T10:45:24Z</time>
      </trkpt>
      <trkpt lat="48.38833" lon="2.63768">
        <ele>128.1</ele>
        <time>2018-11-02T10:45:25Z</time>
      </trkpt>
      <trkpt lat="48.38829" lon="2.63752">
        <ele>128.17</ele>
        <time>2018-11-02T10:45:38Z</time>
      </trkpt>
      <trkpt lat="48.38828" lon="2.63749">
        <ele>128.32</ele>
        <time>2018-11-02T10:46:10Z</time>
      </trkpt>
      <trkpt lat="48.38818" lon="2.6374">
        <ele>128.39</ele>
        <time>2018-11-02T10:46:29Z</time>
      </trkpt>
      <trkpt lat="48.38816" lon="2.63739">
        <ele>128.39</ele>
        <time>2018-11-02T10:46:30Z</time>
      </trkpt>
      <trkpt lat="48.38815" lon="2.63739">
        <ele>128.39</ele>
        <time>2018-11-02T10:46:31Z</time>
      </trkpt>
      <trkpt lat="48.38814" lon="2.63739">
        <ele>128.39</ele>
        <time>2018-11-02T10:46:32Z</time>
      </trkpt>
      <trkpt lat="48.38812" lon="2.63738">
        <ele>128.39</ele>
        <time>2018-11-02T10:46:33Z</time>
      </trkpt>
      <trkpt lat="48.38798" lon="2.63732">
        <ele>128.37</ele>
        <time>2018-11-02T10:46:45Z</time>
      </trkpt>
      <trkpt lat="48.38797" lon="2.63732">
        <ele>125.1</ele>
        <time>2018-11-02T10:46:46Z</time>
      </trkpt>
      <trkpt lat="48.38796" lon="2.63732">
        <ele>125.11</ele>
        <time>2018-11-02T10:46:47Z</time>
      </trkpt>
      <trkpt lat="48.38791" lon="2.63731">
        <ele>127.63</ele>
        <time>2018-11-02T10:46:52Z</time>
      </trkpt>
      <trkpt lat="48.38788" lon="2.6373">
        <ele>123.33</ele>
        <time>2018-11-02T10:46:55Z</time>
      </trkpt>
      <trkpt lat="48.38787" lon="2.6373">
        <ele>123.3</ele>
        <time>2018-11-02T10:46:56Z</time>
      </trkpt>
      <trkpt lat="48.38785" lon="2.6373">
        <ele>126.27</ele>
        <time>2018-11-02T10:46:58Z</time>
      </trkpt>
      <trkpt lat="48.38777" lon="2.6373">
        <ele>123.92</ele>
        <time>2018-11-02T10:47:05Z</time>
      </trkpt>
      <trkpt lat="48.38763" lon="2.63726">
        <ele>122.09</ele>
        <time>2018-11-02T10:47:17Z</time>
      </trkpt>
      <trkpt lat="48.38751" lon="2.63723">
        <ele>118.57</ele>
        <time>2018-11-02T10:47:30Z</time>
      </trkpt>
      <trkpt lat="48.38736" lon="2.63721">
        <ele>115.34</ele>
        <time>2018-11-02T10:47:43Z</time>
      </trkpt>
      <trkpt lat="48.38727" lon="2.6372">
        <ele>115.28</ele>
        <time>2018-11-02T10:47:50Z</time>
      </trkpt>
      <trkpt lat="48.38715" lon="2.63717">
        <ele>117.85</ele>
        <time>2018-11-02T10:48:03Z</time>
      </trkpt>
      <trkpt lat="48.38713" lon="2.63716">
        <ele>117.82</ele>
        <time>2018-11-02T10:48:05Z</time>
      </trkpt>
      <trkpt lat="48.38712" lon="2.63715">
        <ele>117.82</ele>
        <time>2018-11-02T10:48:06Z</time>
      </trkpt>
      <trkpt lat="48.38711" lon="2.63714">
        <ele>117.82</ele>
        <time>2018-11-02T10:48:07Z</time>
      </trkpt>
      <trkpt lat="48.38709" lon="2.63714">
        <ele>117.81</ele>
        <time>2018-11-02T10:48:08Z</time>
      </trkpt>
      <trkpt lat="48.38697" lon="2.63714">
        <ele>120.22</ele>
        <time>2018-11-02T10:48:22Z</time>
      </trkpt>
      <trkpt lat="48.38679" lon="2.63714">
        <ele>121.56</ele>
        <time>2018-11-02T10:48:42Z</time>
      </trkpt>
      <trkpt lat="48.38666" lon="2.63711">
        <ele>122.18</ele>
        <time>2018-11-02T10:48:56Z</time>
      </trkpt>
      <trkpt lat="48.38664" lon="2.63711">
        <ele>122.19</ele>
        <time>2018-11-02T10:48:57Z</time>
      </trkpt>
      <trkpt lat="48.38661" lon="2.6371">
        <ele>122.14</ele>
        <time>2018-11-02T10:49:00Z</time>
      </trkpt>
      <trkpt lat="48.3866" lon="2.6371">
        <ele>122.13</ele>
        <time>2018-11-02T10:49:01Z</time>
      </trkpt>
      <trkpt lat="48.38645" lon="2.63704">
        <ele>121.98</ele>
        <time>2018-11-02T10:49:16Z</time>
      </trkpt>
      <trkpt lat="48.38643" lon="2.63704">
        <ele>121.96</ele>
        <time>2018-11-02T10:49:18Z</time>
      </trkpt>
      <trkpt lat="48.38627" lon="2.63699">
        <ele>123.5</ele>
        <time>2018-11-02T10:49:31Z</time>
      </trkpt>
      <trkpt lat="48.3862" lon="2.63697">
        <ele>123.45</ele>
        <time>2018-11-02T10:49:37Z</time>
      </trkpt>
      <trkpt lat="48.38612" lon="2.63697">
        <ele>124.3</ele>
        <time>2018-11-02T10:49:43Z</time>
      </trkpt>
      <trkpt lat="48.38611" lon="2.63697">
        <ele>124.29</ele>
        <time>2018-11-02T10:49:44Z</time>
      </trkpt>
      <trkpt lat="48.38609" lon="2.63697">
        <ele>124.28</ele>
        <time>2018-11-02T10:49:45Z</time>
      </trkpt>
      <trkpt lat="48.386" lon="2.63697">
        <ele>124.22</ele>
        <time>2018-11-02T10:49:52Z</time>
      </trkpt>
      <trkpt lat="48.38598" lon="2.63697">
        <ele>124.21</ele>
        <time>2018-11-02T10:49:53Z</time>
      </trkpt>
      <trkpt lat="48.38597" lon="2.63697">
        <ele>124.2</ele>
        <time>2018-11-02T10:49:54Z</time>
      </trkpt>
      <trkpt lat="48.38596" lon="2.63697">
        <ele>124.19</ele>
        <time>2018-11-02T10:49:55Z</time>
      </trkpt>
      <trkpt lat="48.38594" lon="2.63697">
        <ele>124.18</ele>
        <time>2018-11-02T10:49:56Z</time>
      </trkpt>
      <trkpt lat="48.38593" lon="2.63697">
        <ele>124.18</ele>
        <time>2018-11-02T10:49:57Z</time>
      </trkpt>
      <trkpt lat="48.38591" lon="2.63696">
        <ele>124.15</ele>
        <time>2018-11-02T10:49:58Z</time>
      </trkpt>
      <trkpt lat="48.3859" lon="2.63696">
        <ele>124.15</ele>
        <time>2018-11-02T10:49:59Z</time>
      </trkpt>
      <trkpt lat="48.38579" lon="2.63695">
        <ele>124.9</ele>
        <time>2018-11-02T10:50:10Z</time>
      </trkpt>
      <trkpt lat="48.38572" lon="2.6369">
        <ele>124.86</ele>
        <time>2018-11-02T10:50:16Z</time>
      </trkpt>
      <trkpt lat="48.38571" lon="2.63689">
        <ele>124.85</ele>
        <time>2018-11-02T10:50:17Z</time>
      </trkpt>
      <trkpt lat="48.3857" lon="2.63688">
        <ele>124.84</ele>
        <time>2018-11-02T10:50:18Z</time>
      </trkpt>
      <trkpt lat="48.38569" lon="2.63687">
        <ele>124.83</ele>
        <time>2018-11-02T10:50:19Z</time>
      </trkpt>
      <trkpt lat="48.38559" lon="2.63676">
        <ele>124.78</ele>
        <time>2018-11-02T10:50:29Z</time>
      </trkpt>
      <trkpt lat="48.38547" lon="2.63662">
        <ele>124.69</ele>
        <time>2018-11-02T10:50:43Z</time>
      </trkpt>
      <trkpt lat="48.38534" lon="2.63643">
        <ele>125.34</ele>
        <time>2018-11-02T10:50:58Z</time>
      </trkpt>
      <trkpt lat="48.38524" lon="2.63631">
        <ele>125.27</ele>
        <time>2018-11-02T10:51:11Z</time>
      </trkpt>
      <trkpt lat="48.38518" lon="2.63621">
        <ele>125.12</ele>
        <time>2018-11-02T10:51:31Z</time>
      </trkpt>
      <trkpt lat="48.38507" lon="2.63609">
        <ele>125.08</ele>
        <time>2018-11-02T10:51:42Z</time>
      </trkpt>
      <trkpt lat="48.38502" lon="2.63599">
        <ele>125.02</ele>
        <time>2018-11-02T10:51:56Z</time>
      </trkpt>
      <trkpt lat="48.38501" lon="2.63598">
        <ele>125.01</ele>
        <time>2018-11-02T10:51:57Z</time>
      </trkpt>
      <trkpt lat="48.38492" lon="2.63588">
        <ele>124.98</ele>
        <time>2018-11-02T10:52:08Z</time>
      </trkpt>
      <trkpt lat="48.38491" lon="2.63587">
        <ele>124.96</ele>
        <time>2018-11-02T10:52:09Z</time>
      </trkpt>
      <trkpt lat="48.3848" lon="2.63576">
        <ele>124.9</ele>
        <time>2018-11-02T10:52:22Z</time>
      </trkpt>
      <trkpt lat="48.38469" lon="2.63559">
        <ele>124.87</ele>
        <time>2018-11-02T10:52:35Z</time>
      </trkpt>
      <trkpt lat="48.38464" lon="2.63545">
        <ele>124.87</ele>
        <time>2018-11-02T10:52:51Z</time>
      </trkpt>
      <trkpt lat="48.3845" lon="2.63529">
        <ele>124.86</ele>
        <time>2018-11-02T10:53:07Z</time>
      </trkpt>
      <trkpt lat="48.3843" lon="2.63503">
        <ele>124.86</ele>
        <time>2018-11-02T10:53:27Z</time>
      </trkpt>
      <trkpt lat="48.38416" lon="2.63485">
        <ele>124.84</ele>
        <time>2018-11-02T10:53:44Z</time>
      </trkpt>
      <trkpt lat="48.3841" lon="2.63476">
        <ele>124.77</ele>
        <time>2018-11-02T10:54:03Z</time>
      </trkpt>
      <trkpt lat="48.38398" lon="2.63461">
        <ele>124.75</ele>
        <time>2018-11-02T10:54:24Z</time>
      </trkpt>
      <trkpt lat="48.38387" lon="2.63443">
        <ele>125.5</ele>
        <time>2018-11-02T10:54:45Z</time>
      </trkpt>
      <trkpt lat="48.38376" lon="2.63429">
        <ele>126.35</ele>
        <time>2018-11-02T10:54:59Z</time>
      </trkpt>
      <trkpt lat="48.38361" lon="2.63414">
        <ele>127.99</ele>
        <time>2018-11-02T10:55:16Z</time>
      </trkpt>
      <trkpt lat="48.38359" lon="2.63414">
        <ele>125.42</ele>
        <time>2018-11-02T10:55:28Z</time>
      </trkpt>
      <trkpt lat="48.38359" lon="2.63422">
        <ele>125.38</ele>
        <time>2018-11-02T10:55:56Z</time>
      </trkpt>
      <trkpt lat="48.38354" lon="2.63434">
        <ele>125.38</ele>
        <time>2018-11-02T10:56:22Z</time>
      </trkpt>
      <trkpt lat="48.38351" lon="2.63439">
        <ele>125.39</ele>
        <time>2018-11-02T10:56:27Z</time>
      </trkpt>
      <trkpt lat="48.3835" lon="2.6344">
        <ele>125.4</ele>
        <time>2018-11-02T10:56:29Z</time>
      </trkpt>
      <trkpt lat="48.38349" lon="2.63441">
        <ele>125.4</ele>
        <time>2018-11-02T10:56:30Z</time>
      </trkpt>
      <trkpt lat="48.38349" lon="2.63442">
        <ele>125.41</ele>
        <time>2018-11-02T10:56:31Z</time>
      </trkpt>
      <trkpt lat="48.38348" lon="2.63443">
        <ele>125.42</ele>
        <time>2018-11-02T10:56:32Z</time>
      </trkpt>
      <trkpt lat="48.38346" lon="2.63447">
        <ele>125.42</ele>
        <time>2018-11-02T10:56:36Z</time>
      </trkpt>
      <trkpt lat="48.38344" lon="2.63448">
        <ele>125.41</ele>
        <time>2018-11-02T10:56:37Z</time>
      </trkpt>
      <trkpt lat="48.38344" lon="2.6345">
        <ele>125.41</ele>
        <time>2018-11-02T10:56:38Z</time>
      </trkpt>
      <trkpt lat="48.38343" lon="2.63452">
        <ele>125.41</ele>
        <time>2018-11-02T10:56:39Z</time>
      </trkpt>
      <trkpt lat="48.38341" lon="2.63462">
        <ele>125.41</ele>
        <time>2018-11-02T10:56:45Z</time>
      </trkpt>
      <trkpt lat="48.38341" lon="2.63464">
        <ele>125.41</ele>
        <time>2018-11-02T10:56:46Z</time>
      </trkpt>
      <trkpt lat="48.38335" lon="2.63479">
        <ele>125.41</ele>
        <time>2018-11-02T10:56:58Z</time>
      </trkpt>
      <trkpt lat="48.38332" lon="2.63488">
        <ele>125.42</ele>
        <time>2018-11-02T10:57:04Z</time>
      </trkpt>
      <trkpt lat="48.38331" lon="2.63491">
        <ele>125.41</ele>
        <time>2018-11-02T10:57:06Z</time>
      </trkpt>
      <trkpt lat="48.38328" lon="2.63504">
        <ele>125.44</ele>
        <time>2018-11-02T10:57:12Z</time>
      </trkpt>
      <trkpt lat="48.38327" lon="2.63506">
        <ele>125.43</ele>
        <time>2018-11-02T10:57:13Z</time>
      </trkpt>
      <trkpt lat="48.38323" lon="2.6351">
        <ele>125.43</ele>
        <time>2018-11-02T10:57:17Z</time>
      </trkpt>
      <trkpt lat="48.38319" lon="2.63513">
        <ele>125.39</ele>
        <time>2018-11-02T10:57:21Z</time>
      </trkpt>
      <trkpt lat="48.38308" lon="2.63523">
        <ele>125.48</ele>
        <time>2018-11-02T10:57:34Z</time>
      </trkpt>
      <trkpt lat="48.38283" lon="2.63539">
        <ele>125.37</ele>
        <time>2018-11-02T10:57:54Z</time>
      </trkpt>
      <trkpt lat="48.38267" lon="2.63551">
        <ele>124.33</ele>
        <time>2018-11-02T10:58:08Z</time>
      </trkpt>
      <trkpt lat="48.38262" lon="2.63553">
        <ele>124.32</ele>
        <time>2018-11-02T10:58:11Z</time>
      </trkpt>
      <trkpt lat="48.38261" lon="2.63555">
        <ele>124.26</ele>
        <time>2018-11-02T10:58:12Z</time>
      </trkpt>
      <trkpt lat="48.3826" lon="2.63555">
        <ele>124.28</ele>
        <time>2018-11-02T10:58:13Z</time>
      </trkpt>
      <trkpt lat="48.38253" lon="2.63559">
        <ele>123.24</ele>
        <time>2018-11-02T10:58:19Z</time>
      </trkpt>
      <trkpt lat="48.38249" lon="2.63563">
        <ele>123.2</ele>
        <time>2018-11-02T10:58:31Z</time>
      </trkpt>
      <trkpt lat="48.38249" lon="2.63565">
        <ele>123.19</ele>
        <time>2018-11-02T10:58:54Z</time>
      </trkpt>
      <trkpt lat="48.38259" lon="2.63573">
        <ele>123.21</ele>
        <time>2018-11-02T10:59:18Z</time>
      </trkpt>
      <trkpt lat="48.38261" lon="2.63575">
        <ele>125.13</ele>
        <time>2018-11-02T10:59:24Z</time>
      </trkpt>
      <trkpt lat="48.38265" lon="2.63577">
        <ele>125.13</ele>
        <time>2018-11-02T10:59:54Z</time>
      </trkpt>
      <trkpt lat="48.38271" lon="2.63583">
        <ele>122.78</ele>
        <time>2018-11-02T11:00:15Z</time>
      </trkpt>
      <trkpt lat="48.38273" lon="2.6359">
        <ele>122.78</ele>
        <time>2018-11-02T11:00:20Z</time>
      </trkpt>
      <trkpt lat="48.38274" lon="2.63601">
        <ele>122.84</ele>
        <time>2018-11-02T11:00:26Z</time>
      </trkpt>
      <trkpt lat="48.38271" lon="2.63608">
        <ele>122.84</ele>
        <time>2018-11-02T11:00:30Z</time>
      </trkpt>
      <trkpt lat="48.3827" lon="2.63613">
        <ele>122.86</ele>
        <time>2018-11-02T11:00:33Z</time>
      </trkpt>
      <trkpt lat="48.38269" lon="2.63631">
        <ele>122.84</ele>
        <time>2018-11-02T11:00:44Z</time>
      </trkpt>
      <trkpt lat="48.38269" lon="2.63639">
        <ele>122.85</ele>
        <time>2018-11-02T11:00:48Z</time>
      </trkpt>
      <trkpt lat="48.38267" lon="2.63645">
        <ele>122.84</ele>
        <time>2018-11-02T11:00:51Z</time>
      </trkpt>
      <trkpt lat="48.38267" lon="2.63651">
        <ele>122.84</ele>
        <time>2018-11-02T11:00:55Z</time>
      </trkpt>
      <trkpt lat="48.3826" lon="2.63673">
        <ele>122.82</ele>
        <time>2018-11-02T11:01:08Z</time>
      </trkpt>
      <trkpt lat="48.38259" lon="2.63675">
        <ele>122.84</ele>
        <time>2018-11-02T11:01:09Z</time>
      </trkpt>
      <trkpt lat="48.38251" lon="2.63687">
        <ele>122.78</ele>
        <time>2018-11-02T11:01:22Z</time>
      </trkpt>
      <trkpt lat="48.38247" lon="2.63693">
        <ele>122.79</ele>
        <time>2018-11-02T11:01:27Z</time>
      </trkpt>
      <trkpt lat="48.38238" lon="2.63714">
        <ele>122.83</ele>
        <time>2018-11-02T11:01:46Z</time>
      </trkpt>
      <trkpt lat="48.38236" lon="2.63717">
        <ele>122.78</ele>
        <time>2018-11-02T11:01:48Z</time>
      </trkpt>
      <trkpt lat="48.38227" lon="2.63743">
        <ele>122.81</ele>
        <time>2018-11-02T11:02:07Z</time>
      </trkpt>
      <trkpt lat="48.38226" lon="2.63754">
        <ele>122.81</ele>
        <time>2018-11-02T11:02:15Z</time>
      </trkpt>
      <trkpt lat="48.3823" lon="2.63774">
        <ele>122.85</ele>
        <time>2018-11-02T11:02:29Z</time>
      </trkpt>
      <trkpt lat="48.3824" lon="2.63785">
        <ele>121.99</ele>
        <time>2018-11-02T11:02:50Z</time>
      </trkpt>
      <trkpt lat="48.3824" lon="2.63786">
        <ele>124.32</ele>
        <time>2018-11-02T11:02:53Z</time>
      </trkpt>
      <trkpt lat="48.38242" lon="2.63787">
        <ele>124.26</ele>
        <time>2018-11-02T11:03:31Z</time>
      </trkpt>
      <trkpt lat="48.38242" lon="2.63789">
        <ele>124.22</ele>
        <time>2018-11-02T11:04:08Z</time>
      </trkpt>
      <trkpt lat="48.38239" lon="2.63789">
        <ele>124.17</ele>
        <time>2018-11-02T11:04:44Z</time>
      </trkpt>
      <trkpt lat="48.38228" lon="2.63791">
        <ele>124.12</ele>
        <time>2018-11-02T11:05:02Z</time>
      </trkpt>
      <trkpt lat="48.3822" lon="2.63802">
        <ele>124.06</ele>
        <time>2018-11-02T11:05:20Z</time>
      </trkpt>
      <trkpt lat="48.38229" lon="2.63821">
        <ele>123.94</ele>
        <time>2018-11-02T11:05:40Z</time>
      </trkpt>
      <trkpt lat="48.38233" lon="2.6384">
        <ele>123.84</ele>
        <time>2018-11-02T11:05:56Z</time>
      </trkpt>
      <trkpt lat="48.38234" lon="2.63856">
        <ele>123.8</ele>
        <time>2018-11-02T11:06:06Z</time>
      </trkpt>
      <trkpt lat="48.38233" lon="2.63871">
        <ele>123.74</ele>
        <time>2018-11-02T11:06:16Z</time>
      </trkpt>
      <trkpt lat="48.38229" lon="2.6389">
        <ele>123.66</ele>
        <time>2018-11-02T11:06:35Z</time>
      </trkpt>
      <trkpt lat="48.3823" lon="2.63913">
        <ele>123.57</ele>
        <time>2018-11-02T11:06:50Z</time>
      </trkpt>
      <trkpt lat="48.38229" lon="2.63932">
        <ele>123.45</ele>
        <time>2018-11-02T11:07:09Z</time>
      </trkpt>
      <trkpt lat="48.38232" lon="2.63937">
        <ele>123.31</ele>
        <time>2018-11-02T11:07:29Z</time>
      </trkpt>
      <trkpt lat="48.38233" lon="2.63936">
        <ele>123.13</ele>
        <time>2018-11-02T11:08:04Z</time>
      </trkpt>
      <trkpt lat="48.38231" lon="2.63938">
        <ele>123.01</ele>
        <time>2018-11-02T11:08:31Z</time>
      </trkpt>
      <trkpt lat="48.38231" lon="2.63938">
        <ele>122.87</ele>
        <time>2018-11-02T11:09:10Z</time>
      </trkpt>
      <trkpt lat="48.3823" lon="2.63938">
        <ele>122.81</ele>
        <time>2018-11-02T11:09:29Z</time>
      </trkpt>
      <trkpt lat="48.3823" lon="2.63936">
        <ele>122.75</ele>
        <time>2018-11-02T11:09:50Z</time>
      </trkpt>
      <trkpt lat="48.38227" lon="2.63946">
        <ele>122.7</ele>
        <time>2018-11-02T11:10:13Z</time>
      </trkpt>
      <trkpt lat="48.38222" lon="2.63954">
        <ele>122.65</ele>
        <time>2018-11-02T11:10:30Z</time>
      </trkpt>
      <trkpt lat="48.38223" lon="2.63969">
        <ele>122.63</ele>
        <time>2018-11-02T11:10:50Z</time>
      </trkpt>
      <trkpt lat="48.38223" lon="2.63984">
        <ele>122.6</ele>
        <time>2018-11-02T11:11:08Z</time>
      </trkpt>
      <trkpt lat="48.38225" lon="2.63995">
        <ele>122.58</ele>
        <time>2018-11-02T11:11:27Z</time>
      </trkpt>
      <trkpt lat="48.38226" lon="2.63999">
        <ele>122.55</ele>
        <time>2018-11-02T11:11:50Z</time>
      </trkpt>
      <trkpt lat="48.38227" lon="2.64001">
        <ele>120.18</ele>
        <time>2018-11-02T11:11:56Z</time>
      </trkpt>
      <trkpt lat="48.38231" lon="2.64015">
        <ele>120.2</ele>
        <time>2018-11-02T11:12:19Z</time>
      </trkpt>
      <trkpt lat="48.38231" lon="2.64014">
        <ele>119.44</ele>
        <time>2018-11-02T11:12:40Z</time>
      </trkpt>
      <trkpt lat="48.38228" lon="2.6401">
        <ele>119.44</ele>
        <time>2018-11-02T11:12:54Z</time>
      </trkpt>
      <trkpt lat="48.38224" lon="2.64016">
        <ele>121.89</ele>
        <time>2018-11-02T11:13:13Z</time>
      </trkpt>
      <trkpt lat="48.3822" lon="2.64019">
        <ele>122.88</ele>
        <time>2018-11-02T11:13:30Z</time>
      </trkpt>
      <trkpt lat="48.38218" lon="2.64017">
        <ele>122.86</ele>
        <time>2018-11-02T11:14:13Z</time>
      </trkpt>
      <trkpt lat="48.3821" lon="2.64019">
        <ele>122.85</ele>
        <time>2018-11-02T11:14:35Z</time>
      </trkpt>
      <trkpt lat="48.3821" lon="2.64035">
        <ele>122.86</ele>
        <time>2018-11-02T11:14:53Z</time>
      </trkpt>
      <trkpt lat="48.38213" lon="2.6405">
        <ele>122.85</ele>
        <time>2018-11-02T11:15:12Z</time>
      </trkpt>
      <trkpt lat="48.38212" lon="2.64064">
        <ele>120.54</ele>
        <time>2018-11-02T11:15:25Z</time>
      </trkpt>
      <trkpt lat="48.38208" lon="2.64082">
        <ele>120.49</ele>
        <time>2018-11-02T11:15:43Z</time>
      </trkpt>
      <trkpt lat="48.38207" lon="2.64111">
        <ele>117.96</ele>
        <time>2018-11-02T11:16:03Z</time>
      </trkpt>
      <trkpt lat="48.38201" lon="2.64119">
        <ele>115.5</ele>
        <time>2018-11-02T11:16:21Z</time>
      </trkpt>
      <trkpt lat="48.38195" lon="2.64104">
        <ele>112.42</ele>
        <time>2018-11-02T11:16:38Z</time>
      </trkpt>
      <trkpt lat="48.3819" lon="2.64081">
        <ele>109.65</ele>
        <time>2018-11-02T11:16:58Z</time>
      </trkpt>
      <trkpt lat="48.38184" lon="2.64066">
        <ele>106.57</ele>
        <time>2018-11-02T11:17:11Z</time>
      </trkpt>
      <trkpt lat="48.38183" lon="2.64065">
        <ele>106.58</ele>
        <time>2018-11-02T11:17:12Z</time>
      </trkpt>
      <trkpt lat="48.3817" lon="2.64065">
        <ele>103.51</ele>
        <time>2018-11-02T11:17:29Z</time>
      </trkpt>
      <trkpt lat="48.38166" lon="2.64068">
        <ele>103.52</ele>
        <time>2018-11-02T11:17:32Z</time>
      </trkpt>
      <trkpt lat="48.38149" lon="2.6408">
        <ele>101.76</ele>
        <time>2018-11-02T11:17:49Z</time>
      </trkpt>
      <trkpt lat="48.38143" lon="2.64087">
        <ele>100.37</ele>
        <time>2018-11-02T11:18:07Z</time>
      </trkpt>
      <trkpt lat="48.38139" lon="2.64102">
        <ele>100.39</ele>
        <time>2018-11-02T11:18:24Z</time>
      </trkpt>
      <trkpt lat="48.38139" lon="2.64127">
        <ele>99.68</ele>
        <time>2018-11-02T11:18:43Z</time>
      </trkpt>
      <trkpt lat="48.38133" lon="2.64137">
        <ele>98.85</ele>
        <time>2018-11-02T11:18:58Z</time>
      </trkpt>
      <trkpt lat="48.38126" lon="2.64139">
        <ele>98.85</ele>
        <time>2018-11-02T11:19:06Z</time>
      </trkpt>
      <trkpt lat="48.38125" lon="2.64139">
        <ele>98.86</ele>
        <time>2018-11-02T11:19:07Z</time>
      </trkpt>
      <trkpt lat="48.38114" lon="2.6414">
        <ele>97.99</ele>
        <time>2018-11-02T11:19:22Z</time>
      </trkpt>
      <trkpt lat="48.38101" lon="2.64137">
        <ele>98.04</ele>
        <time>2018-11-02T11:19:36Z</time>
      </trkpt>
      <trkpt lat="48.38084" lon="2.64134">
        <ele>98.07</ele>
        <time>2018-11-02T11:19:51Z</time>
      </trkpt>
      <trkpt lat="48.38071" lon="2.64132">
        <ele>98.12</ele>
        <time>2018-11-02T11:20:04Z</time>
      </trkpt>
      <trkpt lat="48.38066" lon="2.64133">
        <ele>100.39</ele>
        <time>2018-11-02T11:20:10Z</time>
      </trkpt>
      <trkpt lat="48.38052" lon="2.6413">
        <ele>102.17</ele>
        <time>2018-11-02T11:20:27Z</time>
      </trkpt>
      <trkpt lat="48.38044" lon="2.64129">
        <ele>103.95</ele>
        <time>2018-11-02T11:20:42Z</time>
      </trkpt>
      <trkpt lat="48.38035" lon="2.64127">
        <ele>105.77</ele>
        <time>2018-11-02T11:20:57Z</time>
      </trkpt>
      <trkpt lat="48.38028" lon="2.64126">
        <ele>108.8</ele>
        <time>2018-11-02T11:21:12Z</time>
      </trkpt>
      <trkpt lat="48.38021" lon="2.64123">
        <ele>110.47</ele>
        <time>2018-11-02T11:21:28Z</time>
      </trkpt>
      <trkpt lat="48.38013" lon="2.64117">
        <ele>112.21</ele>
        <time>2018-11-02T11:21:53Z</time>
      </trkpt>
      <trkpt lat="48.37997" lon="2.64106">
        <ele>113.71</ele>
        <time>2018-11-02T11:22:11Z</time>
      </trkpt>
      <trkpt lat="48.37984" lon="2.64098">
        <ele>114.55</ele>
        <time>2018-11-02T11:22:23Z</time>
      </trkpt>
      <trkpt lat="48.37971" lon="2.64089">
        <ele>115.3</ele>
        <time>2018-11-02T11:22:36Z</time>
      </trkpt>
      <trkpt lat="48.3797" lon="2.64087">
        <ele>115.3</ele>
        <time>2018-11-02T11:22:37Z</time>
      </trkpt>
      <trkpt lat="48.37964" lon="2.64084">
        <ele>116.13</ele>
        <time>2018-11-02T11:22:42Z</time>
      </trkpt>
      <trkpt lat="48.37963" lon="2.64083">
        <ele>116.13</ele>
        <time>2018-11-02T11:22:43Z</time>
      </trkpt>
      <trkpt lat="48.37948" lon="2.64074">
        <ele>116.06</ele>
        <time>2018-11-02T11:22:56Z</time>
      </trkpt>
      <trkpt lat="48.37937" lon="2.64063">
        <ele>116.93</ele>
        <time>2018-11-02T11:23:09Z</time>
      </trkpt>
      <trkpt lat="48.37924" lon="2.64051">
        <ele>116.91</ele>
        <time>2018-11-02T11:23:23Z</time>
      </trkpt>
      <trkpt lat="48.3791" lon="2.6404">
        <ele>117.63</ele>
        <time>2018-11-02T11:23:37Z</time>
      </trkpt>
      <trkpt lat="48.37889" lon="2.64032">
        <ele>118.48</ele>
        <time>2018-11-02T11:23:51Z</time>
      </trkpt>
      <trkpt lat="48.37886" lon="2.64032">
        <ele>118.47</ele>
        <time>2018-11-02T11:23:53Z</time>
      </trkpt>
      <trkpt lat="48.37885" lon="2.64031">
        <ele>118.47</ele>
        <time>2018-11-02T11:23:54Z</time>
      </trkpt>
      <trkpt lat="48.37883" lon="2.64031">
        <ele>118.47</ele>
        <time>2018-11-02T11:23:55Z</time>
      </trkpt>
      <trkpt lat="48.37874" lon="2.64026">
        <ele>118.45</ele>
        <time>2018-11-02T11:24:02Z</time>
      </trkpt>
      <trkpt lat="48.37864" lon="2.6402">
        <ele>118.49</ele>
        <time>2018-11-02T11:24:15Z</time>
      </trkpt>
      <trkpt lat="48.37848" lon="2.6401">
        <ele>119.22</ele>
        <time>2018-11-02T11:24:32Z</time>
      </trkpt>
      <trkpt lat="48.37837" lon="2.64006">
        <ele>119.22</ele>
        <time>2018-11-02T11:24:45Z</time>
      </trkpt>
      <trkpt lat="48.37828" lon="2.63999">
        <ele>119.21</ele>
        <time>2018-11-02T11:24:54Z</time>
      </trkpt>
      <trkpt lat="48.37827" lon="2.63997">
        <ele>119.21</ele>
        <time>2018-11-02T11:24:55Z</time>
      </trkpt>
      <trkpt lat="48.37815" lon="2.6399">
        <ele>119.21</ele>
        <time>2018-11-02T11:25:07Z</time>
      </trkpt>
      <trkpt lat="48.37802" lon="2.6398">
        <ele>119.22</ele>
        <time>2018-11-02T11:25:23Z</time>
      </trkpt>
      <trkpt lat="48.37789" lon="2.6397">
        <ele>119.22</ele>
        <time>2018-11-02T11:25:37Z</time>
      </trkpt>
      <trkpt lat="48.37779" lon="2.63961">
        <ele>120.12</ele>
        <time>2018-11-02T11:25:51Z</time>
      </trkpt>
      <trkpt lat="48.37758" lon="2.6395">
        <ele>120.16</ele>
        <time>2018-11-02T11:26:08Z</time>
      </trkpt>
      <trkpt lat="48.37745" lon="2.6395">
        <ele>120.19</ele>
        <time>2018-11-02T11:26:21Z</time>
      </trkpt>
      <trkpt lat="48.37744" lon="2.63951">
        <ele>120.2</ele>
        <time>2018-11-02T11:26:22Z</time>
      </trkpt>
      <trkpt lat="48.37734" lon="2.63959">
        <ele>120.22</ele>
        <time>2018-11-02T11:26:28Z</time>
      </trkpt>
      <trkpt lat="48.37732" lon="2.6396">
        <ele>120.22</ele>
        <time>2018-11-02T11:26:29Z</time>
      </trkpt>
      <trkpt lat="48.3772" lon="2.63974">
        <ele>120.19</ele>
        <time>2018-11-02T11:26:39Z</time>
      </trkpt>
      <trkpt lat="48.3771" lon="2.63985">
        <ele>120.3</ele>
        <time>2018-11-02T11:26:51Z</time>
      </trkpt>
      <trkpt lat="48.37708" lon="2.63987">
        <ele>120.3</ele>
        <time>2018-11-02T11:26:53Z</time>
      </trkpt>
      <trkpt lat="48.37699" lon="2.63994">
        <ele>117.91</ele>
        <time>2018-11-02T11:27:01Z</time>
      </trkpt>
      <trkpt lat="48.37697" lon="2.63996">
        <ele>117.92</ele>
        <time>2018-11-02T11:27:03Z</time>
      </trkpt>
      <trkpt lat="48.37684" lon="2.64002">
        <ele>116.16</ele>
        <time>2018-11-02T11:27:14Z</time>
      </trkpt>
      <trkpt lat="48.37681" lon="2.64005">
        <ele>115.38</ele>
        <time>2018-11-02T11:27:17Z</time>
      </trkpt>
      <trkpt lat="48.37666" lon="2.64011">
        <ele>113.89</ele>
        <time>2018-11-02T11:27:30Z</time>
      </trkpt>
      <trkpt lat="48.37652" lon="2.6402">
        <ele>114.13</ele>
        <time>2018-11-02T11:27:44Z</time>
      </trkpt>
      <trkpt lat="48.37638" lon="2.64032">
        <ele>114.24</ele>
        <time>2018-11-02T11:27:59Z</time>
      </trkpt>
      <trkpt lat="48.37624" lon="2.64047">
        <ele>114.35</ele>
        <time>2018-11-02T11:28:12Z</time>
      </trkpt>
      <trkpt lat="48.37623" lon="2.64049">
        <ele>116.7</ele>
        <time>2018-11-02T11:28:14Z</time>
      </trkpt>
      <trkpt lat="48.376" lon="2.64066">
        <ele>119.16</ele>
        <time>2018-11-02T11:28:35Z</time>
      </trkpt>
      <trkpt lat="48.37581" lon="2.64082">
        <ele>119.95</ele>
        <time>2018-11-02T11:28:50Z</time>
      </trkpt>
      <trkpt lat="48.37575" lon="2.64085">
        <ele>119.93</ele>
        <time>2018-11-02T11:28:56Z</time>
      </trkpt>
      <trkpt lat="48.37573" lon="2.64086">
        <ele>119.92</ele>
        <time>2018-11-02T11:28:57Z</time>
      </trkpt>
      <trkpt lat="48.37561" lon="2.64096">
        <ele>120</ele>
        <time>2018-11-02T11:29:09Z</time>
      </trkpt>
      <trkpt lat="48.37556" lon="2.641">
        <ele>117.71</ele>
        <time>2018-11-02T11:29:16Z</time>
      </trkpt>
      <trkpt lat="48.3755" lon="2.64107">
        <ele>116.82</ele>
        <time>2018-11-02T11:29:24Z</time>
      </trkpt>
      <trkpt lat="48.37549" lon="2.64108">
        <ele>116.81</ele>
        <time>2018-11-02T11:29:25Z</time>
      </trkpt>
      <trkpt lat="48.37539" lon="2.64116">
        <ele>115.1</ele>
        <time>2018-11-02T11:29:36Z</time>
      </trkpt>
      <trkpt lat="48.37529" lon="2.64121">
        <ele>114.41</ele>
        <time>2018-11-02T11:29:45Z</time>
      </trkpt>
      <trkpt lat="48.37517" lon="2.64131">
        <ele>114.58</ele>
        <time>2018-11-02T11:29:57Z</time>
      </trkpt>
      <trkpt lat="48.37497" lon="2.64145">
        <ele>117.01</ele>
        <time>2018-11-02T11:30:15Z</time>
      </trkpt>
      <trkpt lat="48.37483" lon="2.64158">
        <ele>117.95</ele>
        <time>2018-11-02T11:30:28Z</time>
      </trkpt>
      <trkpt lat="48.37467" lon="2.64168">
        <ele>119.5</ele>
        <time>2018-11-02T11:30:44Z</time>
      </trkpt>
      <trkpt lat="48.37453" lon="2.64179">
        <ele>119.5</ele>
        <time>2018-11-02T11:30:58Z</time>
      </trkpt>
      <trkpt lat="48.37449" lon="2.64183">
        <ele>119.49</ele>
        <time>2018-11-02T11:31:01Z</time>
      </trkpt>
      <trkpt lat="48.37447" lon="2.64184">
        <ele>119.5</ele>
        <time>2018-11-02T11:31:02Z</time>
      </trkpt>
      <trkpt lat="48.37446" lon="2.64185">
        <ele>120.3</ele>
        <time>2018-11-02T11:31:03Z</time>
      </trkpt>
      <trkpt lat="48.37433" lon="2.64196">
        <ele>120.34</ele>
        <time>2018-11-02T11:31:16Z</time>
      </trkpt>
      <trkpt lat="48.37418" lon="2.64205">
        <ele>121.18</ele>
        <time>2018-11-02T11:31:29Z</time>
      </trkpt>
      <trkpt lat="48.37403" lon="2.64218">
        <ele>122.06</ele>
        <time>2018-11-02T11:31:47Z</time>
      </trkpt>
      <trkpt lat="48.37385" lon="2.64229">
        <ele>122.92</ele>
        <time>2018-11-02T11:32:04Z</time>
      </trkpt>
      <trkpt lat="48.37366" lon="2.64241">
        <ele>124.74</ele>
        <time>2018-11-02T11:32:23Z</time>
      </trkpt>
      <trkpt lat="48.37352" lon="2.64256">
        <ele>124.83</ele>
        <time>2018-11-02T11:32:36Z</time>
      </trkpt>
      <trkpt lat="48.37339" lon="2.64267">
        <ele>125.69</ele>
        <time>2018-11-02T11:32:51Z</time>
      </trkpt>
      <trkpt lat="48.37326" lon="2.64274">
        <ele>125.76</ele>
        <time>2018-11-02T11:33:03Z</time>
      </trkpt>
      <trkpt lat="48.37305" lon="2.64288">
        <ele>125.88</ele>
        <time>2018-11-02T11:33:21Z</time>
      </trkpt>
      <trkpt lat="48.37297" lon="2.64291">
        <ele>125.93</ele>
        <time>2018-11-02T11:33:28Z</time>
      </trkpt>
      <trkpt lat="48.37295" lon="2.64291">
        <ele>125.94</ele>
        <time>2018-11-02T11:33:29Z</time>
      </trkpt>
      <trkpt lat="48.37293" lon="2.6429">
        <ele>125.94</ele>
        <time>2018-11-02T11:33:30Z</time>
      </trkpt>
      <trkpt lat="48.37292" lon="2.64289">
        <ele>125.95</ele>
        <time>2018-11-02T11:33:31Z</time>
      </trkpt>
      <trkpt lat="48.37291" lon="2.64288">
        <ele>125.96</ele>
        <time>2018-11-02T11:33:32Z</time>
      </trkpt>
      <trkpt lat="48.37279" lon="2.64295">
        <ele>126.88</ele>
        <time>2018-11-02T11:33:45Z</time>
      </trkpt>
      <trkpt lat="48.3728" lon="2.64296">
        <ele>126.87</ele>
        <time>2018-11-02T11:33:46Z</time>
      </trkpt>
      <trkpt lat="48.37274" lon="2.64294">
        <ele>126.9</ele>
        <time>2018-11-02T11:34:03Z</time>
      </trkpt>
      <trkpt lat="48.37273" lon="2.64292">
        <ele>148.53</ele>
        <time>2018-11-02T11:34:17Z</time>
      </trkpt>
    </trkseg>
  </trk>
</gpx>